<?xml version="1.0" encoding="UTF-8" standalone="no" ?>
<gpx xmlns="http://www.topografix.com/GPX/1/1" xmlns:xsi="http://www.w3.org/2001/XMLSchema-instance" xsi:schemaLocation="http://www.topografix.com/GPX/1/1 http://www.topografix.com/GPX/1/1/gpx.xsd" version="1.1" creator="VisuGPX - https://www.visugpx.com">
  <metadata>
    <name>Reco rando brassac</name>
    <desc><![CDATA[Premier jour de reco]]></desc>
  </metadata>
  <trk>
    <name><![CDATA[reco lac le merle modifie]]></name>
    <trkseg>
      <trkpt lat="43.60971" lon="2.42327">
        <ele>509.3</ele>
        <time>2015-05-14T08:56:16Z</time>
      </trkpt>
      <trkpt lat="43.60971" lon="2.42327">
        <ele>509.3</ele>
        <time>2015-05-14T08:56:17Z</time>
      </trkpt>
      <trkpt lat="43.60971" lon="2.42328">
        <ele>509.3</ele>
        <time>2015-05-14T08:56:22Z</time>
      </trkpt>
      <trkpt lat="43.60974" lon="2.42329">
        <ele>510.2</ele>
        <time>2015-05-14T08:56:35Z</time>
      </trkpt>
      <trkpt lat="43.6098" lon="2.42318">
        <ele>510.6</ele>
        <time>2015-05-14T08:56:41Z</time>
      </trkpt>
      <trkpt lat="43.60989" lon="2.42302">
        <ele>510.5</ele>
        <time>2015-05-14T08:56:54Z</time>
      </trkpt>
      <trkpt lat="43.61004" lon="2.42285">
        <ele>510</ele>
        <time>2015-05-14T08:57:09Z</time>
      </trkpt>
      <trkpt lat="43.61036" lon="2.42286">
        <ele>509.9</ele>
        <time>2015-05-14T08:57:24Z</time>
      </trkpt>
      <trkpt lat="43.61059" lon="2.42295">
        <ele>512.7</ele>
        <time>2015-05-14T08:57:37Z</time>
      </trkpt>
      <trkpt lat="43.61083" lon="2.42304">
        <ele>515.6</ele>
        <time>2015-05-14T08:57:51Z</time>
      </trkpt>
      <trkpt lat="43.61111" lon="2.4231">
        <ele>519.5</ele>
        <time>2015-05-14T08:58:05Z</time>
      </trkpt>
      <trkpt lat="43.61133" lon="2.42311">
        <ele>522.3</ele>
        <time>2015-05-14T08:58:18Z</time>
      </trkpt>
      <trkpt lat="43.61149" lon="2.42307">
        <ele>523.7</ele>
        <time>2015-05-14T08:58:27Z</time>
      </trkpt>
      <trkpt lat="43.61151" lon="2.42305">
        <ele>523.6</ele>
        <time>2015-05-14T08:58:28Z</time>
      </trkpt>
      <trkpt lat="43.61153" lon="2.42304">
        <ele>523.6</ele>
        <time>2015-05-14T08:58:29Z</time>
      </trkpt>
      <trkpt lat="43.61178" lon="2.42282">
        <ele>523.7</ele>
        <time>2015-05-14T08:58:46Z</time>
      </trkpt>
      <trkpt lat="43.61198" lon="2.42265">
        <ele>525</ele>
        <time>2015-05-14T08:59:00Z</time>
      </trkpt>
      <trkpt lat="43.61205" lon="2.42262">
        <ele>526.2</ele>
        <time>2015-05-14T08:59:09Z</time>
      </trkpt>
      <trkpt lat="43.61207" lon="2.42261">
        <ele>526.3</ele>
        <time>2015-05-14T08:59:10Z</time>
      </trkpt>
      <trkpt lat="43.61209" lon="2.42261">
        <ele>526.8</ele>
        <time>2015-05-14T08:59:12Z</time>
      </trkpt>
      <trkpt lat="43.61217" lon="2.4227">
        <ele>530.4</ele>
        <time>2015-05-14T08:59:25Z</time>
      </trkpt>
      <trkpt lat="43.61218" lon="2.42276">
        <ele>531.7</ele>
        <time>2015-05-14T08:59:53Z</time>
      </trkpt>
      <trkpt lat="43.61223" lon="2.42279">
        <ele>533.4</ele>
        <time>2015-05-14T09:00:16Z</time>
      </trkpt>
      <trkpt lat="43.61225" lon="2.42279">
        <ele>533.8</ele>
        <time>2015-05-14T09:00:35Z</time>
      </trkpt>
      <trkpt lat="43.61228" lon="2.42279">
        <ele>534.4</ele>
        <time>2015-05-14T09:00:46Z</time>
      </trkpt>
      <trkpt lat="43.61229" lon="2.4228">
        <ele>534.7</ele>
        <time>2015-05-14T09:00:47Z</time>
      </trkpt>
      <trkpt lat="43.61239" lon="2.42279">
        <ele>536.3</ele>
        <time>2015-05-14T09:00:59Z</time>
      </trkpt>
      <trkpt lat="43.61249" lon="2.42279">
        <ele>538</ele>
        <time>2015-05-14T09:01:12Z</time>
      </trkpt>
      <trkpt lat="43.61261" lon="2.42279">
        <ele>539.1</ele>
        <time>2015-05-14T09:01:19Z</time>
      </trkpt>
      <trkpt lat="43.61283" lon="2.42283">
        <ele>541.8</ele>
        <time>2015-05-14T09:01:30Z</time>
      </trkpt>
      <trkpt lat="43.61285" lon="2.42283">
        <ele>542.3</ele>
        <time>2015-05-14T09:01:31Z</time>
      </trkpt>
      <trkpt lat="43.61306" lon="2.42294">
        <ele>546.2</ele>
        <time>2015-05-14T09:01:45Z</time>
      </trkpt>
      <trkpt lat="43.61315" lon="2.42284">
        <ele>547.5</ele>
        <time>2015-05-14T09:01:58Z</time>
      </trkpt>
      <trkpt lat="43.61326" lon="2.4228">
        <ele>550</ele>
        <time>2015-05-14T09:02:10Z</time>
      </trkpt>
      <trkpt lat="43.6134" lon="2.42283">
        <ele>553.6</ele>
        <time>2015-05-14T09:02:25Z</time>
      </trkpt>
      <trkpt lat="43.61354" lon="2.42285">
        <ele>557.1</ele>
        <time>2015-05-14T09:02:40Z</time>
      </trkpt>
      <trkpt lat="43.61365" lon="2.42291">
        <ele>558.7</ele>
        <time>2015-05-14T09:02:57Z</time>
      </trkpt>
      <trkpt lat="43.61376" lon="2.42294">
        <ele>560.7</ele>
        <time>2015-05-14T09:03:11Z</time>
      </trkpt>
      <trkpt lat="43.61391" lon="2.42294">
        <ele>564.7</ele>
        <time>2015-05-14T09:03:26Z</time>
      </trkpt>
      <trkpt lat="43.61406" lon="2.42294">
        <ele>568.6</ele>
        <time>2015-05-14T09:03:44Z</time>
      </trkpt>
      <trkpt lat="43.61416" lon="2.42299">
        <ele>570.2</ele>
        <time>2015-05-14T09:04:01Z</time>
      </trkpt>
      <trkpt lat="43.61421" lon="2.42307">
        <ele>570.2</ele>
        <time>2015-05-14T09:04:26Z</time>
      </trkpt>
      <trkpt lat="43.61427" lon="2.42307">
        <ele>572.4</ele>
        <time>2015-05-14T09:04:53Z</time>
      </trkpt>
      <trkpt lat="43.61436" lon="2.42308">
        <ele>575.3</ele>
        <time>2015-05-14T09:05:06Z</time>
      </trkpt>
      <trkpt lat="43.61446" lon="2.42317">
        <ele>578</ele>
        <time>2015-05-14T09:05:21Z</time>
      </trkpt>
      <trkpt lat="43.61457" lon="2.42329">
        <ele>579.8</ele>
        <time>2015-05-14T09:05:36Z</time>
      </trkpt>
      <trkpt lat="43.61462" lon="2.42333">
        <ele>580.8</ele>
        <time>2015-05-14T09:05:49Z</time>
      </trkpt>
      <trkpt lat="43.6147" lon="2.42339">
        <ele>582.4</ele>
        <time>2015-05-14T09:06:01Z</time>
      </trkpt>
      <trkpt lat="43.61478" lon="2.4235">
        <ele>583.6</ele>
        <time>2015-05-14T09:06:15Z</time>
      </trkpt>
      <trkpt lat="43.61486" lon="2.42356">
        <ele>584.4</ele>
        <time>2015-05-14T09:06:28Z</time>
      </trkpt>
      <trkpt lat="43.6149" lon="2.42358">
        <ele>584.9</ele>
        <time>2015-05-14T09:06:41Z</time>
      </trkpt>
      <trkpt lat="43.61491" lon="2.42359">
        <ele>585</ele>
        <time>2015-05-14T09:06:45Z</time>
      </trkpt>
      <trkpt lat="43.61496" lon="2.4237">
        <ele>585.8</ele>
        <time>2015-05-14T09:06:51Z</time>
      </trkpt>
      <trkpt lat="43.61497" lon="2.42372">
        <ele>585.9</ele>
        <time>2015-05-14T09:06:52Z</time>
      </trkpt>
      <trkpt lat="43.61497" lon="2.42373">
        <ele>586.1</ele>
        <time>2015-05-14T09:06:53Z</time>
      </trkpt>
      <trkpt lat="43.61498" lon="2.42375">
        <ele>586.2</ele>
        <time>2015-05-14T09:06:54Z</time>
      </trkpt>
      <trkpt lat="43.61498" lon="2.42378">
        <ele>586.3</ele>
        <time>2015-05-14T09:06:55Z</time>
      </trkpt>
      <trkpt lat="43.61499" lon="2.4238">
        <ele>586.5</ele>
        <time>2015-05-14T09:06:56Z</time>
      </trkpt>
      <trkpt lat="43.61504" lon="2.42392">
        <ele>587.3</ele>
        <time>2015-05-14T09:07:03Z</time>
      </trkpt>
      <trkpt lat="43.61505" lon="2.42394">
        <ele>587.4</ele>
        <time>2015-05-14T09:07:04Z</time>
      </trkpt>
      <trkpt lat="43.61506" lon="2.42395">
        <ele>587.6</ele>
        <time>2015-05-14T09:07:05Z</time>
      </trkpt>
      <trkpt lat="43.61507" lon="2.42396">
        <ele>587.7</ele>
        <time>2015-05-14T09:07:06Z</time>
      </trkpt>
      <trkpt lat="43.61508" lon="2.42397">
        <ele>587.8</ele>
        <time>2015-05-14T09:07:07Z</time>
      </trkpt>
      <trkpt lat="43.61509" lon="2.42399">
        <ele>587.9</ele>
        <time>2015-05-14T09:07:08Z</time>
      </trkpt>
      <trkpt lat="43.61521" lon="2.42417">
        <ele>589.7</ele>
        <time>2015-05-14T09:07:22Z</time>
      </trkpt>
      <trkpt lat="43.61521" lon="2.42419">
        <ele>589.7</ele>
        <time>2015-05-14T09:07:23Z</time>
      </trkpt>
      <trkpt lat="43.61522" lon="2.42421">
        <ele>589.7</ele>
        <time>2015-05-14T09:07:24Z</time>
      </trkpt>
      <trkpt lat="43.61531" lon="2.42442">
        <ele>590.9</ele>
        <time>2015-05-14T09:07:37Z</time>
      </trkpt>
      <trkpt lat="43.61532" lon="2.42443">
        <ele>591.1</ele>
        <time>2015-05-14T09:07:38Z</time>
      </trkpt>
      <trkpt lat="43.61538" lon="2.42449">
        <ele>592.5</ele>
        <time>2015-05-14T09:07:44Z</time>
      </trkpt>
      <trkpt lat="43.6154" lon="2.42448">
        <ele>592.9</ele>
        <time>2015-05-14T09:07:45Z</time>
      </trkpt>
      <trkpt lat="43.61541" lon="2.42447">
        <ele>593.3</ele>
        <time>2015-05-14T09:07:46Z</time>
      </trkpt>
      <trkpt lat="43.61562" lon="2.4244">
        <ele>597.6</ele>
        <time>2015-05-14T09:07:58Z</time>
      </trkpt>
      <trkpt lat="43.61589" lon="2.4244">
        <ele>600.8</ele>
        <time>2015-05-14T09:08:14Z</time>
      </trkpt>
      <trkpt lat="43.61593" lon="2.42441">
        <ele>601.3</ele>
        <time>2015-05-14T09:08:17Z</time>
      </trkpt>
      <trkpt lat="43.61595" lon="2.42441">
        <ele>601.4</ele>
        <time>2015-05-14T09:08:18Z</time>
      </trkpt>
      <trkpt lat="43.61613" lon="2.42445">
        <ele>603.1</ele>
        <time>2015-05-14T09:08:31Z</time>
      </trkpt>
      <trkpt lat="43.61629" lon="2.42454">
        <ele>604.4</ele>
        <time>2015-05-14T09:08:41Z</time>
      </trkpt>
      <trkpt lat="43.61643" lon="2.42459">
        <ele>604.7</ele>
        <time>2015-05-14T09:08:49Z</time>
      </trkpt>
      <trkpt lat="43.61645" lon="2.4246">
        <ele>604.7</ele>
        <time>2015-05-14T09:08:50Z</time>
      </trkpt>
      <trkpt lat="43.61647" lon="2.42461">
        <ele>604.6</ele>
        <time>2015-05-14T09:08:51Z</time>
      </trkpt>
      <trkpt lat="43.61648" lon="2.42462">
        <ele>604.6</ele>
        <time>2015-05-14T09:08:52Z</time>
      </trkpt>
      <trkpt lat="43.6165" lon="2.42463">
        <ele>604.5</ele>
        <time>2015-05-14T09:08:53Z</time>
      </trkpt>
      <trkpt lat="43.61652" lon="2.42463">
        <ele>604.4</ele>
        <time>2015-05-14T09:08:54Z</time>
      </trkpt>
      <trkpt lat="43.61654" lon="2.42465">
        <ele>604.4</ele>
        <time>2015-05-14T09:08:55Z</time>
      </trkpt>
      <trkpt lat="43.61656" lon="2.42466">
        <ele>604.3</ele>
        <time>2015-05-14T09:08:56Z</time>
      </trkpt>
      <trkpt lat="43.6166" lon="2.42467">
        <ele>604.1</ele>
        <time>2015-05-14T09:08:57Z</time>
      </trkpt>
      <trkpt lat="43.61663" lon="2.42468">
        <ele>604</ele>
        <time>2015-05-14T09:08:58Z</time>
      </trkpt>
      <trkpt lat="43.61666" lon="2.4247">
        <ele>603.9</ele>
        <time>2015-05-14T09:08:59Z</time>
      </trkpt>
      <trkpt lat="43.61668" lon="2.42471">
        <ele>603.8</ele>
        <time>2015-05-14T09:09:00Z</time>
      </trkpt>
      <trkpt lat="43.6167" lon="2.42471">
        <ele>603.7</ele>
        <time>2015-05-14T09:09:01Z</time>
      </trkpt>
      <trkpt lat="43.6172" lon="2.42476">
        <ele>600.8</ele>
        <time>2015-05-14T09:09:13Z</time>
      </trkpt>
      <trkpt lat="43.6176" lon="2.42465">
        <ele>599.5</ele>
        <time>2015-05-14T09:09:24Z</time>
      </trkpt>
      <trkpt lat="43.61795" lon="2.42444">
        <ele>595.8</ele>
        <time>2015-05-14T09:09:35Z</time>
      </trkpt>
      <trkpt lat="43.61836" lon="2.42404">
        <ele>592.2</ele>
        <time>2015-05-14T09:09:48Z</time>
      </trkpt>
      <trkpt lat="43.61866" lon="2.42373">
        <ele>591.3</ele>
        <time>2015-05-14T09:09:59Z</time>
      </trkpt>
      <trkpt lat="43.61877" lon="2.42362">
        <ele>590.8</ele>
        <time>2015-05-14T09:10:02Z</time>
      </trkpt>
      <trkpt lat="43.61897" lon="2.42349">
        <ele>588.1</ele>
        <time>2015-05-14T09:10:09Z</time>
      </trkpt>
      <trkpt lat="43.61917" lon="2.42336">
        <ele>586.6</ele>
        <time>2015-05-14T09:10:16Z</time>
      </trkpt>
      <trkpt lat="43.61938" lon="2.42323">
        <ele>582.4</ele>
        <time>2015-05-14T09:10:23Z</time>
      </trkpt>
      <trkpt lat="43.61941" lon="2.42321">
        <ele>582</ele>
        <time>2015-05-14T09:10:24Z</time>
      </trkpt>
      <trkpt lat="43.61958" lon="2.42307">
        <ele>579.3</ele>
        <time>2015-05-14T09:10:29Z</time>
      </trkpt>
      <trkpt lat="43.61974" lon="2.42293">
        <ele>576.1</ele>
        <time>2015-05-14T09:10:35Z</time>
      </trkpt>
      <trkpt lat="43.61981" lon="2.42284">
        <ele>574.4</ele>
        <time>2015-05-14T09:10:38Z</time>
      </trkpt>
      <trkpt lat="43.61989" lon="2.42272">
        <ele>572.8</ele>
        <time>2015-05-14T09:10:42Z</time>
      </trkpt>
      <trkpt lat="43.61992" lon="2.42269">
        <ele>571.8</ele>
        <time>2015-05-14T09:10:44Z</time>
      </trkpt>
      <trkpt lat="43.61994" lon="2.42267">
        <ele>571.5</ele>
        <time>2015-05-14T09:10:45Z</time>
      </trkpt>
      <trkpt lat="43.61997" lon="2.4226">
        <ele>570.6</ele>
        <time>2015-05-14T09:10:48Z</time>
      </trkpt>
      <trkpt lat="43.61998" lon="2.42251">
        <ele>570.5</ele>
        <time>2015-05-14T09:10:51Z</time>
      </trkpt>
      <trkpt lat="43.61999" lon="2.42242">
        <ele>570.7</ele>
        <time>2015-05-14T09:10:54Z</time>
      </trkpt>
      <trkpt lat="43.61998" lon="2.42245">
        <ele>570.9</ele>
        <time>2015-05-14T09:10:56Z</time>
      </trkpt>
      <trkpt lat="43.62" lon="2.42253">
        <ele>570</ele>
        <time>2015-05-14T09:10:57Z</time>
      </trkpt>
      <trkpt lat="43.62002" lon="2.42262">
        <ele>568.9</ele>
        <time>2015-05-14T09:10:58Z</time>
      </trkpt>
      <trkpt lat="43.6201" lon="2.4228">
        <ele>564</ele>
        <time>2015-05-14T09:10:59Z</time>
      </trkpt>
      <trkpt lat="43.62025" lon="2.42277">
        <ele>558.3</ele>
        <time>2015-05-14T09:11:02Z</time>
      </trkpt>
      <trkpt lat="43.6203" lon="2.42272">
        <ele>556.7</ele>
        <time>2015-05-14T09:11:04Z</time>
      </trkpt>
      <trkpt lat="43.62035" lon="2.42267">
        <ele>555.2</ele>
        <time>2015-05-14T09:11:06Z</time>
      </trkpt>
      <trkpt lat="43.6204" lon="2.42259">
        <ele>554</ele>
        <time>2015-05-14T09:11:08Z</time>
      </trkpt>
      <trkpt lat="43.62054" lon="2.4224">
        <ele>550.3</ele>
        <time>2015-05-14T09:11:12Z</time>
      </trkpt>
      <trkpt lat="43.62058" lon="2.42237">
        <ele>549</ele>
        <time>2015-05-14T09:11:16Z</time>
      </trkpt>
      <trkpt lat="43.6206" lon="2.42245">
        <ele>547.4</ele>
        <time>2015-05-14T09:11:17Z</time>
      </trkpt>
      <trkpt lat="43.62062" lon="2.42249">
        <ele>546.1</ele>
        <time>2015-05-14T09:11:18Z</time>
      </trkpt>
      <trkpt lat="43.62065" lon="2.42251">
        <ele>544.6</ele>
        <time>2015-05-14T09:11:19Z</time>
      </trkpt>
      <trkpt lat="43.62069" lon="2.4225">
        <ele>543.3</ele>
        <time>2015-05-14T09:11:20Z</time>
      </trkpt>
      <trkpt lat="43.62072" lon="2.42248">
        <ele>542.1</ele>
        <time>2015-05-14T09:11:21Z</time>
      </trkpt>
      <trkpt lat="43.62073" lon="2.42246">
        <ele>541.8</ele>
        <time>2015-05-14T09:11:22Z</time>
      </trkpt>
      <trkpt lat="43.62082" lon="2.42223">
        <ele>538.4</ele>
        <time>2015-05-14T09:11:34Z</time>
      </trkpt>
      <trkpt lat="43.62087" lon="2.42223">
        <ele>536.5</ele>
        <time>2015-05-14T09:11:37Z</time>
      </trkpt>
      <trkpt lat="43.62088" lon="2.42226">
        <ele>536.2</ele>
        <time>2015-05-14T09:11:38Z</time>
      </trkpt>
      <trkpt lat="43.62088" lon="2.42229">
        <ele>536.1</ele>
        <time>2015-05-14T09:11:39Z</time>
      </trkpt>
      <trkpt lat="43.62086" lon="2.42244">
        <ele>536.3</ele>
        <time>2015-05-14T09:11:42Z</time>
      </trkpt>
      <trkpt lat="43.62083" lon="2.42256">
        <ele>536.7</ele>
        <time>2015-05-14T09:11:45Z</time>
      </trkpt>
      <trkpt lat="43.62082" lon="2.4226">
        <ele>536.7</ele>
        <time>2015-05-14T09:11:50Z</time>
      </trkpt>
      <trkpt lat="43.62142" lon="2.42262">
        <ele>527.9</ele>
        <time>2015-05-14T09:12:00Z</time>
      </trkpt>
      <trkpt lat="43.62142" lon="2.4226">
        <ele>528</ele>
        <time>2015-05-14T09:12:01Z</time>
      </trkpt>
      <trkpt lat="43.62152" lon="2.42242">
        <ele>531.4</ele>
        <time>2015-05-14T09:12:12Z</time>
      </trkpt>
      <trkpt lat="43.62156" lon="2.42233">
        <ele>532.8</ele>
        <time>2015-05-14T09:12:26Z</time>
      </trkpt>
      <trkpt lat="43.62161" lon="2.42216">
        <ele>534.9</ele>
        <time>2015-05-14T09:12:37Z</time>
      </trkpt>
      <trkpt lat="43.62165" lon="2.422">
        <ele>536.5</ele>
        <time>2015-05-14T09:12:48Z</time>
      </trkpt>
      <trkpt lat="43.6217" lon="2.42181">
        <ele>539.1</ele>
        <time>2015-05-14T09:12:59Z</time>
      </trkpt>
      <trkpt lat="43.62171" lon="2.42156">
        <ele>540.1</ele>
        <time>2015-05-14T09:13:13Z</time>
      </trkpt>
      <trkpt lat="43.62173" lon="2.42137">
        <ele>541.9</ele>
        <time>2015-05-14T09:13:26Z</time>
      </trkpt>
      <trkpt lat="43.62176" lon="2.42128">
        <ele>543.8</ele>
        <time>2015-05-14T09:13:46Z</time>
      </trkpt>
      <trkpt lat="43.62175" lon="2.42122">
        <ele>544</ele>
        <time>2015-05-14T09:13:59Z</time>
      </trkpt>
      <trkpt lat="43.62179" lon="2.42106">
        <ele>546.4</ele>
        <time>2015-05-14T09:14:13Z</time>
      </trkpt>
      <trkpt lat="43.62184" lon="2.42085">
        <ele>549.5</ele>
        <time>2015-05-14T09:14:26Z</time>
      </trkpt>
      <trkpt lat="43.62188" lon="2.42065">
        <ele>551</ele>
        <time>2015-05-14T09:14:41Z</time>
      </trkpt>
      <trkpt lat="43.62192" lon="2.42051">
        <ele>551.9</ele>
        <time>2015-05-14T09:14:53Z</time>
      </trkpt>
      <trkpt lat="43.62195" lon="2.42038">
        <ele>551.7</ele>
        <time>2015-05-14T09:15:06Z</time>
      </trkpt>
      <trkpt lat="43.62203" lon="2.42028">
        <ele>553.1</ele>
        <time>2015-05-14T09:15:19Z</time>
      </trkpt>
      <trkpt lat="43.62213" lon="2.42024">
        <ele>556.2</ele>
        <time>2015-05-14T09:15:32Z</time>
      </trkpt>
      <trkpt lat="43.62217" lon="2.42021">
        <ele>557.6</ele>
        <time>2015-05-14T09:15:37Z</time>
      </trkpt>
      <trkpt lat="43.62227" lon="2.42009">
        <ele>560.5</ele>
        <time>2015-05-14T09:15:49Z</time>
      </trkpt>
      <trkpt lat="43.62229" lon="2.42007">
        <ele>561</ele>
        <time>2015-05-14T09:15:52Z</time>
      </trkpt>
      <trkpt lat="43.62227" lon="2.41992">
        <ele>560.8</ele>
        <time>2015-05-14T09:16:06Z</time>
      </trkpt>
      <trkpt lat="43.62228" lon="2.4198">
        <ele>561.7</ele>
        <time>2015-05-14T09:16:20Z</time>
      </trkpt>
      <trkpt lat="43.62227" lon="2.41972">
        <ele>561.9</ele>
        <time>2015-05-14T09:16:42Z</time>
      </trkpt>
      <trkpt lat="43.62226" lon="2.41968">
        <ele>561.8</ele>
        <time>2015-05-14T09:16:48Z</time>
      </trkpt>
      <trkpt lat="43.62227" lon="2.4196">
        <ele>563</ele>
        <time>2015-05-14T09:16:52Z</time>
      </trkpt>
      <trkpt lat="43.62226" lon="2.41939">
        <ele>564.3</ele>
        <time>2015-05-14T09:17:08Z</time>
      </trkpt>
      <trkpt lat="43.62229" lon="2.4192">
        <ele>567.2</ele>
        <time>2015-05-14T09:17:22Z</time>
      </trkpt>
      <trkpt lat="43.62233" lon="2.41909">
        <ele>569</ele>
        <time>2015-05-14T09:17:28Z</time>
      </trkpt>
      <trkpt lat="43.62238" lon="2.41896">
        <ele>571</ele>
        <time>2015-05-14T09:17:43Z</time>
      </trkpt>
      <trkpt lat="43.62248" lon="2.41889">
        <ele>575.7</ele>
        <time>2015-05-14T09:18:00Z</time>
      </trkpt>
      <trkpt lat="43.62256" lon="2.41881">
        <ele>576.8</ele>
        <time>2015-05-14T09:18:13Z</time>
      </trkpt>
      <trkpt lat="43.62264" lon="2.41876">
        <ele>577.4</ele>
        <time>2015-05-14T09:18:24Z</time>
      </trkpt>
      <trkpt lat="43.6227" lon="2.41875">
        <ele>578.6</ele>
        <time>2015-05-14T09:18:37Z</time>
      </trkpt>
      <trkpt lat="43.62272" lon="2.41881">
        <ele>580.7</ele>
        <time>2015-05-14T09:18:51Z</time>
      </trkpt>
      <trkpt lat="43.62273" lon="2.419">
        <ele>584.4</ele>
        <time>2015-05-14T09:19:05Z</time>
      </trkpt>
      <trkpt lat="43.62274" lon="2.41918">
        <ele>586.9</ele>
        <time>2015-05-14T09:19:17Z</time>
      </trkpt>
      <trkpt lat="43.62276" lon="2.41939">
        <ele>588.9</ele>
        <time>2015-05-14T09:19:34Z</time>
      </trkpt>
      <trkpt lat="43.62281" lon="2.41931">
        <ele>590.1</ele>
        <time>2015-05-14T09:19:47Z</time>
      </trkpt>
      <trkpt lat="43.62284" lon="2.41925">
        <ele>590.3</ele>
        <time>2015-05-14T09:19:54Z</time>
      </trkpt>
      <trkpt lat="43.62295" lon="2.41913">
        <ele>592.5</ele>
        <time>2015-05-14T09:20:06Z</time>
      </trkpt>
      <trkpt lat="43.62297" lon="2.41911">
        <ele>592.7</ele>
        <time>2015-05-14T09:20:08Z</time>
      </trkpt>
      <trkpt lat="43.62301" lon="2.41907">
        <ele>593</ele>
        <time>2015-05-14T09:20:12Z</time>
      </trkpt>
      <trkpt lat="43.6232" lon="2.41883">
        <ele>593.8</ele>
        <time>2015-05-14T09:20:27Z</time>
      </trkpt>
      <trkpt lat="43.62334" lon="2.41875">
        <ele>596.2</ele>
        <time>2015-05-14T09:20:39Z</time>
      </trkpt>
      <trkpt lat="43.62337" lon="2.41872">
        <ele>596.5</ele>
        <time>2015-05-14T09:20:42Z</time>
      </trkpt>
      <trkpt lat="43.6234" lon="2.4187">
        <ele>597.1</ele>
        <time>2015-05-14T09:20:44Z</time>
      </trkpt>
      <trkpt lat="43.62346" lon="2.41864">
        <ele>597.6</ele>
        <time>2015-05-14T09:20:49Z</time>
      </trkpt>
      <trkpt lat="43.62358" lon="2.41851">
        <ele>599.8</ele>
        <time>2015-05-14T09:21:02Z</time>
      </trkpt>
      <trkpt lat="43.62365" lon="2.41827">
        <ele>600.8</ele>
        <time>2015-05-14T09:21:13Z</time>
      </trkpt>
      <trkpt lat="43.62364" lon="2.41819">
        <ele>600.4</ele>
        <time>2015-05-14T09:21:19Z</time>
      </trkpt>
      <trkpt lat="43.62362" lon="2.41814">
        <ele>599.4</ele>
        <time>2015-05-14T09:21:21Z</time>
      </trkpt>
      <trkpt lat="43.62361" lon="2.41804">
        <ele>598.9</ele>
        <time>2015-05-14T09:21:25Z</time>
      </trkpt>
      <trkpt lat="43.62365" lon="2.41774">
        <ele>602.9</ele>
        <time>2015-05-14T09:21:38Z</time>
      </trkpt>
      <trkpt lat="43.62368" lon="2.41749">
        <ele>604.7</ele>
        <time>2015-05-14T09:21:49Z</time>
      </trkpt>
      <trkpt lat="43.6237" lon="2.41736">
        <ele>604.9</ele>
        <time>2015-05-14T09:21:55Z</time>
      </trkpt>
      <trkpt lat="43.62381" lon="2.41703">
        <ele>607.1</ele>
        <time>2015-05-14T09:22:09Z</time>
      </trkpt>
      <trkpt lat="43.62391" lon="2.41673">
        <ele>607.8</ele>
        <time>2015-05-14T09:22:21Z</time>
      </trkpt>
      <trkpt lat="43.62401" lon="2.41644">
        <ele>609.6</ele>
        <time>2015-05-14T09:22:34Z</time>
      </trkpt>
      <trkpt lat="43.62413" lon="2.41622">
        <ele>612.2</ele>
        <time>2015-05-14T09:22:48Z</time>
      </trkpt>
      <trkpt lat="43.6242" lon="2.41606">
        <ele>613.6</ele>
        <time>2015-05-14T09:23:00Z</time>
      </trkpt>
      <trkpt lat="43.62426" lon="2.41588">
        <ele>614.9</ele>
        <time>2015-05-14T09:23:13Z</time>
      </trkpt>
      <trkpt lat="43.62429" lon="2.41579">
        <ele>615.2</ele>
        <time>2015-05-14T09:23:16Z</time>
      </trkpt>
      <trkpt lat="43.6243" lon="2.41577">
        <ele>615.3</ele>
        <time>2015-05-14T09:23:17Z</time>
      </trkpt>
      <trkpt lat="43.62431" lon="2.41575">
        <ele>615.4</ele>
        <time>2015-05-14T09:23:18Z</time>
      </trkpt>
      <trkpt lat="43.62432" lon="2.41573">
        <ele>615.4</ele>
        <time>2015-05-14T09:23:19Z</time>
      </trkpt>
      <trkpt lat="43.62432" lon="2.41571">
        <ele>615.5</ele>
        <time>2015-05-14T09:23:20Z</time>
      </trkpt>
      <trkpt lat="43.62433" lon="2.41568">
        <ele>615.5</ele>
        <time>2015-05-14T09:23:21Z</time>
      </trkpt>
      <trkpt lat="43.62433" lon="2.41566">
        <ele>615.6</ele>
        <time>2015-05-14T09:23:22Z</time>
      </trkpt>
      <trkpt lat="43.62434" lon="2.41564">
        <ele>615.6</ele>
        <time>2015-05-14T09:23:23Z</time>
      </trkpt>
      <trkpt lat="43.62442" lon="2.41539">
        <ele>616.7</ele>
        <time>2015-05-14T09:23:34Z</time>
      </trkpt>
      <trkpt lat="43.62449" lon="2.41528">
        <ele>617.8</ele>
        <time>2015-05-14T09:23:41Z</time>
      </trkpt>
      <trkpt lat="43.6245" lon="2.41527">
        <ele>618</ele>
        <time>2015-05-14T09:23:42Z</time>
      </trkpt>
      <trkpt lat="43.62463" lon="2.41508">
        <ele>619.6</ele>
        <time>2015-05-14T09:23:51Z</time>
      </trkpt>
      <trkpt lat="43.62464" lon="2.41507">
        <ele>619.8</ele>
        <time>2015-05-14T09:23:52Z</time>
      </trkpt>
      <trkpt lat="43.62466" lon="2.41505">
        <ele>620</ele>
        <time>2015-05-14T09:23:53Z</time>
      </trkpt>
      <trkpt lat="43.62467" lon="2.41503">
        <ele>620.1</ele>
        <time>2015-05-14T09:23:54Z</time>
      </trkpt>
      <trkpt lat="43.62474" lon="2.41482">
        <ele>621.5</ele>
        <time>2015-05-14T09:24:05Z</time>
      </trkpt>
      <trkpt lat="43.62474" lon="2.41479">
        <ele>621.6</ele>
        <time>2015-05-14T09:24:06Z</time>
      </trkpt>
      <trkpt lat="43.62475" lon="2.41477">
        <ele>621.8</ele>
        <time>2015-05-14T09:24:07Z</time>
      </trkpt>
      <trkpt lat="43.62486" lon="2.41439">
        <ele>622.9</ele>
        <time>2015-05-14T09:24:21Z</time>
      </trkpt>
      <trkpt lat="43.62486" lon="2.41436">
        <ele>622.9</ele>
        <time>2015-05-14T09:24:22Z</time>
      </trkpt>
      <trkpt lat="43.62486" lon="2.41433">
        <ele>622.9</ele>
        <time>2015-05-14T09:24:23Z</time>
      </trkpt>
      <trkpt lat="43.62487" lon="2.4143">
        <ele>622.9</ele>
        <time>2015-05-14T09:24:24Z</time>
      </trkpt>
      <trkpt lat="43.62487" lon="2.41427">
        <ele>623</ele>
        <time>2015-05-14T09:24:25Z</time>
      </trkpt>
      <trkpt lat="43.62488" lon="2.41424">
        <ele>623.1</ele>
        <time>2015-05-14T09:24:26Z</time>
      </trkpt>
      <trkpt lat="43.62488" lon="2.41421">
        <ele>623.2</ele>
        <time>2015-05-14T09:24:27Z</time>
      </trkpt>
      <trkpt lat="43.62489" lon="2.41418">
        <ele>623.3</ele>
        <time>2015-05-14T09:24:28Z</time>
      </trkpt>
      <trkpt lat="43.62492" lon="2.41409">
        <ele>623.7</ele>
        <time>2015-05-14T09:24:32Z</time>
      </trkpt>
      <trkpt lat="43.62492" lon="2.41407">
        <ele>623.8</ele>
        <time>2015-05-14T09:24:33Z</time>
      </trkpt>
      <trkpt lat="43.62493" lon="2.41403">
        <ele>624</ele>
        <time>2015-05-14T09:24:35Z</time>
      </trkpt>
      <trkpt lat="43.62494" lon="2.41401">
        <ele>624.1</ele>
        <time>2015-05-14T09:24:36Z</time>
      </trkpt>
      <trkpt lat="43.62503" lon="2.41374">
        <ele>626</ele>
        <time>2015-05-14T09:24:49Z</time>
      </trkpt>
      <trkpt lat="43.62503" lon="2.41373">
        <ele>626.1</ele>
        <time>2015-05-14T09:24:50Z</time>
      </trkpt>
      <trkpt lat="43.62503" lon="2.4137">
        <ele>626.1</ele>
        <time>2015-05-14T09:24:51Z</time>
      </trkpt>
      <trkpt lat="43.62509" lon="2.41345">
        <ele>628.1</ele>
        <time>2015-05-14T09:25:04Z</time>
      </trkpt>
      <trkpt lat="43.62522" lon="2.41307">
        <ele>631.8</ele>
        <time>2015-05-14T09:25:19Z</time>
      </trkpt>
      <trkpt lat="43.62528" lon="2.41292">
        <ele>632.6</ele>
        <time>2015-05-14T09:25:26Z</time>
      </trkpt>
      <trkpt lat="43.62539" lon="2.41271">
        <ele>634</ele>
        <time>2015-05-14T09:25:37Z</time>
      </trkpt>
      <trkpt lat="43.62557" lon="2.41245">
        <ele>636</ele>
        <time>2015-05-14T09:25:51Z</time>
      </trkpt>
      <trkpt lat="43.62576" lon="2.41224">
        <ele>637.8</ele>
        <time>2015-05-14T09:26:05Z</time>
      </trkpt>
      <trkpt lat="43.62577" lon="2.41223">
        <ele>637.9</ele>
        <time>2015-05-14T09:26:06Z</time>
      </trkpt>
      <trkpt lat="43.62578" lon="2.41222">
        <ele>638</ele>
        <time>2015-05-14T09:26:07Z</time>
      </trkpt>
      <trkpt lat="43.62596" lon="2.41209">
        <ele>638.9</ele>
        <time>2015-05-14T09:26:20Z</time>
      </trkpt>
      <trkpt lat="43.62616" lon="2.41201">
        <ele>640.7</ele>
        <time>2015-05-14T09:26:33Z</time>
      </trkpt>
      <trkpt lat="43.62636" lon="2.41192">
        <ele>641.2</ele>
        <time>2015-05-14T09:26:45Z</time>
      </trkpt>
      <trkpt lat="43.6264" lon="2.41185">
        <ele>640</ele>
        <time>2015-05-14T09:27:00Z</time>
      </trkpt>
      <trkpt lat="43.62644" lon="2.41183">
        <ele>639.6</ele>
        <time>2015-05-14T09:27:19Z</time>
      </trkpt>
      <trkpt lat="43.62637" lon="2.4118">
        <ele>638.7</ele>
        <time>2015-05-14T09:27:50Z</time>
      </trkpt>
      <trkpt lat="43.62646" lon="2.41191">
        <ele>641.1</ele>
        <time>2015-05-14T09:28:20Z</time>
      </trkpt>
      <trkpt lat="43.6265" lon="2.41188">
        <ele>640.4</ele>
        <time>2015-05-14T09:28:37Z</time>
      </trkpt>
      <trkpt lat="43.62651" lon="2.41187">
        <ele>640.3</ele>
        <time>2015-05-14T09:28:38Z</time>
      </trkpt>
      <trkpt lat="43.62663" lon="2.41189">
        <ele>640.3</ele>
        <time>2015-05-14T09:28:43Z</time>
      </trkpt>
      <trkpt lat="43.62668" lon="2.41194">
        <ele>640.8</ele>
        <time>2015-05-14T09:28:46Z</time>
      </trkpt>
      <trkpt lat="43.62674" lon="2.41197">
        <ele>640.7</ele>
        <time>2015-05-14T09:28:48Z</time>
      </trkpt>
      <trkpt lat="43.62676" lon="2.41195">
        <ele>640.4</ele>
        <time>2015-05-14T09:28:49Z</time>
      </trkpt>
      <trkpt lat="43.62683" lon="2.41191">
        <ele>639.4</ele>
        <time>2015-05-14T09:28:50Z</time>
      </trkpt>
      <trkpt lat="43.62689" lon="2.41187">
        <ele>638.3</ele>
        <time>2015-05-14T09:28:51Z</time>
      </trkpt>
      <trkpt lat="43.62693" lon="2.41182">
        <ele>637.3</ele>
        <time>2015-05-14T09:28:52Z</time>
      </trkpt>
      <trkpt lat="43.62698" lon="2.41177">
        <ele>637.1</ele>
        <time>2015-05-14T09:28:53Z</time>
      </trkpt>
      <trkpt lat="43.62706" lon="2.41168">
        <ele>637.1</ele>
        <time>2015-05-14T09:28:55Z</time>
      </trkpt>
      <trkpt lat="43.62726" lon="2.41133">
        <ele>637.6</ele>
        <time>2015-05-14T09:29:05Z</time>
      </trkpt>
      <trkpt lat="43.6273" lon="2.41115">
        <ele>638.5</ele>
        <time>2015-05-14T09:29:14Z</time>
      </trkpt>
      <trkpt lat="43.62731" lon="2.41113">
        <ele>638.6</ele>
        <time>2015-05-14T09:29:15Z</time>
      </trkpt>
      <trkpt lat="43.62732" lon="2.4111">
        <ele>638.8</ele>
        <time>2015-05-14T09:29:16Z</time>
      </trkpt>
      <trkpt lat="43.62738" lon="2.41085">
        <ele>640.5</ele>
        <time>2015-05-14T09:29:27Z</time>
      </trkpt>
      <trkpt lat="43.62745" lon="2.41062">
        <ele>643.1</ele>
        <time>2015-05-14T09:29:39Z</time>
      </trkpt>
      <trkpt lat="43.62746" lon="2.4106">
        <ele>643.3</ele>
        <time>2015-05-14T09:29:40Z</time>
      </trkpt>
      <trkpt lat="43.62746" lon="2.41059">
        <ele>643.5</ele>
        <time>2015-05-14T09:29:41Z</time>
      </trkpt>
      <trkpt lat="43.62748" lon="2.41059">
        <ele>643.5</ele>
        <time>2015-05-14T09:29:42Z</time>
      </trkpt>
      <trkpt lat="43.62749" lon="2.41059">
        <ele>643.5</ele>
        <time>2015-05-14T09:29:43Z</time>
      </trkpt>
      <trkpt lat="43.62751" lon="2.4106">
        <ele>643.5</ele>
        <time>2015-05-14T09:29:44Z</time>
      </trkpt>
      <trkpt lat="43.62753" lon="2.41061">
        <ele>643.5</ele>
        <time>2015-05-14T09:29:45Z</time>
      </trkpt>
      <trkpt lat="43.62788" lon="2.4106">
        <ele>643.3</ele>
        <time>2015-05-14T09:29:59Z</time>
      </trkpt>
      <trkpt lat="43.62827" lon="2.41053">
        <ele>643.1</ele>
        <time>2015-05-14T09:30:11Z</time>
      </trkpt>
      <trkpt lat="43.62859" lon="2.41065">
        <ele>643.9</ele>
        <time>2015-05-14T09:30:25Z</time>
      </trkpt>
      <trkpt lat="43.62854" lon="2.41116">
        <ele>645</ele>
        <time>2015-05-14T09:30:38Z</time>
      </trkpt>
      <trkpt lat="43.62863" lon="2.41149">
        <ele>646.4</ele>
        <time>2015-05-14T09:30:48Z</time>
      </trkpt>
      <trkpt lat="43.62866" lon="2.41151">
        <ele>646.5</ele>
        <time>2015-05-14T09:30:49Z</time>
      </trkpt>
      <trkpt lat="43.6287" lon="2.41152">
        <ele>646.5</ele>
        <time>2015-05-14T09:30:50Z</time>
      </trkpt>
      <trkpt lat="43.62873" lon="2.41153">
        <ele>646.5</ele>
        <time>2015-05-14T09:30:51Z</time>
      </trkpt>
      <trkpt lat="43.62876" lon="2.41153">
        <ele>646.5</ele>
        <time>2015-05-14T09:30:52Z</time>
      </trkpt>
      <trkpt lat="43.62879" lon="2.41154">
        <ele>646.5</ele>
        <time>2015-05-14T09:30:53Z</time>
      </trkpt>
      <trkpt lat="43.62881" lon="2.41153">
        <ele>646.5</ele>
        <time>2015-05-14T09:30:54Z</time>
      </trkpt>
      <trkpt lat="43.62883" lon="2.41153">
        <ele>646.5</ele>
        <time>2015-05-14T09:30:55Z</time>
      </trkpt>
      <trkpt lat="43.62886" lon="2.41152">
        <ele>646.5</ele>
        <time>2015-05-14T09:30:56Z</time>
      </trkpt>
      <trkpt lat="43.62889" lon="2.41153">
        <ele>646.5</ele>
        <time>2015-05-14T09:30:57Z</time>
      </trkpt>
      <trkpt lat="43.62891" lon="2.41153">
        <ele>646.5</ele>
        <time>2015-05-14T09:30:58Z</time>
      </trkpt>
      <trkpt lat="43.62893" lon="2.41155">
        <ele>646.6</ele>
        <time>2015-05-14T09:30:59Z</time>
      </trkpt>
      <trkpt lat="43.62896" lon="2.41156">
        <ele>646.6</ele>
        <time>2015-05-14T09:31:00Z</time>
      </trkpt>
      <trkpt lat="43.62898" lon="2.41157">
        <ele>646.7</ele>
        <time>2015-05-14T09:31:01Z</time>
      </trkpt>
      <trkpt lat="43.62902" lon="2.41158">
        <ele>646.7</ele>
        <time>2015-05-14T09:31:02Z</time>
      </trkpt>
      <trkpt lat="43.6296" lon="2.41181">
        <ele>647</ele>
        <time>2015-05-14T09:31:13Z</time>
      </trkpt>
      <trkpt lat="43.63024" lon="2.41198">
        <ele>648</ele>
        <time>2015-05-14T09:31:26Z</time>
      </trkpt>
      <trkpt lat="43.63069" lon="2.41204">
        <ele>649.3</ele>
        <time>2015-05-14T09:31:38Z</time>
      </trkpt>
      <trkpt lat="43.63128" lon="2.41212">
        <ele>649.6</ele>
        <time>2015-05-14T09:31:53Z</time>
      </trkpt>
      <trkpt lat="43.63173" lon="2.4122">
        <ele>651.5</ele>
        <time>2015-05-14T09:32:06Z</time>
      </trkpt>
      <trkpt lat="43.63219" lon="2.41221">
        <ele>653</ele>
        <time>2015-05-14T09:32:18Z</time>
      </trkpt>
      <trkpt lat="43.63257" lon="2.41221">
        <ele>650.9</ele>
        <time>2015-05-14T09:32:30Z</time>
      </trkpt>
      <trkpt lat="43.63258" lon="2.41217">
        <ele>651.3</ele>
        <time>2015-05-14T09:32:54Z</time>
      </trkpt>
      <trkpt lat="43.6326" lon="2.41216">
        <ele>651.3</ele>
        <time>2015-05-14T09:32:55Z</time>
      </trkpt>
      <trkpt lat="43.63262" lon="2.41216">
        <ele>651.2</ele>
        <time>2015-05-14T09:32:56Z</time>
      </trkpt>
      <trkpt lat="43.63291" lon="2.41216">
        <ele>650.1</ele>
        <time>2015-05-14T09:33:06Z</time>
      </trkpt>
      <trkpt lat="43.63345" lon="2.41247">
        <ele>647.9</ele>
        <time>2015-05-14T09:33:20Z</time>
      </trkpt>
      <trkpt lat="43.63392" lon="2.41273">
        <ele>654.6</ele>
        <time>2015-05-14T09:33:35Z</time>
      </trkpt>
      <trkpt lat="43.63421" lon="2.41281">
        <ele>657.8</ele>
        <time>2015-05-14T09:33:47Z</time>
      </trkpt>
      <trkpt lat="43.6344" lon="2.41274">
        <ele>659.2</ele>
        <time>2015-05-14T09:33:57Z</time>
      </trkpt>
      <trkpt lat="43.63446" lon="2.41274">
        <ele>659.3</ele>
        <time>2015-05-14T09:33:59Z</time>
      </trkpt>
      <trkpt lat="43.63484" lon="2.41247">
        <ele>660.5</ele>
        <time>2015-05-14T09:34:12Z</time>
      </trkpt>
      <trkpt lat="43.63514" lon="2.41211">
        <ele>663</ele>
        <time>2015-05-14T09:34:24Z</time>
      </trkpt>
      <trkpt lat="43.63547" lon="2.41179">
        <ele>662.6</ele>
        <time>2015-05-14T09:34:37Z</time>
      </trkpt>
      <trkpt lat="43.63595" lon="2.41171">
        <ele>661</ele>
        <time>2015-05-14T09:34:51Z</time>
      </trkpt>
      <trkpt lat="43.63646" lon="2.41164">
        <ele>661.8</ele>
        <time>2015-05-14T09:35:06Z</time>
      </trkpt>
      <trkpt lat="43.63683" lon="2.41159">
        <ele>661.9</ele>
        <time>2015-05-14T09:35:18Z</time>
      </trkpt>
      <trkpt lat="43.63724" lon="2.41155">
        <ele>661.6</ele>
        <time>2015-05-14T09:35:30Z</time>
      </trkpt>
      <trkpt lat="43.63762" lon="2.4116">
        <ele>661</ele>
        <time>2015-05-14T09:35:43Z</time>
      </trkpt>
      <trkpt lat="43.63788" lon="2.41155">
        <ele>661</ele>
        <time>2015-05-14T09:35:49Z</time>
      </trkpt>
      <trkpt lat="43.63793" lon="2.41153">
        <ele>661</ele>
        <time>2015-05-14T09:35:50Z</time>
      </trkpt>
      <trkpt lat="43.63798" lon="2.4115">
        <ele>661</ele>
        <time>2015-05-14T09:35:51Z</time>
      </trkpt>
      <trkpt lat="43.63803" lon="2.41147">
        <ele>661</ele>
        <time>2015-05-14T09:35:52Z</time>
      </trkpt>
      <trkpt lat="43.63807" lon="2.41144">
        <ele>661</ele>
        <time>2015-05-14T09:35:53Z</time>
      </trkpt>
      <trkpt lat="43.6382" lon="2.41132">
        <ele>661.1</ele>
        <time>2015-05-14T09:35:56Z</time>
      </trkpt>
      <trkpt lat="43.63838" lon="2.41111">
        <ele>662</ele>
        <time>2015-05-14T09:36:01Z</time>
      </trkpt>
      <trkpt lat="43.63846" lon="2.41105">
        <ele>662</ele>
        <time>2015-05-14T09:36:03Z</time>
      </trkpt>
      <trkpt lat="43.6385" lon="2.41103">
        <ele>662</ele>
        <time>2015-05-14T09:36:04Z</time>
      </trkpt>
      <trkpt lat="43.63853" lon="2.41103">
        <ele>662</ele>
        <time>2015-05-14T09:36:05Z</time>
      </trkpt>
      <trkpt lat="43.63856" lon="2.41103">
        <ele>662</ele>
        <time>2015-05-14T09:36:06Z</time>
      </trkpt>
      <trkpt lat="43.63858" lon="2.41103">
        <ele>662</ele>
        <time>2015-05-14T09:36:07Z</time>
      </trkpt>
      <trkpt lat="43.63859" lon="2.41102">
        <ele>662</ele>
        <time>2015-05-14T09:36:08Z</time>
      </trkpt>
      <trkpt lat="43.6386" lon="2.411">
        <ele>662</ele>
        <time>2015-05-14T09:36:09Z</time>
      </trkpt>
      <trkpt lat="43.63861" lon="2.41098">
        <ele>662</ele>
        <time>2015-05-14T09:36:10Z</time>
      </trkpt>
      <trkpt lat="43.63862" lon="2.41095">
        <ele>662</ele>
        <time>2015-05-14T09:36:11Z</time>
      </trkpt>
      <trkpt lat="43.63862" lon="2.41091">
        <ele>662</ele>
        <time>2015-05-14T09:36:12Z</time>
      </trkpt>
      <trkpt lat="43.63863" lon="2.41087">
        <ele>662</ele>
        <time>2015-05-14T09:36:13Z</time>
      </trkpt>
      <trkpt lat="43.63864" lon="2.41083">
        <ele>662</ele>
        <time>2015-05-14T09:36:14Z</time>
      </trkpt>
      <trkpt lat="43.63865" lon="2.41079">
        <ele>662.2</ele>
        <time>2015-05-14T09:36:15Z</time>
      </trkpt>
      <trkpt lat="43.63866" lon="2.41075">
        <ele>662.3</ele>
        <time>2015-05-14T09:36:16Z</time>
      </trkpt>
      <trkpt lat="43.63867" lon="2.41071">
        <ele>662.5</ele>
        <time>2015-05-14T09:36:17Z</time>
      </trkpt>
      <trkpt lat="43.63868" lon="2.41066">
        <ele>662.6</ele>
        <time>2015-05-14T09:36:18Z</time>
      </trkpt>
      <trkpt lat="43.63872" lon="2.41014">
        <ele>664.9</ele>
        <time>2015-05-14T09:36:32Z</time>
      </trkpt>
      <trkpt lat="43.6387" lon="2.41004">
        <ele>665.2</ele>
        <time>2015-05-14T09:36:36Z</time>
      </trkpt>
      <trkpt lat="43.63869" lon="2.41002">
        <ele>665.2</ele>
        <time>2015-05-14T09:36:37Z</time>
      </trkpt>
      <trkpt lat="43.63868" lon="2.40999">
        <ele>665.3</ele>
        <time>2015-05-14T09:36:38Z</time>
      </trkpt>
      <trkpt lat="43.63866" lon="2.40997">
        <ele>665.4</ele>
        <time>2015-05-14T09:36:39Z</time>
      </trkpt>
      <trkpt lat="43.63865" lon="2.40994">
        <ele>665.6</ele>
        <time>2015-05-14T09:36:40Z</time>
      </trkpt>
      <trkpt lat="43.63865" lon="2.40991">
        <ele>665.8</ele>
        <time>2015-05-14T09:36:41Z</time>
      </trkpt>
      <trkpt lat="43.63865" lon="2.40987">
        <ele>666</ele>
        <time>2015-05-14T09:36:42Z</time>
      </trkpt>
      <trkpt lat="43.63865" lon="2.40984">
        <ele>666.3</ele>
        <time>2015-05-14T09:36:43Z</time>
      </trkpt>
      <trkpt lat="43.63866" lon="2.40981">
        <ele>666.5</ele>
        <time>2015-05-14T09:36:44Z</time>
      </trkpt>
      <trkpt lat="43.63867" lon="2.40979">
        <ele>666.8</ele>
        <time>2015-05-14T09:36:45Z</time>
      </trkpt>
      <trkpt lat="43.63869" lon="2.40976">
        <ele>667</ele>
        <time>2015-05-14T09:36:46Z</time>
      </trkpt>
      <trkpt lat="43.6387" lon="2.40974">
        <ele>667.2</ele>
        <time>2015-05-14T09:36:47Z</time>
      </trkpt>
      <trkpt lat="43.63871" lon="2.40972">
        <ele>667.3</ele>
        <time>2015-05-14T09:36:48Z</time>
      </trkpt>
      <trkpt lat="43.63872" lon="2.40969">
        <ele>667.5</ele>
        <time>2015-05-14T09:36:50Z</time>
      </trkpt>
      <trkpt lat="43.6387" lon="2.40963">
        <ele>667.7</ele>
        <time>2015-05-14T09:36:52Z</time>
      </trkpt>
      <trkpt lat="43.63868" lon="2.40962">
        <ele>667.7</ele>
        <time>2015-05-14T09:36:53Z</time>
      </trkpt>
      <trkpt lat="43.63866" lon="2.40961">
        <ele>667.7</ele>
        <time>2015-05-14T09:36:54Z</time>
      </trkpt>
      <trkpt lat="43.63865" lon="2.40959">
        <ele>667.7</ele>
        <time>2015-05-14T09:36:55Z</time>
      </trkpt>
      <trkpt lat="43.63862" lon="2.40956">
        <ele>667.7</ele>
        <time>2015-05-14T09:36:56Z</time>
      </trkpt>
      <trkpt lat="43.6386" lon="2.40953">
        <ele>667.6</ele>
        <time>2015-05-14T09:36:57Z</time>
      </trkpt>
      <trkpt lat="43.63845" lon="2.40927">
        <ele>668.1</ele>
        <time>2015-05-14T09:37:09Z</time>
      </trkpt>
      <trkpt lat="43.63846" lon="2.40924">
        <ele>668.3</ele>
        <time>2015-05-14T09:37:13Z</time>
      </trkpt>
      <trkpt lat="43.63849" lon="2.40915">
        <ele>669.2</ele>
        <time>2015-05-14T09:37:17Z</time>
      </trkpt>
      <trkpt lat="43.63851" lon="2.40912">
        <ele>669.4</ele>
        <time>2015-05-14T09:37:18Z</time>
      </trkpt>
      <trkpt lat="43.63852" lon="2.40909">
        <ele>669.6</ele>
        <time>2015-05-14T09:37:19Z</time>
      </trkpt>
      <trkpt lat="43.63852" lon="2.40906">
        <ele>669.8</ele>
        <time>2015-05-14T09:37:20Z</time>
      </trkpt>
      <trkpt lat="43.63853" lon="2.40903">
        <ele>669.9</ele>
        <time>2015-05-14T09:37:21Z</time>
      </trkpt>
      <trkpt lat="43.63853" lon="2.40901">
        <ele>670</ele>
        <time>2015-05-14T09:37:22Z</time>
      </trkpt>
      <trkpt lat="43.63853" lon="2.40898">
        <ele>670.1</ele>
        <time>2015-05-14T09:37:23Z</time>
      </trkpt>
      <trkpt lat="43.63853" lon="2.40897">
        <ele>670.1</ele>
        <time>2015-05-14T09:37:24Z</time>
      </trkpt>
      <trkpt lat="43.63859" lon="2.40866">
        <ele>670.9</ele>
        <time>2015-05-14T09:37:35Z</time>
      </trkpt>
      <trkpt lat="43.63859" lon="2.40854">
        <ele>670.9</ele>
        <time>2015-05-14T09:37:40Z</time>
      </trkpt>
      <trkpt lat="43.63859" lon="2.40852">
        <ele>670.9</ele>
        <time>2015-05-14T09:37:41Z</time>
      </trkpt>
      <trkpt lat="43.63859" lon="2.4085">
        <ele>670.9</ele>
        <time>2015-05-14T09:37:42Z</time>
      </trkpt>
      <trkpt lat="43.63857" lon="2.4084">
        <ele>670.9</ele>
        <time>2015-05-14T09:37:46Z</time>
      </trkpt>
      <trkpt lat="43.63856" lon="2.40838">
        <ele>670.8</ele>
        <time>2015-05-14T09:37:47Z</time>
      </trkpt>
      <trkpt lat="43.63832" lon="2.40803">
        <ele>668.5</ele>
        <time>2015-05-14T09:37:58Z</time>
      </trkpt>
      <trkpt lat="43.63813" lon="2.40792">
        <ele>663.8</ele>
        <time>2015-05-14T09:38:06Z</time>
      </trkpt>
      <trkpt lat="43.63812" lon="2.40788">
        <ele>663.2</ele>
        <time>2015-05-14T09:38:07Z</time>
      </trkpt>
      <trkpt lat="43.63813" lon="2.40782">
        <ele>662.6</ele>
        <time>2015-05-14T09:38:08Z</time>
      </trkpt>
      <trkpt lat="43.63814" lon="2.40777">
        <ele>662.1</ele>
        <time>2015-05-14T09:38:09Z</time>
      </trkpt>
      <trkpt lat="43.63816" lon="2.40771">
        <ele>661.5</ele>
        <time>2015-05-14T09:38:10Z</time>
      </trkpt>
      <trkpt lat="43.63817" lon="2.40765">
        <ele>660.8</ele>
        <time>2015-05-14T09:38:11Z</time>
      </trkpt>
      <trkpt lat="43.6383" lon="2.40735">
        <ele>658.3</ele>
        <time>2015-05-14T09:38:15Z</time>
      </trkpt>
      <trkpt lat="43.63832" lon="2.40726">
        <ele>657.4</ele>
        <time>2015-05-14T09:38:16Z</time>
      </trkpt>
      <trkpt lat="43.63834" lon="2.40718">
        <ele>656.4</ele>
        <time>2015-05-14T09:38:17Z</time>
      </trkpt>
      <trkpt lat="43.63834" lon="2.40711">
        <ele>655.4</ele>
        <time>2015-05-14T09:38:18Z</time>
      </trkpt>
      <trkpt lat="43.63831" lon="2.407">
        <ele>653.4</ele>
        <time>2015-05-14T09:38:20Z</time>
      </trkpt>
      <trkpt lat="43.63831" lon="2.40695">
        <ele>652.8</ele>
        <time>2015-05-14T09:38:21Z</time>
      </trkpt>
      <trkpt lat="43.63832" lon="2.40692">
        <ele>652.4</ele>
        <time>2015-05-14T09:38:22Z</time>
      </trkpt>
      <trkpt lat="43.63833" lon="2.40688">
        <ele>652.1</ele>
        <time>2015-05-14T09:38:23Z</time>
      </trkpt>
      <trkpt lat="43.63835" lon="2.40685">
        <ele>651.8</ele>
        <time>2015-05-14T09:38:24Z</time>
      </trkpt>
      <trkpt lat="43.63836" lon="2.40682">
        <ele>651.5</ele>
        <time>2015-05-14T09:38:25Z</time>
      </trkpt>
      <trkpt lat="43.63839" lon="2.40678">
        <ele>651.4</ele>
        <time>2015-05-14T09:38:26Z</time>
      </trkpt>
      <trkpt lat="43.63843" lon="2.40674">
        <ele>651.3</ele>
        <time>2015-05-14T09:38:27Z</time>
      </trkpt>
      <trkpt lat="43.63847" lon="2.40668">
        <ele>651.1</ele>
        <time>2015-05-14T09:38:28Z</time>
      </trkpt>
      <trkpt lat="43.63864" lon="2.40646">
        <ele>650</ele>
        <time>2015-05-14T09:38:32Z</time>
      </trkpt>
      <trkpt lat="43.63866" lon="2.40639">
        <ele>649.1</ele>
        <time>2015-05-14T09:38:33Z</time>
      </trkpt>
      <trkpt lat="43.63868" lon="2.40632">
        <ele>648.6</ele>
        <time>2015-05-14T09:38:34Z</time>
      </trkpt>
      <trkpt lat="43.63868" lon="2.40624">
        <ele>648.2</ele>
        <time>2015-05-14T09:38:35Z</time>
      </trkpt>
      <trkpt lat="43.63866" lon="2.40604">
        <ele>647.4</ele>
        <time>2015-05-14T09:38:37Z</time>
      </trkpt>
      <trkpt lat="43.63865" lon="2.40594">
        <ele>647.3</ele>
        <time>2015-05-14T09:38:38Z</time>
      </trkpt>
      <trkpt lat="43.63863" lon="2.40585">
        <ele>647.1</ele>
        <time>2015-05-14T09:38:39Z</time>
      </trkpt>
      <trkpt lat="43.63862" lon="2.40576">
        <ele>647.3</ele>
        <time>2015-05-14T09:38:40Z</time>
      </trkpt>
      <trkpt lat="43.63861" lon="2.40568">
        <ele>647.6</ele>
        <time>2015-05-14T09:38:41Z</time>
      </trkpt>
      <trkpt lat="43.63862" lon="2.40561">
        <ele>647.9</ele>
        <time>2015-05-14T09:38:42Z</time>
      </trkpt>
      <trkpt lat="43.63868" lon="2.4053">
        <ele>651.3</ele>
        <time>2015-05-14T09:38:53Z</time>
      </trkpt>
      <trkpt lat="43.63876" lon="2.4052">
        <ele>653</ele>
        <time>2015-05-14T09:39:02Z</time>
      </trkpt>
      <trkpt lat="43.63877" lon="2.40519">
        <ele>653.1</ele>
        <time>2015-05-14T09:39:03Z</time>
      </trkpt>
      <trkpt lat="43.63888" lon="2.40509">
        <ele>655</ele>
        <time>2015-05-14T09:39:16Z</time>
      </trkpt>
      <trkpt lat="43.63891" lon="2.40508">
        <ele>655.4</ele>
        <time>2015-05-14T09:39:18Z</time>
      </trkpt>
      <trkpt lat="43.63902" lon="2.40503">
        <ele>657.1</ele>
        <time>2015-05-14T09:39:27Z</time>
      </trkpt>
      <trkpt lat="43.63902" lon="2.40498">
        <ele>657.6</ele>
        <time>2015-05-14T09:39:30Z</time>
      </trkpt>
      <trkpt lat="43.63882" lon="2.40483">
        <ele>657.8</ele>
        <time>2015-05-14T09:39:43Z</time>
      </trkpt>
      <trkpt lat="43.6388" lon="2.40482">
        <ele>657.8</ele>
        <time>2015-05-14T09:39:44Z</time>
      </trkpt>
      <trkpt lat="43.63875" lon="2.4047">
        <ele>658.6</ele>
        <time>2015-05-14T09:39:50Z</time>
      </trkpt>
      <trkpt lat="43.63875" lon="2.40467">
        <ele>658.9</ele>
        <time>2015-05-14T09:39:51Z</time>
      </trkpt>
      <trkpt lat="43.63874" lon="2.40465">
        <ele>659.1</ele>
        <time>2015-05-14T09:39:52Z</time>
      </trkpt>
      <trkpt lat="43.63874" lon="2.40463">
        <ele>659.2</ele>
        <time>2015-05-14T09:39:53Z</time>
      </trkpt>
      <trkpt lat="43.63874" lon="2.40461">
        <ele>659.4</ele>
        <time>2015-05-14T09:39:54Z</time>
      </trkpt>
      <trkpt lat="43.63874" lon="2.40458">
        <ele>659.6</ele>
        <time>2015-05-14T09:39:55Z</time>
      </trkpt>
      <trkpt lat="43.63874" lon="2.40456">
        <ele>659.8</ele>
        <time>2015-05-14T09:39:56Z</time>
      </trkpt>
      <trkpt lat="43.63874" lon="2.40454">
        <ele>660</ele>
        <time>2015-05-14T09:39:57Z</time>
      </trkpt>
      <trkpt lat="43.63874" lon="2.40448">
        <ele>660.5</ele>
        <time>2015-05-14T09:40:00Z</time>
      </trkpt>
      <trkpt lat="43.63874" lon="2.40445">
        <ele>660.8</ele>
        <time>2015-05-14T09:40:01Z</time>
      </trkpt>
      <trkpt lat="43.63874" lon="2.40443">
        <ele>660.9</ele>
        <time>2015-05-14T09:40:02Z</time>
      </trkpt>
      <trkpt lat="43.63874" lon="2.40441">
        <ele>661.1</ele>
        <time>2015-05-14T09:40:03Z</time>
      </trkpt>
      <trkpt lat="43.63874" lon="2.40438">
        <ele>661.2</ele>
        <time>2015-05-14T09:40:04Z</time>
      </trkpt>
      <trkpt lat="43.63873" lon="2.40436">
        <ele>661.3</ele>
        <time>2015-05-14T09:40:05Z</time>
      </trkpt>
      <trkpt lat="43.63873" lon="2.40434">
        <ele>661.4</ele>
        <time>2015-05-14T09:40:06Z</time>
      </trkpt>
      <trkpt lat="43.63873" lon="2.40432">
        <ele>661.5</ele>
        <time>2015-05-14T09:40:07Z</time>
      </trkpt>
      <trkpt lat="43.63872" lon="2.40421">
        <ele>662.1</ele>
        <time>2015-05-14T09:40:13Z</time>
      </trkpt>
      <trkpt lat="43.63872" lon="2.4042">
        <ele>662.3</ele>
        <time>2015-05-14T09:40:14Z</time>
      </trkpt>
      <trkpt lat="43.63873" lon="2.40417">
        <ele>662.5</ele>
        <time>2015-05-14T09:40:15Z</time>
      </trkpt>
      <trkpt lat="43.63873" lon="2.40415">
        <ele>662.6</ele>
        <time>2015-05-14T09:40:16Z</time>
      </trkpt>
      <trkpt lat="43.63873" lon="2.40413">
        <ele>662.7</ele>
        <time>2015-05-14T09:40:17Z</time>
      </trkpt>
      <trkpt lat="43.63874" lon="2.40404">
        <ele>663</ele>
        <time>2015-05-14T09:40:21Z</time>
      </trkpt>
      <trkpt lat="43.63875" lon="2.40402">
        <ele>663.2</ele>
        <time>2015-05-14T09:40:22Z</time>
      </trkpt>
      <trkpt lat="43.63875" lon="2.404">
        <ele>663.3</ele>
        <time>2015-05-14T09:40:23Z</time>
      </trkpt>
      <trkpt lat="43.63877" lon="2.40367">
        <ele>663.5</ele>
        <time>2015-05-14T09:40:35Z</time>
      </trkpt>
      <trkpt lat="43.6388" lon="2.40351">
        <ele>664.1</ele>
        <time>2015-05-14T09:40:41Z</time>
      </trkpt>
      <trkpt lat="43.63881" lon="2.40349">
        <ele>664.1</ele>
        <time>2015-05-14T09:40:42Z</time>
      </trkpt>
      <trkpt lat="43.63881" lon="2.40344">
        <ele>664.1</ele>
        <time>2015-05-14T09:40:44Z</time>
      </trkpt>
      <trkpt lat="43.63883" lon="2.40316">
        <ele>664.4</ele>
        <time>2015-05-14T09:40:54Z</time>
      </trkpt>
      <trkpt lat="43.63884" lon="2.40309">
        <ele>664.8</ele>
        <time>2015-05-14T09:40:57Z</time>
      </trkpt>
      <trkpt lat="43.63894" lon="2.4026">
        <ele>664.8</ele>
        <time>2015-05-14T09:41:13Z</time>
      </trkpt>
      <trkpt lat="43.63898" lon="2.40247">
        <ele>664.4</ele>
        <time>2015-05-14T09:41:16Z</time>
      </trkpt>
      <trkpt lat="43.63899" lon="2.40242">
        <ele>664.1</ele>
        <time>2015-05-14T09:41:17Z</time>
      </trkpt>
      <trkpt lat="43.639" lon="2.40237">
        <ele>663.9</ele>
        <time>2015-05-14T09:41:18Z</time>
      </trkpt>
      <trkpt lat="43.63901" lon="2.40233">
        <ele>663.8</ele>
        <time>2015-05-14T09:41:19Z</time>
      </trkpt>
      <trkpt lat="43.63903" lon="2.40229">
        <ele>663.6</ele>
        <time>2015-05-14T09:41:20Z</time>
      </trkpt>
      <trkpt lat="43.63905" lon="2.40224">
        <ele>663.5</ele>
        <time>2015-05-14T09:41:21Z</time>
      </trkpt>
      <trkpt lat="43.6392" lon="2.40168">
        <ele>659.9</ele>
        <time>2015-05-14T09:41:30Z</time>
      </trkpt>
      <trkpt lat="43.63931" lon="2.40135">
        <ele>658.7</ele>
        <time>2015-05-14T09:41:39Z</time>
      </trkpt>
      <trkpt lat="43.63955" lon="2.40099">
        <ele>659.4</ele>
        <time>2015-05-14T09:41:51Z</time>
      </trkpt>
      <trkpt lat="43.63984" lon="2.40062">
        <ele>661.2</ele>
        <time>2015-05-14T09:42:04Z</time>
      </trkpt>
      <trkpt lat="43.64" lon="2.40037">
        <ele>660.9</ele>
        <time>2015-05-14T09:42:13Z</time>
      </trkpt>
      <trkpt lat="43.64002" lon="2.40035">
        <ele>660.9</ele>
        <time>2015-05-14T09:42:14Z</time>
      </trkpt>
      <trkpt lat="43.64045" lon="2.40018">
        <ele>659.3</ele>
        <time>2015-05-14T09:42:27Z</time>
      </trkpt>
      <trkpt lat="43.64053" lon="2.40018">
        <ele>659</ele>
        <time>2015-05-14T09:42:29Z</time>
      </trkpt>
      <trkpt lat="43.6407" lon="2.40017">
        <ele>657.9</ele>
        <time>2015-05-14T09:42:33Z</time>
      </trkpt>
      <trkpt lat="43.64074" lon="2.40016">
        <ele>657.4</ele>
        <time>2015-05-14T09:42:34Z</time>
      </trkpt>
      <trkpt lat="43.64079" lon="2.40013">
        <ele>656.7</ele>
        <time>2015-05-14T09:42:35Z</time>
      </trkpt>
      <trkpt lat="43.64083" lon="2.40008">
        <ele>655.9</ele>
        <time>2015-05-14T09:42:36Z</time>
      </trkpt>
      <trkpt lat="43.64088" lon="2.40002">
        <ele>655.6</ele>
        <time>2015-05-14T09:42:37Z</time>
      </trkpt>
      <trkpt lat="43.64092" lon="2.39995">
        <ele>655.8</ele>
        <time>2015-05-14T09:42:38Z</time>
      </trkpt>
      <trkpt lat="43.64097" lon="2.39987">
        <ele>656</ele>
        <time>2015-05-14T09:42:39Z</time>
      </trkpt>
      <trkpt lat="43.64116" lon="2.39956">
        <ele>657.7</ele>
        <time>2015-05-14T09:42:46Z</time>
      </trkpt>
      <trkpt lat="43.64118" lon="2.39953">
        <ele>657.9</ele>
        <time>2015-05-14T09:42:47Z</time>
      </trkpt>
      <trkpt lat="43.6412" lon="2.39951">
        <ele>658.1</ele>
        <time>2015-05-14T09:42:48Z</time>
      </trkpt>
      <trkpt lat="43.64122" lon="2.39948">
        <ele>658.3</ele>
        <time>2015-05-14T09:42:49Z</time>
      </trkpt>
      <trkpt lat="43.64124" lon="2.39945">
        <ele>658.5</ele>
        <time>2015-05-14T09:42:50Z</time>
      </trkpt>
      <trkpt lat="43.64126" lon="2.39943">
        <ele>658.6</ele>
        <time>2015-05-14T09:42:51Z</time>
      </trkpt>
      <trkpt lat="43.64128" lon="2.39941">
        <ele>658.6</ele>
        <time>2015-05-14T09:42:52Z</time>
      </trkpt>
      <trkpt lat="43.6413" lon="2.39939">
        <ele>658.6</ele>
        <time>2015-05-14T09:42:53Z</time>
      </trkpt>
      <trkpt lat="43.64148" lon="2.399">
        <ele>657.8</ele>
        <time>2015-05-14T09:43:06Z</time>
      </trkpt>
      <trkpt lat="43.64165" lon="2.39865">
        <ele>657.1</ele>
        <time>2015-05-14T09:43:14Z</time>
      </trkpt>
      <trkpt lat="43.64169" lon="2.39849">
        <ele>655.8</ele>
        <time>2015-05-14T09:43:17Z</time>
      </trkpt>
      <trkpt lat="43.64168" lon="2.39846">
        <ele>655.4</ele>
        <time>2015-05-14T09:43:18Z</time>
      </trkpt>
      <trkpt lat="43.64169" lon="2.39843">
        <ele>655.1</ele>
        <time>2015-05-14T09:43:19Z</time>
      </trkpt>
      <trkpt lat="43.6417" lon="2.39797">
        <ele>651.7</ele>
        <time>2015-05-14T09:43:30Z</time>
      </trkpt>
      <trkpt lat="43.64179" lon="2.39757">
        <ele>650.2</ele>
        <time>2015-05-14T09:43:37Z</time>
      </trkpt>
      <trkpt lat="43.64186" lon="2.39722">
        <ele>650</ele>
        <time>2015-05-14T09:43:42Z</time>
      </trkpt>
      <trkpt lat="43.6419" lon="2.39667">
        <ele>650.9</ele>
        <time>2015-05-14T09:43:50Z</time>
      </trkpt>
      <trkpt lat="43.6419" lon="2.39654">
        <ele>651.4</ele>
        <time>2015-05-14T09:43:52Z</time>
      </trkpt>
      <trkpt lat="43.6419" lon="2.39648">
        <ele>651.6</ele>
        <time>2015-05-14T09:43:53Z</time>
      </trkpt>
      <trkpt lat="43.64191" lon="2.39642">
        <ele>651.9</ele>
        <time>2015-05-14T09:43:54Z</time>
      </trkpt>
      <trkpt lat="43.64192" lon="2.39636">
        <ele>652.2</ele>
        <time>2015-05-14T09:43:55Z</time>
      </trkpt>
      <trkpt lat="43.64194" lon="2.39631">
        <ele>652.6</ele>
        <time>2015-05-14T09:43:56Z</time>
      </trkpt>
      <trkpt lat="43.64195" lon="2.39626">
        <ele>652.8</ele>
        <time>2015-05-14T09:43:57Z</time>
      </trkpt>
      <trkpt lat="43.64197" lon="2.39621">
        <ele>652.9</ele>
        <time>2015-05-14T09:43:58Z</time>
      </trkpt>
      <trkpt lat="43.64211" lon="2.39603">
        <ele>652.2</ele>
        <time>2015-05-14T09:44:07Z</time>
      </trkpt>
      <trkpt lat="43.64213" lon="2.39602">
        <ele>652</ele>
        <time>2015-05-14T09:44:08Z</time>
      </trkpt>
      <trkpt lat="43.64214" lon="2.396">
        <ele>651.9</ele>
        <time>2015-05-14T09:44:09Z</time>
      </trkpt>
      <trkpt lat="43.64216" lon="2.39597">
        <ele>651.9</ele>
        <time>2015-05-14T09:44:10Z</time>
      </trkpt>
      <trkpt lat="43.64217" lon="2.39595">
        <ele>651.9</ele>
        <time>2015-05-14T09:44:11Z</time>
      </trkpt>
      <trkpt lat="43.64241" lon="2.39556">
        <ele>650.3</ele>
        <time>2015-05-14T09:44:24Z</time>
      </trkpt>
      <trkpt lat="43.64254" lon="2.39523">
        <ele>648.4</ele>
        <time>2015-05-14T09:44:42Z</time>
      </trkpt>
      <trkpt lat="43.64267" lon="2.39493">
        <ele>646.2</ele>
        <time>2015-05-14T09:44:47Z</time>
      </trkpt>
      <trkpt lat="43.6427" lon="2.39486">
        <ele>645.5</ele>
        <time>2015-05-14T09:44:48Z</time>
      </trkpt>
      <trkpt lat="43.64278" lon="2.39474">
        <ele>644</ele>
        <time>2015-05-14T09:44:50Z</time>
      </trkpt>
      <trkpt lat="43.64293" lon="2.39448">
        <ele>642.3</ele>
        <time>2015-05-14T09:44:54Z</time>
      </trkpt>
      <trkpt lat="43.64297" lon="2.39441">
        <ele>642</ele>
        <time>2015-05-14T09:44:55Z</time>
      </trkpt>
      <trkpt lat="43.643" lon="2.39434">
        <ele>641.5</ele>
        <time>2015-05-14T09:44:56Z</time>
      </trkpt>
      <trkpt lat="43.64305" lon="2.39428">
        <ele>641</ele>
        <time>2015-05-14T09:44:57Z</time>
      </trkpt>
      <trkpt lat="43.64309" lon="2.39423">
        <ele>640.6</ele>
        <time>2015-05-14T09:44:58Z</time>
      </trkpt>
      <trkpt lat="43.64318" lon="2.39412">
        <ele>639.6</ele>
        <time>2015-05-14T09:45:00Z</time>
      </trkpt>
      <trkpt lat="43.64322" lon="2.39407">
        <ele>639.1</ele>
        <time>2015-05-14T09:45:01Z</time>
      </trkpt>
      <trkpt lat="43.64326" lon="2.39401">
        <ele>638.7</ele>
        <time>2015-05-14T09:45:02Z</time>
      </trkpt>
      <trkpt lat="43.64338" lon="2.39385">
        <ele>637.7</ele>
        <time>2015-05-14T09:45:05Z</time>
      </trkpt>
      <trkpt lat="43.64369" lon="2.39341">
        <ele>635.9</ele>
        <time>2015-05-14T09:45:14Z</time>
      </trkpt>
      <trkpt lat="43.64377" lon="2.39324">
        <ele>635.6</ele>
        <time>2015-05-14T09:45:17Z</time>
      </trkpt>
      <trkpt lat="43.64381" lon="2.39313">
        <ele>635.5</ele>
        <time>2015-05-14T09:45:19Z</time>
      </trkpt>
      <trkpt lat="43.64401" lon="2.39271">
        <ele>634.1</ele>
        <time>2015-05-14T09:45:27Z</time>
      </trkpt>
      <trkpt lat="43.64425" lon="2.39226">
        <ele>632</ele>
        <time>2015-05-14T09:45:37Z</time>
      </trkpt>
      <trkpt lat="43.64443" lon="2.39203">
        <ele>630.8</ele>
        <time>2015-05-14T09:45:48Z</time>
      </trkpt>
      <trkpt lat="43.64458" lon="2.39179">
        <ele>629.6</ele>
        <time>2015-05-14T09:46:11Z</time>
      </trkpt>
      <trkpt lat="43.64475" lon="2.39155">
        <ele>627.9</ele>
        <time>2015-05-14T09:46:20Z</time>
      </trkpt>
      <trkpt lat="43.64486" lon="2.39139">
        <ele>626.5</ele>
        <time>2015-05-14T09:46:34Z</time>
      </trkpt>
      <trkpt lat="43.64487" lon="2.39138">
        <ele>626.4</ele>
        <time>2015-05-14T09:46:35Z</time>
      </trkpt>
      <trkpt lat="43.64508" lon="2.39124">
        <ele>624.9</ele>
        <time>2015-05-14T09:46:47Z</time>
      </trkpt>
      <trkpt lat="43.64512" lon="2.39124">
        <ele>624.8</ele>
        <time>2015-05-14T09:46:48Z</time>
      </trkpt>
      <trkpt lat="43.64514" lon="2.39122">
        <ele>624.7</ele>
        <time>2015-05-14T09:46:49Z</time>
      </trkpt>
      <trkpt lat="43.64517" lon="2.39121">
        <ele>624.6</ele>
        <time>2015-05-14T09:46:50Z</time>
      </trkpt>
      <trkpt lat="43.6452" lon="2.39119">
        <ele>624.5</ele>
        <time>2015-05-14T09:46:51Z</time>
      </trkpt>
      <trkpt lat="43.64548" lon="2.39101">
        <ele>623.9</ele>
        <time>2015-05-14T09:47:01Z</time>
      </trkpt>
      <trkpt lat="43.64551" lon="2.39097">
        <ele>623.8</ele>
        <time>2015-05-14T09:47:04Z</time>
      </trkpt>
      <trkpt lat="43.64552" lon="2.39092">
        <ele>623.4</ele>
        <time>2015-05-14T09:47:06Z</time>
      </trkpt>
      <trkpt lat="43.64552" lon="2.39088">
        <ele>623.1</ele>
        <time>2015-05-14T09:47:07Z</time>
      </trkpt>
      <trkpt lat="43.64552" lon="2.39084">
        <ele>622.7</ele>
        <time>2015-05-14T09:47:08Z</time>
      </trkpt>
      <trkpt lat="43.64552" lon="2.39081">
        <ele>622.6</ele>
        <time>2015-05-14T09:47:09Z</time>
      </trkpt>
      <trkpt lat="43.64551" lon="2.39068">
        <ele>622.1</ele>
        <time>2015-05-14T09:47:12Z</time>
      </trkpt>
      <trkpt lat="43.64562" lon="2.38995">
        <ele>618.9</ele>
        <time>2015-05-14T09:47:22Z</time>
      </trkpt>
      <trkpt lat="43.6457" lon="2.38974">
        <ele>617.8</ele>
        <time>2015-05-14T09:47:25Z</time>
      </trkpt>
      <trkpt lat="43.64573" lon="2.38968">
        <ele>617.4</ele>
        <time>2015-05-14T09:47:26Z</time>
      </trkpt>
      <trkpt lat="43.64576" lon="2.38961">
        <ele>617</ele>
        <time>2015-05-14T09:47:27Z</time>
      </trkpt>
      <trkpt lat="43.64585" lon="2.38942">
        <ele>615.9</ele>
        <time>2015-05-14T09:47:30Z</time>
      </trkpt>
      <trkpt lat="43.64591" lon="2.38927">
        <ele>614.8</ele>
        <time>2015-05-14T09:47:32Z</time>
      </trkpt>
      <trkpt lat="43.64598" lon="2.38899">
        <ele>613.7</ele>
        <time>2015-05-14T09:47:36Z</time>
      </trkpt>
      <trkpt lat="43.646" lon="2.38891">
        <ele>613.4</ele>
        <time>2015-05-14T09:47:37Z</time>
      </trkpt>
      <trkpt lat="43.64602" lon="2.38854">
        <ele>611.5</ele>
        <time>2015-05-14T09:47:43Z</time>
      </trkpt>
      <trkpt lat="43.64602" lon="2.38821">
        <ele>610.5</ele>
        <time>2015-05-14T09:47:49Z</time>
      </trkpt>
      <trkpt lat="43.64601" lon="2.38815">
        <ele>610.2</ele>
        <time>2015-05-14T09:47:50Z</time>
      </trkpt>
      <trkpt lat="43.646" lon="2.38807">
        <ele>609.9</ele>
        <time>2015-05-14T09:47:51Z</time>
      </trkpt>
      <trkpt lat="43.64597" lon="2.38778">
        <ele>609</ele>
        <time>2015-05-14T09:47:54Z</time>
      </trkpt>
      <trkpt lat="43.64595" lon="2.38769">
        <ele>608.6</ele>
        <time>2015-05-14T09:47:55Z</time>
      </trkpt>
      <trkpt lat="43.64594" lon="2.38764">
        <ele>608.3</ele>
        <time>2015-05-14T09:47:56Z</time>
      </trkpt>
      <trkpt lat="43.64574" lon="2.38687">
        <ele>603.5</ele>
        <time>2015-05-14T10:06:41Z</time>
      </trkpt>
      <trkpt lat="43.64573" lon="2.38685">
        <ele>603.4</ele>
        <time>2015-05-14T10:06:42Z</time>
      </trkpt>
      <trkpt lat="43.64573" lon="2.38681">
        <ele>603.3</ele>
        <time>2015-05-14T10:06:43Z</time>
      </trkpt>
      <trkpt lat="43.64573" lon="2.38627">
        <ele>601.4</ele>
        <time>2015-05-14T10:06:56Z</time>
      </trkpt>
      <trkpt lat="43.64573" lon="2.38596">
        <ele>601.1</ele>
        <time>2015-05-14T10:07:08Z</time>
      </trkpt>
      <trkpt lat="43.64573" lon="2.38593">
        <ele>601.2</ele>
        <time>2015-05-14T10:07:09Z</time>
      </trkpt>
      <trkpt lat="43.64576" lon="2.3855">
        <ele>601.7</ele>
        <time>2015-05-14T10:07:22Z</time>
      </trkpt>
      <trkpt lat="43.64576" lon="2.38525">
        <ele>602.3</ele>
        <time>2015-05-14T10:07:31Z</time>
      </trkpt>
      <trkpt lat="43.6457" lon="2.38519">
        <ele>602.6</ele>
        <time>2015-05-14T10:07:47Z</time>
      </trkpt>
      <trkpt lat="43.64568" lon="2.38518">
        <ele>602.7</ele>
        <time>2015-05-14T10:08:17Z</time>
      </trkpt>
      <trkpt lat="43.64572" lon="2.38527">
        <ele>602.4</ele>
        <time>2015-05-14T10:08:29Z</time>
      </trkpt>
      <trkpt lat="43.64574" lon="2.38529">
        <ele>602.3</ele>
        <time>2015-05-14T10:08:33Z</time>
      </trkpt>
      <trkpt lat="43.64576" lon="2.3853">
        <ele>602.2</ele>
        <time>2015-05-14T10:08:34Z</time>
      </trkpt>
      <trkpt lat="43.64579" lon="2.38533">
        <ele>602</ele>
        <time>2015-05-14T10:08:35Z</time>
      </trkpt>
      <trkpt lat="43.6458" lon="2.38537">
        <ele>601.8</ele>
        <time>2015-05-14T10:08:36Z</time>
      </trkpt>
      <trkpt lat="43.64582" lon="2.3854">
        <ele>601.6</ele>
        <time>2015-05-14T10:08:37Z</time>
      </trkpt>
      <trkpt lat="43.64584" lon="2.38544">
        <ele>601.4</ele>
        <time>2015-05-14T10:08:38Z</time>
      </trkpt>
      <trkpt lat="43.64586" lon="2.38549">
        <ele>601.2</ele>
        <time>2015-05-14T10:08:39Z</time>
      </trkpt>
      <trkpt lat="43.64587" lon="2.38554">
        <ele>600.9</ele>
        <time>2015-05-14T10:08:40Z</time>
      </trkpt>
      <trkpt lat="43.6459" lon="2.38559">
        <ele>600.6</ele>
        <time>2015-05-14T10:08:41Z</time>
      </trkpt>
      <trkpt lat="43.64593" lon="2.38563">
        <ele>600.4</ele>
        <time>2015-05-14T10:08:42Z</time>
      </trkpt>
      <trkpt lat="43.64594" lon="2.38566">
        <ele>600.2</ele>
        <time>2015-05-14T10:08:43Z</time>
      </trkpt>
      <trkpt lat="43.64596" lon="2.38569">
        <ele>600.1</ele>
        <time>2015-05-14T10:08:44Z</time>
      </trkpt>
      <trkpt lat="43.64601" lon="2.38573">
        <ele>599.7</ele>
        <time>2015-05-14T10:08:57Z</time>
      </trkpt>
      <trkpt lat="43.64605" lon="2.38567">
        <ele>599.8</ele>
        <time>2015-05-14T10:09:07Z</time>
      </trkpt>
      <trkpt lat="43.64604" lon="2.38554">
        <ele>600.3</ele>
        <time>2015-05-14T10:09:20Z</time>
      </trkpt>
      <trkpt lat="43.64602" lon="2.38546">
        <ele>600.9</ele>
        <time>2015-05-14T10:09:34Z</time>
      </trkpt>
      <trkpt lat="43.64598" lon="2.38533">
        <ele>601.7</ele>
        <time>2015-05-14T10:09:46Z</time>
      </trkpt>
      <trkpt lat="43.64599" lon="2.38512">
        <ele>602.9</ele>
        <time>2015-05-14T10:10:01Z</time>
      </trkpt>
      <trkpt lat="43.64596" lon="2.38505">
        <ele>603.2</ele>
        <time>2015-05-14T10:10:20Z</time>
      </trkpt>
      <trkpt lat="43.64596" lon="2.38499">
        <ele>603.6</ele>
        <time>2015-05-14T10:10:28Z</time>
      </trkpt>
      <trkpt lat="43.64613" lon="2.38491">
        <ele>604.8</ele>
        <time>2015-05-14T10:10:41Z</time>
      </trkpt>
      <trkpt lat="43.64631" lon="2.38469">
        <ele>607.5</ele>
        <time>2015-05-14T10:10:55Z</time>
      </trkpt>
      <trkpt lat="43.64637" lon="2.38457">
        <ele>607.9</ele>
        <time>2015-05-14T10:11:02Z</time>
      </trkpt>
      <trkpt lat="43.64638" lon="2.38456">
        <ele>608</ele>
        <time>2015-05-14T10:11:03Z</time>
      </trkpt>
      <trkpt lat="43.64639" lon="2.38454">
        <ele>608</ele>
        <time>2015-05-14T10:11:04Z</time>
      </trkpt>
      <trkpt lat="43.64644" lon="2.38446">
        <ele>608.4</ele>
        <time>2015-05-14T10:11:09Z</time>
      </trkpt>
      <trkpt lat="43.64646" lon="2.38444">
        <ele>608.5</ele>
        <time>2015-05-14T10:11:10Z</time>
      </trkpt>
      <trkpt lat="43.64646" lon="2.38441">
        <ele>608.6</ele>
        <time>2015-05-14T10:11:11Z</time>
      </trkpt>
      <trkpt lat="43.64647" lon="2.38438">
        <ele>608.7</ele>
        <time>2015-05-14T10:11:12Z</time>
      </trkpt>
      <trkpt lat="43.64647" lon="2.38435">
        <ele>608.7</ele>
        <time>2015-05-14T10:11:13Z</time>
      </trkpt>
      <trkpt lat="43.64646" lon="2.38432">
        <ele>608.7</ele>
        <time>2015-05-14T10:11:14Z</time>
      </trkpt>
      <trkpt lat="43.64645" lon="2.38428">
        <ele>608.8</ele>
        <time>2015-05-14T10:11:15Z</time>
      </trkpt>
      <trkpt lat="43.64645" lon="2.38426">
        <ele>608.8</ele>
        <time>2015-05-14T10:11:16Z</time>
      </trkpt>
      <trkpt lat="43.6464" lon="2.38417">
        <ele>609</ele>
        <time>2015-05-14T10:11:28Z</time>
      </trkpt>
      <trkpt lat="43.6464" lon="2.38417">
        <ele>609</ele>
        <time>2015-05-14T10:11:36Z</time>
      </trkpt>
      <trkpt lat="43.6464" lon="2.38417">
        <ele>609</ele>
        <time>2015-05-14T10:11:37Z</time>
      </trkpt>
      <trkpt lat="43.64638" lon="2.38413">
        <ele>609.1</ele>
        <time>2015-05-14T10:11:55Z</time>
      </trkpt>
      <trkpt lat="43.64632" lon="2.38409">
        <ele>609.3</ele>
        <time>2015-05-14T10:12:28Z</time>
      </trkpt>
      <trkpt lat="43.64627" lon="2.38403">
        <ele>609.7</ele>
        <time>2015-05-14T10:13:03Z</time>
      </trkpt>
      <trkpt lat="43.64628" lon="2.38403">
        <ele>609.7</ele>
        <time>2015-05-14T10:13:45Z</time>
      </trkpt>
      <trkpt lat="43.64628" lon="2.38406">
        <ele>609.5</ele>
        <time>2015-05-14T10:14:22Z</time>
      </trkpt>
      <trkpt lat="43.64635" lon="2.38412">
        <ele>609.2</ele>
        <time>2015-05-14T10:14:46Z</time>
      </trkpt>
      <trkpt lat="43.64648" lon="2.3842">
        <ele>609</ele>
        <time>2015-05-14T10:15:12Z</time>
      </trkpt>
      <trkpt lat="43.64654" lon="2.38416">
        <ele>609</ele>
        <time>2015-05-14T10:15:36Z</time>
      </trkpt>
      <trkpt lat="43.64653" lon="2.38407">
        <ele>609</ele>
        <time>2015-05-14T10:16:09Z</time>
      </trkpt>
      <trkpt lat="43.64653" lon="2.38413">
        <ele>609</ele>
        <time>2015-05-14T10:16:40Z</time>
      </trkpt>
      <trkpt lat="43.64651" lon="2.38412">
        <ele>609</ele>
        <time>2015-05-14T10:17:00Z</time>
      </trkpt>
      <trkpt lat="43.64652" lon="2.38412">
        <ele>609</ele>
        <time>2015-05-14T10:17:01Z</time>
      </trkpt>
      <trkpt lat="43.64654" lon="2.38411">
        <ele>609</ele>
        <time>2015-05-14T10:17:02Z</time>
      </trkpt>
      <trkpt lat="43.64655" lon="2.3841">
        <ele>609</ele>
        <time>2015-05-14T10:17:03Z</time>
      </trkpt>
      <trkpt lat="43.64657" lon="2.3841">
        <ele>608.9</ele>
        <time>2015-05-14T10:17:04Z</time>
      </trkpt>
      <trkpt lat="43.64659" lon="2.38408">
        <ele>608.9</ele>
        <time>2015-05-14T10:17:05Z</time>
      </trkpt>
      <trkpt lat="43.64661" lon="2.38408">
        <ele>608.8</ele>
        <time>2015-05-14T10:17:06Z</time>
      </trkpt>
      <trkpt lat="43.64663" lon="2.38407">
        <ele>608.7</ele>
        <time>2015-05-14T10:17:07Z</time>
      </trkpt>
      <trkpt lat="43.64665" lon="2.38406">
        <ele>608.7</ele>
        <time>2015-05-14T10:17:08Z</time>
      </trkpt>
      <trkpt lat="43.64682" lon="2.38397">
        <ele>607.7</ele>
        <time>2015-05-14T10:17:14Z</time>
      </trkpt>
      <trkpt lat="43.64686" lon="2.38395">
        <ele>607.5</ele>
        <time>2015-05-14T10:17:15Z</time>
      </trkpt>
      <trkpt lat="43.64713" lon="2.38379">
        <ele>606.5</ele>
        <time>2015-05-14T10:17:21Z</time>
      </trkpt>
      <trkpt lat="43.6475" lon="2.3836">
        <ele>603.9</ele>
        <time>2015-05-14T10:17:28Z</time>
      </trkpt>
      <trkpt lat="43.64756" lon="2.38359">
        <ele>603.6</ele>
        <time>2015-05-14T10:17:29Z</time>
      </trkpt>
      <trkpt lat="43.64779" lon="2.38354">
        <ele>602.5</ele>
        <time>2015-05-14T10:17:33Z</time>
      </trkpt>
      <trkpt lat="43.64785" lon="2.38355">
        <ele>602.1</ele>
        <time>2015-05-14T10:17:34Z</time>
      </trkpt>
      <trkpt lat="43.64792" lon="2.38357">
        <ele>601.8</ele>
        <time>2015-05-14T10:17:35Z</time>
      </trkpt>
      <trkpt lat="43.648" lon="2.38361">
        <ele>601.4</ele>
        <time>2015-05-14T10:17:36Z</time>
      </trkpt>
      <trkpt lat="43.64809" lon="2.38368">
        <ele>601</ele>
        <time>2015-05-14T10:17:37Z</time>
      </trkpt>
      <trkpt lat="43.64816" lon="2.38376">
        <ele>600.8</ele>
        <time>2015-05-14T10:17:38Z</time>
      </trkpt>
      <trkpt lat="43.64823" lon="2.38384">
        <ele>600.6</ele>
        <time>2015-05-14T10:17:39Z</time>
      </trkpt>
      <trkpt lat="43.64829" lon="2.38392">
        <ele>600.4</ele>
        <time>2015-05-14T10:17:40Z</time>
      </trkpt>
      <trkpt lat="43.64833" lon="2.384">
        <ele>600</ele>
        <time>2015-05-14T10:17:41Z</time>
      </trkpt>
      <trkpt lat="43.64837" lon="2.38409">
        <ele>599.7</ele>
        <time>2015-05-14T10:17:42Z</time>
      </trkpt>
      <trkpt lat="43.64839" lon="2.38419">
        <ele>599.6</ele>
        <time>2015-05-14T10:17:43Z</time>
      </trkpt>
      <trkpt lat="43.6484" lon="2.38429">
        <ele>599.5</ele>
        <time>2015-05-14T10:17:44Z</time>
      </trkpt>
      <trkpt lat="43.64841" lon="2.38439">
        <ele>599.4</ele>
        <time>2015-05-14T10:17:45Z</time>
      </trkpt>
      <trkpt lat="43.64854" lon="2.38495">
        <ele>598.2</ele>
        <time>2015-05-14T10:17:54Z</time>
      </trkpt>
      <trkpt lat="43.64854" lon="2.38497">
        <ele>598.2</ele>
        <time>2015-05-14T10:17:55Z</time>
      </trkpt>
      <trkpt lat="43.64854" lon="2.38499">
        <ele>598.2</ele>
        <time>2015-05-14T10:17:56Z</time>
      </trkpt>
      <trkpt lat="43.64854" lon="2.38501">
        <ele>598.3</ele>
        <time>2015-05-14T10:17:57Z</time>
      </trkpt>
      <trkpt lat="43.64854" lon="2.38503">
        <ele>598.4</ele>
        <time>2015-05-14T10:17:58Z</time>
      </trkpt>
      <trkpt lat="43.64853" lon="2.38506">
        <ele>598.4</ele>
        <time>2015-05-14T10:17:59Z</time>
      </trkpt>
      <trkpt lat="43.64852" lon="2.38508">
        <ele>598.5</ele>
        <time>2015-05-14T10:18:00Z</time>
      </trkpt>
      <trkpt lat="43.6485" lon="2.38511">
        <ele>598.6</ele>
        <time>2015-05-14T10:18:01Z</time>
      </trkpt>
      <trkpt lat="43.64846" lon="2.38554">
        <ele>599</ele>
        <time>2015-05-14T10:18:14Z</time>
      </trkpt>
      <trkpt lat="43.64868" lon="2.38611">
        <ele>599</ele>
        <time>2015-05-14T10:18:26Z</time>
      </trkpt>
      <trkpt lat="43.6487" lon="2.38617">
        <ele>599</ele>
        <time>2015-05-14T10:18:27Z</time>
      </trkpt>
      <trkpt lat="43.64871" lon="2.38621">
        <ele>599</ele>
        <time>2015-05-14T10:18:28Z</time>
      </trkpt>
      <trkpt lat="43.64879" lon="2.38666">
        <ele>598.4</ele>
        <time>2015-05-14T10:18:37Z</time>
      </trkpt>
      <trkpt lat="43.64889" lon="2.38727">
        <ele>598.2</ele>
        <time>2015-05-14T10:18:49Z</time>
      </trkpt>
      <trkpt lat="43.64893" lon="2.38739">
        <ele>598.8</ele>
        <time>2015-05-14T10:18:52Z</time>
      </trkpt>
      <trkpt lat="43.64895" lon="2.38742">
        <ele>599</ele>
        <time>2015-05-14T10:18:53Z</time>
      </trkpt>
      <trkpt lat="43.64897" lon="2.38744">
        <ele>599.2</ele>
        <time>2015-05-14T10:18:54Z</time>
      </trkpt>
      <trkpt lat="43.64912" lon="2.38764">
        <ele>602.1</ele>
        <time>2015-05-14T10:19:04Z</time>
      </trkpt>
      <trkpt lat="43.64921" lon="2.38781">
        <ele>604.3</ele>
        <time>2015-05-14T10:19:14Z</time>
      </trkpt>
      <trkpt lat="43.64922" lon="2.38783">
        <ele>604.5</ele>
        <time>2015-05-14T10:19:15Z</time>
      </trkpt>
      <trkpt lat="43.64923" lon="2.38784">
        <ele>604.7</ele>
        <time>2015-05-14T10:19:16Z</time>
      </trkpt>
      <trkpt lat="43.64928" lon="2.38793">
        <ele>605.6</ele>
        <time>2015-05-14T10:19:22Z</time>
      </trkpt>
      <trkpt lat="43.64936" lon="2.38802">
        <ele>606.6</ele>
        <time>2015-05-14T10:19:28Z</time>
      </trkpt>
      <trkpt lat="43.6494" lon="2.3881">
        <ele>607.4</ele>
        <time>2015-05-14T10:19:32Z</time>
      </trkpt>
      <trkpt lat="43.64944" lon="2.38818">
        <ele>608.4</ele>
        <time>2015-05-14T10:19:36Z</time>
      </trkpt>
      <trkpt lat="43.64945" lon="2.38825">
        <ele>609.1</ele>
        <time>2015-05-14T10:19:39Z</time>
      </trkpt>
      <trkpt lat="43.64945" lon="2.38828">
        <ele>609.4</ele>
        <time>2015-05-14T10:19:40Z</time>
      </trkpt>
      <trkpt lat="43.64938" lon="2.38851">
        <ele>611.4</ele>
        <time>2015-05-14T10:19:52Z</time>
      </trkpt>
      <trkpt lat="43.64938" lon="2.38853">
        <ele>611.5</ele>
        <time>2015-05-14T10:19:53Z</time>
      </trkpt>
      <trkpt lat="43.64938" lon="2.38867">
        <ele>612.7</ele>
        <time>2015-05-14T10:19:58Z</time>
      </trkpt>
      <trkpt lat="43.64938" lon="2.3887">
        <ele>612.9</ele>
        <time>2015-05-14T10:19:59Z</time>
      </trkpt>
      <trkpt lat="43.64939" lon="2.38873">
        <ele>613.1</ele>
        <time>2015-05-14T10:20:00Z</time>
      </trkpt>
      <trkpt lat="43.64939" lon="2.38876">
        <ele>613.3</ele>
        <time>2015-05-14T10:20:01Z</time>
      </trkpt>
      <trkpt lat="43.6494" lon="2.3888">
        <ele>613.5</ele>
        <time>2015-05-14T10:20:02Z</time>
      </trkpt>
      <trkpt lat="43.6494" lon="2.38883">
        <ele>613.7</ele>
        <time>2015-05-14T10:20:03Z</time>
      </trkpt>
      <trkpt lat="43.64944" lon="2.38917">
        <ele>615.1</ele>
        <time>2015-05-14T10:20:16Z</time>
      </trkpt>
      <trkpt lat="43.64943" lon="2.38924">
        <ele>615.7</ele>
        <time>2015-05-14T10:20:19Z</time>
      </trkpt>
      <trkpt lat="43.64943" lon="2.38927">
        <ele>615.9</ele>
        <time>2015-05-14T10:20:20Z</time>
      </trkpt>
      <trkpt lat="43.64943" lon="2.38929">
        <ele>616</ele>
        <time>2015-05-14T10:20:21Z</time>
      </trkpt>
      <trkpt lat="43.64943" lon="2.38931">
        <ele>616.2</ele>
        <time>2015-05-14T10:20:22Z</time>
      </trkpt>
      <trkpt lat="43.64942" lon="2.38933">
        <ele>616.5</ele>
        <time>2015-05-14T10:20:23Z</time>
      </trkpt>
      <trkpt lat="43.64942" lon="2.38936">
        <ele>616.7</ele>
        <time>2015-05-14T10:20:24Z</time>
      </trkpt>
      <trkpt lat="43.64943" lon="2.3894">
        <ele>616.8</ele>
        <time>2015-05-14T10:20:25Z</time>
      </trkpt>
      <trkpt lat="43.64944" lon="2.38943">
        <ele>616.9</ele>
        <time>2015-05-14T10:20:26Z</time>
      </trkpt>
      <trkpt lat="43.64945" lon="2.38947">
        <ele>617.1</ele>
        <time>2015-05-14T10:20:27Z</time>
      </trkpt>
      <trkpt lat="43.64946" lon="2.38951">
        <ele>617.3</ele>
        <time>2015-05-14T10:20:28Z</time>
      </trkpt>
      <trkpt lat="43.64953" lon="2.38982">
        <ele>619.2</ele>
        <time>2015-05-14T10:20:39Z</time>
      </trkpt>
      <trkpt lat="43.64954" lon="2.38986">
        <ele>619.4</ele>
        <time>2015-05-14T10:20:41Z</time>
      </trkpt>
      <trkpt lat="43.64955" lon="2.38988">
        <ele>619.5</ele>
        <time>2015-05-14T10:20:42Z</time>
      </trkpt>
      <trkpt lat="43.64956" lon="2.3899">
        <ele>619.6</ele>
        <time>2015-05-14T10:20:43Z</time>
      </trkpt>
      <trkpt lat="43.64957" lon="2.38993">
        <ele>619.6</ele>
        <time>2015-05-14T10:20:44Z</time>
      </trkpt>
      <trkpt lat="43.64958" lon="2.38995">
        <ele>619.7</ele>
        <time>2015-05-14T10:20:45Z</time>
      </trkpt>
      <trkpt lat="43.64975" lon="2.39037">
        <ele>620.1</ele>
        <time>2015-05-14T10:20:59Z</time>
      </trkpt>
      <trkpt lat="43.64977" lon="2.39043">
        <ele>620</ele>
        <time>2015-05-14T10:21:02Z</time>
      </trkpt>
      <trkpt lat="43.64985" lon="2.39066">
        <ele>620</ele>
        <time>2015-05-14T10:21:11Z</time>
      </trkpt>
      <trkpt lat="43.64987" lon="2.39075">
        <ele>620.1</ele>
        <time>2015-05-14T10:21:14Z</time>
      </trkpt>
      <trkpt lat="43.64988" lon="2.39078">
        <ele>620.1</ele>
        <time>2015-05-14T10:21:15Z</time>
      </trkpt>
      <trkpt lat="43.64994" lon="2.39096">
        <ele>619.8</ele>
        <time>2015-05-14T10:21:19Z</time>
      </trkpt>
      <trkpt lat="43.65004" lon="2.39117">
        <ele>618.7</ele>
        <time>2015-05-14T10:21:23Z</time>
      </trkpt>
      <trkpt lat="43.65022" lon="2.39139">
        <ele>617.5</ele>
        <time>2015-05-14T10:21:32Z</time>
      </trkpt>
      <trkpt lat="43.65023" lon="2.39139">
        <ele>617.3</ele>
        <time>2015-05-14T10:21:43Z</time>
      </trkpt>
      <trkpt lat="43.65029" lon="2.39144">
        <ele>617.3</ele>
        <time>2015-05-14T10:21:54Z</time>
      </trkpt>
      <trkpt lat="43.65034" lon="2.39151">
        <ele>618</ele>
        <time>2015-05-14T10:22:06Z</time>
      </trkpt>
      <trkpt lat="43.65036" lon="2.39153">
        <ele>618.2</ele>
        <time>2015-05-14T10:22:07Z</time>
      </trkpt>
      <trkpt lat="43.65037" lon="2.39154">
        <ele>618.4</ele>
        <time>2015-05-14T10:22:08Z</time>
      </trkpt>
      <trkpt lat="43.65052" lon="2.39164">
        <ele>620.4</ele>
        <time>2015-05-14T10:22:19Z</time>
      </trkpt>
      <trkpt lat="43.65055" lon="2.39162">
        <ele>620.6</ele>
        <time>2015-05-14T10:22:21Z</time>
      </trkpt>
      <trkpt lat="43.65069" lon="2.39149">
        <ele>621.6</ele>
        <time>2015-05-14T10:22:35Z</time>
      </trkpt>
      <trkpt lat="43.65074" lon="2.39145">
        <ele>622.1</ele>
        <time>2015-05-14T10:22:43Z</time>
      </trkpt>
      <trkpt lat="43.65089" lon="2.39137">
        <ele>623.8</ele>
        <time>2015-05-14T10:22:57Z</time>
      </trkpt>
      <trkpt lat="43.6511" lon="2.39129">
        <ele>626</ele>
        <time>2015-05-14T10:23:10Z</time>
      </trkpt>
      <trkpt lat="43.65128" lon="2.3913">
        <ele>629.4</ele>
        <time>2015-05-14T10:23:25Z</time>
      </trkpt>
      <trkpt lat="43.65143" lon="2.3913">
        <ele>631.8</ele>
        <time>2015-05-14T10:23:38Z</time>
      </trkpt>
      <trkpt lat="43.65148" lon="2.39143">
        <ele>633.4</ele>
        <time>2015-05-14T10:23:52Z</time>
      </trkpt>
      <trkpt lat="43.6515" lon="2.39157">
        <ele>635.1</ele>
        <time>2015-05-14T10:24:05Z</time>
      </trkpt>
      <trkpt lat="43.65145" lon="2.39168">
        <ele>635.8</ele>
        <time>2015-05-14T10:24:19Z</time>
      </trkpt>
      <trkpt lat="43.65143" lon="2.39181">
        <ele>637.5</ele>
        <time>2015-05-14T10:24:42Z</time>
      </trkpt>
      <trkpt lat="43.6514" lon="2.39205">
        <ele>639.9</ele>
        <time>2015-05-14T10:24:58Z</time>
      </trkpt>
      <trkpt lat="43.65138" lon="2.39223">
        <ele>641</ele>
        <time>2015-05-14T10:25:10Z</time>
      </trkpt>
      <trkpt lat="43.65138" lon="2.39239">
        <ele>641.6</ele>
        <time>2015-05-14T10:25:22Z</time>
      </trkpt>
      <trkpt lat="43.65138" lon="2.39254">
        <ele>642.1</ele>
        <time>2015-05-14T10:25:34Z</time>
      </trkpt>
      <trkpt lat="43.65134" lon="2.39279">
        <ele>642.7</ele>
        <time>2015-05-14T10:25:46Z</time>
      </trkpt>
      <trkpt lat="43.65133" lon="2.39305">
        <ele>642.8</ele>
        <time>2015-05-14T10:25:56Z</time>
      </trkpt>
      <trkpt lat="43.65146" lon="2.39331">
        <ele>642.5</ele>
        <time>2015-05-14T10:26:05Z</time>
      </trkpt>
      <trkpt lat="43.65148" lon="2.39334">
        <ele>642.4</ele>
        <time>2015-05-14T10:26:06Z</time>
      </trkpt>
      <trkpt lat="43.65149" lon="2.39337">
        <ele>642.4</ele>
        <time>2015-05-14T10:26:07Z</time>
      </trkpt>
      <trkpt lat="43.65151" lon="2.39343">
        <ele>642.3</ele>
        <time>2015-05-14T10:26:09Z</time>
      </trkpt>
      <trkpt lat="43.65152" lon="2.39346">
        <ele>642.3</ele>
        <time>2015-05-14T10:26:10Z</time>
      </trkpt>
      <trkpt lat="43.65152" lon="2.39349">
        <ele>642.3</ele>
        <time>2015-05-14T10:26:11Z</time>
      </trkpt>
      <trkpt lat="43.65159" lon="2.39387">
        <ele>641.8</ele>
        <time>2015-05-14T10:26:22Z</time>
      </trkpt>
      <trkpt lat="43.6516" lon="2.39404">
        <ele>642.1</ele>
        <time>2015-05-14T10:26:26Z</time>
      </trkpt>
      <trkpt lat="43.65161" lon="2.39408">
        <ele>642.1</ele>
        <time>2015-05-14T10:26:27Z</time>
      </trkpt>
      <trkpt lat="43.65163" lon="2.39411">
        <ele>642.1</ele>
        <time>2015-05-14T10:26:28Z</time>
      </trkpt>
      <trkpt lat="43.65164" lon="2.39414">
        <ele>642.1</ele>
        <time>2015-05-14T10:26:29Z</time>
      </trkpt>
      <trkpt lat="43.65165" lon="2.39418">
        <ele>642.1</ele>
        <time>2015-05-14T10:26:30Z</time>
      </trkpt>
      <trkpt lat="43.65167" lon="2.39424">
        <ele>642</ele>
        <time>2015-05-14T10:26:31Z</time>
      </trkpt>
      <trkpt lat="43.65175" lon="2.39467">
        <ele>641.9</ele>
        <time>2015-05-14T10:26:40Z</time>
      </trkpt>
      <trkpt lat="43.65199" lon="2.39511">
        <ele>640.7</ele>
        <time>2015-05-14T10:26:49Z</time>
      </trkpt>
      <trkpt lat="43.65228" lon="2.39522">
        <ele>641</ele>
        <time>2015-05-14T10:27:00Z</time>
      </trkpt>
      <trkpt lat="43.6524" lon="2.39525">
        <ele>641.5</ele>
        <time>2015-05-14T10:27:05Z</time>
      </trkpt>
      <trkpt lat="43.65242" lon="2.39526">
        <ele>641.6</ele>
        <time>2015-05-14T10:27:06Z</time>
      </trkpt>
      <trkpt lat="43.65251" lon="2.39532">
        <ele>642.1</ele>
        <time>2015-05-14T10:27:09Z</time>
      </trkpt>
      <trkpt lat="43.65253" lon="2.39535">
        <ele>642.2</ele>
        <time>2015-05-14T10:27:11Z</time>
      </trkpt>
      <trkpt lat="43.65257" lon="2.39542">
        <ele>642.4</ele>
        <time>2015-05-14T10:27:15Z</time>
      </trkpt>
      <trkpt lat="43.65275" lon="2.39563">
        <ele>643.5</ele>
        <time>2015-05-14T10:27:24Z</time>
      </trkpt>
      <trkpt lat="43.65283" lon="2.39584">
        <ele>644.7</ele>
        <time>2015-05-14T10:27:32Z</time>
      </trkpt>
      <trkpt lat="43.65284" lon="2.39594">
        <ele>645.4</ele>
        <time>2015-05-14T10:27:35Z</time>
      </trkpt>
      <trkpt lat="43.65285" lon="2.39597">
        <ele>645.6</ele>
        <time>2015-05-14T10:27:36Z</time>
      </trkpt>
      <trkpt lat="43.65286" lon="2.396">
        <ele>645.8</ele>
        <time>2015-05-14T10:27:37Z</time>
      </trkpt>
      <trkpt lat="43.65287" lon="2.39603">
        <ele>646</ele>
        <time>2015-05-14T10:27:38Z</time>
      </trkpt>
      <trkpt lat="43.65288" lon="2.39606">
        <ele>646.2</ele>
        <time>2015-05-14T10:27:39Z</time>
      </trkpt>
      <trkpt lat="43.6529" lon="2.3961">
        <ele>646.5</ele>
        <time>2015-05-14T10:27:40Z</time>
      </trkpt>
      <trkpt lat="43.65292" lon="2.39613">
        <ele>646.6</ele>
        <time>2015-05-14T10:27:41Z</time>
      </trkpt>
      <trkpt lat="43.65295" lon="2.39616">
        <ele>646.6</ele>
        <time>2015-05-14T10:27:42Z</time>
      </trkpt>
      <trkpt lat="43.65296" lon="2.39619">
        <ele>646.7</ele>
        <time>2015-05-14T10:27:43Z</time>
      </trkpt>
      <trkpt lat="43.65297" lon="2.39621">
        <ele>646.8</ele>
        <time>2015-05-14T10:27:44Z</time>
      </trkpt>
      <trkpt lat="43.65308" lon="2.39649">
        <ele>647.6</ele>
        <time>2015-05-14T10:27:53Z</time>
      </trkpt>
      <trkpt lat="43.6531" lon="2.39652">
        <ele>647.8</ele>
        <time>2015-05-14T10:27:54Z</time>
      </trkpt>
      <trkpt lat="43.65311" lon="2.39655">
        <ele>648</ele>
        <time>2015-05-14T10:27:55Z</time>
      </trkpt>
      <trkpt lat="43.65311" lon="2.39658">
        <ele>648.2</ele>
        <time>2015-05-14T10:27:56Z</time>
      </trkpt>
      <trkpt lat="43.65312" lon="2.39661">
        <ele>648.3</ele>
        <time>2015-05-14T10:27:57Z</time>
      </trkpt>
      <trkpt lat="43.65313" lon="2.39664">
        <ele>648.5</ele>
        <time>2015-05-14T10:27:58Z</time>
      </trkpt>
      <trkpt lat="43.65314" lon="2.39667">
        <ele>648.7</ele>
        <time>2015-05-14T10:27:59Z</time>
      </trkpt>
      <trkpt lat="43.65315" lon="2.3967">
        <ele>648.8</ele>
        <time>2015-05-14T10:28:00Z</time>
      </trkpt>
      <trkpt lat="43.65315" lon="2.39673">
        <ele>648.9</ele>
        <time>2015-05-14T10:28:01Z</time>
      </trkpt>
      <trkpt lat="43.65314" lon="2.39676">
        <ele>649</ele>
        <time>2015-05-14T10:28:02Z</time>
      </trkpt>
      <trkpt lat="43.65314" lon="2.39679">
        <ele>649.1</ele>
        <time>2015-05-14T10:28:03Z</time>
      </trkpt>
      <trkpt lat="43.65313" lon="2.39682">
        <ele>649.3</ele>
        <time>2015-05-14T10:28:04Z</time>
      </trkpt>
      <trkpt lat="43.65314" lon="2.39686">
        <ele>649.4</ele>
        <time>2015-05-14T10:28:05Z</time>
      </trkpt>
      <trkpt lat="43.65314" lon="2.39689">
        <ele>649.5</ele>
        <time>2015-05-14T10:28:06Z</time>
      </trkpt>
      <trkpt lat="43.65313" lon="2.39692">
        <ele>649.7</ele>
        <time>2015-05-14T10:28:07Z</time>
      </trkpt>
      <trkpt lat="43.65311" lon="2.39714">
        <ele>649.9</ele>
        <time>2015-05-14T10:28:13Z</time>
      </trkpt>
      <trkpt lat="43.6531" lon="2.39717">
        <ele>650</ele>
        <time>2015-05-14T10:28:14Z</time>
      </trkpt>
      <trkpt lat="43.65309" lon="2.3972">
        <ele>650</ele>
        <time>2015-05-14T10:28:15Z</time>
      </trkpt>
      <trkpt lat="43.6531" lon="2.39738">
        <ele>650.5</ele>
        <time>2015-05-14T10:28:21Z</time>
      </trkpt>
      <trkpt lat="43.6531" lon="2.39741">
        <ele>650.6</ele>
        <time>2015-05-14T10:28:22Z</time>
      </trkpt>
      <trkpt lat="43.65313" lon="2.39746">
        <ele>650.6</ele>
        <time>2015-05-14T10:28:23Z</time>
      </trkpt>
      <trkpt lat="43.65315" lon="2.3975">
        <ele>650.6</ele>
        <time>2015-05-14T10:28:24Z</time>
      </trkpt>
      <trkpt lat="43.65317" lon="2.39754">
        <ele>650.5</ele>
        <time>2015-05-14T10:28:25Z</time>
      </trkpt>
      <trkpt lat="43.65319" lon="2.39756">
        <ele>650.4</ele>
        <time>2015-05-14T10:28:26Z</time>
      </trkpt>
      <trkpt lat="43.65322" lon="2.39758">
        <ele>650.3</ele>
        <time>2015-05-14T10:28:27Z</time>
      </trkpt>
      <trkpt lat="43.65324" lon="2.39759">
        <ele>650.2</ele>
        <time>2015-05-14T10:28:28Z</time>
      </trkpt>
      <trkpt lat="43.65326" lon="2.39761">
        <ele>650.2</ele>
        <time>2015-05-14T10:28:29Z</time>
      </trkpt>
      <trkpt lat="43.65328" lon="2.39761">
        <ele>650.1</ele>
        <time>2015-05-14T10:28:30Z</time>
      </trkpt>
      <trkpt lat="43.65331" lon="2.39762">
        <ele>650.1</ele>
        <time>2015-05-14T10:28:31Z</time>
      </trkpt>
      <trkpt lat="43.65332" lon="2.39764">
        <ele>650</ele>
        <time>2015-05-14T10:28:32Z</time>
      </trkpt>
      <trkpt lat="43.65335" lon="2.39766">
        <ele>650.1</ele>
        <time>2015-05-14T10:28:33Z</time>
      </trkpt>
      <trkpt lat="43.65337" lon="2.39769">
        <ele>650.1</ele>
        <time>2015-05-14T10:28:34Z</time>
      </trkpt>
      <trkpt lat="43.65338" lon="2.39771">
        <ele>650.2</ele>
        <time>2015-05-14T10:28:35Z</time>
      </trkpt>
      <trkpt lat="43.65339" lon="2.39774">
        <ele>650.2</ele>
        <time>2015-05-14T10:28:36Z</time>
      </trkpt>
      <trkpt lat="43.6534" lon="2.39776">
        <ele>650.2</ele>
        <time>2015-05-14T10:28:37Z</time>
      </trkpt>
      <trkpt lat="43.65343" lon="2.39782">
        <ele>650.3</ele>
        <time>2015-05-14T10:28:41Z</time>
      </trkpt>
      <trkpt lat="43.65344" lon="2.39784">
        <ele>650.4</ele>
        <time>2015-05-14T10:28:42Z</time>
      </trkpt>
      <trkpt lat="43.65346" lon="2.39786">
        <ele>650.5</ele>
        <time>2015-05-14T10:28:43Z</time>
      </trkpt>
      <trkpt lat="43.65348" lon="2.39788">
        <ele>650.5</ele>
        <time>2015-05-14T10:28:44Z</time>
      </trkpt>
      <trkpt lat="43.65373" lon="2.39809">
        <ele>651.8</ele>
        <time>2015-05-14T10:28:56Z</time>
      </trkpt>
      <trkpt lat="43.6538" lon="2.39816">
        <ele>652.3</ele>
        <time>2015-05-14T10:29:00Z</time>
      </trkpt>
      <trkpt lat="43.6538" lon="2.39818">
        <ele>652.4</ele>
        <time>2015-05-14T10:29:01Z</time>
      </trkpt>
      <trkpt lat="43.65381" lon="2.3982">
        <ele>652.4</ele>
        <time>2015-05-14T10:29:02Z</time>
      </trkpt>
      <trkpt lat="43.65382" lon="2.39822">
        <ele>652.5</ele>
        <time>2015-05-14T10:29:03Z</time>
      </trkpt>
      <trkpt lat="43.65382" lon="2.39825">
        <ele>652.5</ele>
        <time>2015-05-14T10:29:04Z</time>
      </trkpt>
      <trkpt lat="43.65383" lon="2.39827">
        <ele>652.6</ele>
        <time>2015-05-14T10:29:05Z</time>
      </trkpt>
      <trkpt lat="43.65385" lon="2.39828">
        <ele>652.7</ele>
        <time>2015-05-14T10:29:06Z</time>
      </trkpt>
      <trkpt lat="43.65386" lon="2.3983">
        <ele>652.8</ele>
        <time>2015-05-14T10:29:07Z</time>
      </trkpt>
      <trkpt lat="43.65387" lon="2.39831">
        <ele>652.9</ele>
        <time>2015-05-14T10:29:08Z</time>
      </trkpt>
      <trkpt lat="43.65389" lon="2.39832">
        <ele>653</ele>
        <time>2015-05-14T10:29:09Z</time>
      </trkpt>
      <trkpt lat="43.65391" lon="2.39833">
        <ele>653.2</ele>
        <time>2015-05-14T10:29:10Z</time>
      </trkpt>
      <trkpt lat="43.65393" lon="2.39834">
        <ele>653.3</ele>
        <time>2015-05-14T10:29:11Z</time>
      </trkpt>
      <trkpt lat="43.65395" lon="2.39836">
        <ele>653.5</ele>
        <time>2015-05-14T10:29:12Z</time>
      </trkpt>
      <trkpt lat="43.65396" lon="2.39837">
        <ele>653.6</ele>
        <time>2015-05-14T10:29:13Z</time>
      </trkpt>
      <trkpt lat="43.65399" lon="2.39839">
        <ele>653.8</ele>
        <time>2015-05-14T10:29:14Z</time>
      </trkpt>
      <trkpt lat="43.65401" lon="2.39841">
        <ele>654</ele>
        <time>2015-05-14T10:29:15Z</time>
      </trkpt>
      <trkpt lat="43.65416" lon="2.3987">
        <ele>655.3</ele>
        <time>2015-05-14T10:29:29Z</time>
      </trkpt>
      <trkpt lat="43.65417" lon="2.39873">
        <ele>655.4</ele>
        <time>2015-05-14T10:29:31Z</time>
      </trkpt>
      <trkpt lat="43.6542" lon="2.3988">
        <ele>655.7</ele>
        <time>2015-05-14T10:29:35Z</time>
      </trkpt>
      <trkpt lat="43.65433" lon="2.3991">
        <ele>656.8</ele>
        <time>2015-05-14T10:29:46Z</time>
      </trkpt>
      <trkpt lat="43.65438" lon="2.39937">
        <ele>658.3</ele>
        <time>2015-05-14T10:29:56Z</time>
      </trkpt>
      <trkpt lat="43.65438" lon="2.39939">
        <ele>658.4</ele>
        <time>2015-05-14T10:29:57Z</time>
      </trkpt>
      <trkpt lat="43.65439" lon="2.39968">
        <ele>660.2</ele>
        <time>2015-05-14T10:30:10Z</time>
      </trkpt>
      <trkpt lat="43.65454" lon="2.39998">
        <ele>663.2</ele>
        <time>2015-05-14T10:30:20Z</time>
      </trkpt>
      <trkpt lat="43.65459" lon="2.4003">
        <ele>664.6</ele>
        <time>2015-05-14T10:30:33Z</time>
      </trkpt>
      <trkpt lat="43.65464" lon="2.40065">
        <ele>666.3</ele>
        <time>2015-05-14T10:30:48Z</time>
      </trkpt>
      <trkpt lat="43.65466" lon="2.40093">
        <ele>667.9</ele>
        <time>2015-05-14T10:31:00Z</time>
      </trkpt>
      <trkpt lat="43.65469" lon="2.40102">
        <ele>668.9</ele>
        <time>2015-05-14T10:31:04Z</time>
      </trkpt>
      <trkpt lat="43.6547" lon="2.40104">
        <ele>669.4</ele>
        <time>2015-05-14T10:31:05Z</time>
      </trkpt>
      <trkpt lat="43.65472" lon="2.40107">
        <ele>669.9</ele>
        <time>2015-05-14T10:31:06Z</time>
      </trkpt>
      <trkpt lat="43.65474" lon="2.40108">
        <ele>670.1</ele>
        <time>2015-05-14T10:31:07Z</time>
      </trkpt>
      <trkpt lat="43.65476" lon="2.40109">
        <ele>670.3</ele>
        <time>2015-05-14T10:31:08Z</time>
      </trkpt>
      <trkpt lat="43.65479" lon="2.40113">
        <ele>670.5</ele>
        <time>2015-05-14T10:31:10Z</time>
      </trkpt>
      <trkpt lat="43.65493" lon="2.40134">
        <ele>671.5</ele>
        <time>2015-05-14T10:31:23Z</time>
      </trkpt>
      <trkpt lat="43.65498" lon="2.40137">
        <ele>671.9</ele>
        <time>2015-05-14T10:31:26Z</time>
      </trkpt>
      <trkpt lat="43.655" lon="2.40138">
        <ele>672</ele>
        <time>2015-05-14T10:31:27Z</time>
      </trkpt>
      <trkpt lat="43.65502" lon="2.40139">
        <ele>671.9</ele>
        <time>2015-05-14T10:31:28Z</time>
      </trkpt>
      <trkpt lat="43.65504" lon="2.4014">
        <ele>671.8</ele>
        <time>2015-05-14T10:31:29Z</time>
      </trkpt>
      <trkpt lat="43.65507" lon="2.40141">
        <ele>671.7</ele>
        <time>2015-05-14T10:31:30Z</time>
      </trkpt>
      <trkpt lat="43.65509" lon="2.40143">
        <ele>671.6</ele>
        <time>2015-05-14T10:31:31Z</time>
      </trkpt>
      <trkpt lat="43.65512" lon="2.40145">
        <ele>671.5</ele>
        <time>2015-05-14T10:31:32Z</time>
      </trkpt>
      <trkpt lat="43.65514" lon="2.40147">
        <ele>671.4</ele>
        <time>2015-05-14T10:31:33Z</time>
      </trkpt>
      <trkpt lat="43.65515" lon="2.40148">
        <ele>671.3</ele>
        <time>2015-05-14T10:31:34Z</time>
      </trkpt>
      <trkpt lat="43.65517" lon="2.40149">
        <ele>671.3</ele>
        <time>2015-05-14T10:31:35Z</time>
      </trkpt>
      <trkpt lat="43.65519" lon="2.40151">
        <ele>671.2</ele>
        <time>2015-05-14T10:31:36Z</time>
      </trkpt>
      <trkpt lat="43.6552" lon="2.40153">
        <ele>671.1</ele>
        <time>2015-05-14T10:31:37Z</time>
      </trkpt>
      <trkpt lat="43.65522" lon="2.40156">
        <ele>671.1</ele>
        <time>2015-05-14T10:31:38Z</time>
      </trkpt>
      <trkpt lat="43.65522" lon="2.40159">
        <ele>671.1</ele>
        <time>2015-05-14T10:31:39Z</time>
      </trkpt>
      <trkpt lat="43.65523" lon="2.40161">
        <ele>671</ele>
        <time>2015-05-14T10:31:40Z</time>
      </trkpt>
      <trkpt lat="43.65524" lon="2.40163">
        <ele>671</ele>
        <time>2015-05-14T10:31:41Z</time>
      </trkpt>
      <trkpt lat="43.65525" lon="2.40166">
        <ele>671</ele>
        <time>2015-05-14T10:31:42Z</time>
      </trkpt>
      <trkpt lat="43.65525" lon="2.40168">
        <ele>671</ele>
        <time>2015-05-14T10:31:43Z</time>
      </trkpt>
      <trkpt lat="43.65525" lon="2.4017">
        <ele>671</ele>
        <time>2015-05-14T10:31:44Z</time>
      </trkpt>
      <trkpt lat="43.65525" lon="2.40172">
        <ele>671</ele>
        <time>2015-05-14T10:31:45Z</time>
      </trkpt>
      <trkpt lat="43.65528" lon="2.40177">
        <ele>671</ele>
        <time>2015-05-14T10:31:47Z</time>
      </trkpt>
      <trkpt lat="43.65529" lon="2.40181">
        <ele>670.9</ele>
        <time>2015-05-14T10:31:48Z</time>
      </trkpt>
      <trkpt lat="43.65531" lon="2.40185">
        <ele>670.9</ele>
        <time>2015-05-14T10:31:49Z</time>
      </trkpt>
      <trkpt lat="43.65533" lon="2.40189">
        <ele>670.8</ele>
        <time>2015-05-14T10:31:50Z</time>
      </trkpt>
      <trkpt lat="43.65535" lon="2.40193">
        <ele>670.8</ele>
        <time>2015-05-14T10:31:51Z</time>
      </trkpt>
      <trkpt lat="43.65535" lon="2.40198">
        <ele>670.7</ele>
        <time>2015-05-14T10:31:52Z</time>
      </trkpt>
      <trkpt lat="43.65535" lon="2.40203">
        <ele>670.7</ele>
        <time>2015-05-14T10:31:53Z</time>
      </trkpt>
      <trkpt lat="43.65535" lon="2.40207">
        <ele>670.6</ele>
        <time>2015-05-14T10:31:54Z</time>
      </trkpt>
      <trkpt lat="43.65544" lon="2.40241">
        <ele>670.1</ele>
        <time>2015-05-14T10:32:04Z</time>
      </trkpt>
      <trkpt lat="43.65548" lon="2.40246">
        <ele>669.8</ele>
        <time>2015-05-14T10:32:05Z</time>
      </trkpt>
      <trkpt lat="43.65601" lon="2.40283">
        <ele>665.8</ele>
        <time>2015-05-14T10:32:15Z</time>
      </trkpt>
      <trkpt lat="43.65625" lon="2.40309">
        <ele>664.9</ele>
        <time>2015-05-14T10:32:24Z</time>
      </trkpt>
      <trkpt lat="43.65667" lon="2.40333">
        <ele>663</ele>
        <time>2015-05-14T10:32:36Z</time>
      </trkpt>
      <trkpt lat="43.6568" lon="2.40341">
        <ele>662.7</ele>
        <time>2015-05-14T10:32:39Z</time>
      </trkpt>
      <trkpt lat="43.65698" lon="2.40353">
        <ele>662.2</ele>
        <time>2015-05-14T10:32:43Z</time>
      </trkpt>
      <trkpt lat="43.6573" lon="2.40392">
        <ele>661</ele>
        <time>2015-05-14T10:32:52Z</time>
      </trkpt>
      <trkpt lat="43.65734" lon="2.40397">
        <ele>660.9</ele>
        <time>2015-05-14T10:32:53Z</time>
      </trkpt>
      <trkpt lat="43.65742" lon="2.40415">
        <ele>661.4</ele>
        <time>2015-05-14T10:32:58Z</time>
      </trkpt>
      <trkpt lat="43.65742" lon="2.40417">
        <ele>661.4</ele>
        <time>2015-05-14T10:32:59Z</time>
      </trkpt>
      <trkpt lat="43.65742" lon="2.40419">
        <ele>661.3</ele>
        <time>2015-05-14T10:33:00Z</time>
      </trkpt>
      <trkpt lat="43.65746" lon="2.40442">
        <ele>660.8</ele>
        <time>2015-05-14T10:33:07Z</time>
      </trkpt>
      <trkpt lat="43.65748" lon="2.40446">
        <ele>660.8</ele>
        <time>2015-05-14T10:33:08Z</time>
      </trkpt>
      <trkpt lat="43.65749" lon="2.4045">
        <ele>660.8</ele>
        <time>2015-05-14T10:33:09Z</time>
      </trkpt>
      <trkpt lat="43.65756" lon="2.40491">
        <ele>660.3</ele>
        <time>2015-05-14T10:33:20Z</time>
      </trkpt>
      <trkpt lat="43.65758" lon="2.40506">
        <ele>660.2</ele>
        <time>2015-05-14T10:33:24Z</time>
      </trkpt>
      <trkpt lat="43.65762" lon="2.40518">
        <ele>660.3</ele>
        <time>2015-05-14T10:33:27Z</time>
      </trkpt>
      <trkpt lat="43.65784" lon="2.40552">
        <ele>660.2</ele>
        <time>2015-05-14T10:33:38Z</time>
      </trkpt>
      <trkpt lat="43.65803" lon="2.40587">
        <ele>659.2</ele>
        <time>2015-05-14T10:33:51Z</time>
      </trkpt>
      <trkpt lat="43.65813" lon="2.40604">
        <ele>658.6</ele>
        <time>2015-05-14T10:33:55Z</time>
      </trkpt>
      <trkpt lat="43.65818" lon="2.40606">
        <ele>659</ele>
        <time>2015-05-14T10:34:01Z</time>
      </trkpt>
      <trkpt lat="43.65819" lon="2.40605">
        <ele>659.3</ele>
        <time>2015-05-14T10:34:02Z</time>
      </trkpt>
      <trkpt lat="43.6582" lon="2.40602">
        <ele>659.6</ele>
        <time>2015-05-14T10:34:03Z</time>
      </trkpt>
      <trkpt lat="43.65825" lon="2.40573">
        <ele>664.1</ele>
        <time>2015-05-14T10:34:15Z</time>
      </trkpt>
      <trkpt lat="43.65812" lon="2.40599">
        <ele>659.1</ele>
        <time>2015-05-14T10:34:22Z</time>
      </trkpt>
      <trkpt lat="43.65808" lon="2.40613">
        <ele>657.1</ele>
        <time>2015-05-14T10:34:25Z</time>
      </trkpt>
      <trkpt lat="43.65775" lon="2.4063">
        <ele>651.8</ele>
        <time>2015-05-14T10:34:34Z</time>
      </trkpt>
      <trkpt lat="43.65774" lon="2.40632">
        <ele>651.7</ele>
        <time>2015-05-14T10:34:36Z</time>
      </trkpt>
      <trkpt lat="43.65757" lon="2.40638">
        <ele>652.5</ele>
        <time>2015-05-14T10:34:41Z</time>
      </trkpt>
      <trkpt lat="43.65755" lon="2.40646">
        <ele>652.7</ele>
        <time>2015-05-14T10:34:43Z</time>
      </trkpt>
      <trkpt lat="43.65753" lon="2.40666">
        <ele>653.3</ele>
        <time>2015-05-14T10:34:50Z</time>
      </trkpt>
      <trkpt lat="43.65749" lon="2.40685">
        <ele>655.5</ele>
        <time>2015-05-14T10:34:58Z</time>
      </trkpt>
      <trkpt lat="43.65742" lon="2.40713">
        <ele>659.5</ele>
        <time>2015-05-14T10:35:10Z</time>
      </trkpt>
      <trkpt lat="43.65742" lon="2.40722">
        <ele>659.9</ele>
        <time>2015-05-14T10:35:14Z</time>
      </trkpt>
      <trkpt lat="43.65749" lon="2.40751">
        <ele>659.2</ele>
        <time>2015-05-14T10:35:25Z</time>
      </trkpt>
      <trkpt lat="43.65732" lon="2.40773">
        <ele>662.9</ele>
        <time>2015-05-14T10:35:42Z</time>
      </trkpt>
      <trkpt lat="43.65718" lon="2.40789">
        <ele>664.3</ele>
        <time>2015-05-14T10:35:54Z</time>
      </trkpt>
      <trkpt lat="43.65695" lon="2.40816">
        <ele>663</ele>
        <time>2015-05-14T10:36:05Z</time>
      </trkpt>
      <trkpt lat="43.65693" lon="2.40817">
        <ele>662.8</ele>
        <time>2015-05-14T10:36:06Z</time>
      </trkpt>
      <trkpt lat="43.65691" lon="2.40819">
        <ele>662.5</ele>
        <time>2015-05-14T10:36:07Z</time>
      </trkpt>
      <trkpt lat="43.65687" lon="2.40823">
        <ele>661.9</ele>
        <time>2015-05-14T10:36:10Z</time>
      </trkpt>
      <trkpt lat="43.65685" lon="2.40825">
        <ele>661.6</ele>
        <time>2015-05-14T10:36:11Z</time>
      </trkpt>
      <trkpt lat="43.65683" lon="2.40827">
        <ele>661.3</ele>
        <time>2015-05-14T10:36:12Z</time>
      </trkpt>
      <trkpt lat="43.65679" lon="2.4083">
        <ele>660.7</ele>
        <time>2015-05-14T10:36:13Z</time>
      </trkpt>
      <trkpt lat="43.65676" lon="2.40834">
        <ele>660.3</ele>
        <time>2015-05-14T10:36:14Z</time>
      </trkpt>
      <trkpt lat="43.65674" lon="2.40837">
        <ele>659.9</ele>
        <time>2015-05-14T10:36:15Z</time>
      </trkpt>
      <trkpt lat="43.65673" lon="2.40838">
        <ele>659.7</ele>
        <time>2015-05-14T10:36:16Z</time>
      </trkpt>
      <trkpt lat="43.65655" lon="2.40855">
        <ele>655.8</ele>
        <time>2015-05-14T10:36:23Z</time>
      </trkpt>
      <trkpt lat="43.65654" lon="2.4086">
        <ele>655.4</ele>
        <time>2015-05-14T10:36:24Z</time>
      </trkpt>
      <trkpt lat="43.65651" lon="2.40867">
        <ele>654.6</ele>
        <time>2015-05-14T10:36:26Z</time>
      </trkpt>
      <trkpt lat="43.65615" lon="2.40894">
        <ele>648.8</ele>
        <time>2015-05-14T10:36:36Z</time>
      </trkpt>
      <trkpt lat="43.65587" lon="2.40925">
        <ele>648</ele>
        <time>2015-05-14T10:36:45Z</time>
      </trkpt>
      <trkpt lat="43.65578" lon="2.40939">
        <ele>648.1</ele>
        <time>2015-05-14T10:36:49Z</time>
      </trkpt>
      <trkpt lat="43.65574" lon="2.40949">
        <ele>647.7</ele>
        <time>2015-05-14T10:36:55Z</time>
      </trkpt>
      <trkpt lat="43.65573" lon="2.40951">
        <ele>647.8</ele>
        <time>2015-05-14T10:36:56Z</time>
      </trkpt>
      <trkpt lat="43.65569" lon="2.40959">
        <ele>647.5</ele>
        <time>2015-05-14T10:37:01Z</time>
      </trkpt>
      <trkpt lat="43.65567" lon="2.40964">
        <ele>647.4</ele>
        <time>2015-05-14T10:37:02Z</time>
      </trkpt>
      <trkpt lat="43.65567" lon="2.40974">
        <ele>646.4</ele>
        <time>2015-05-14T10:37:04Z</time>
      </trkpt>
      <trkpt lat="43.65569" lon="2.4098">
        <ele>645</ele>
        <time>2015-05-14T10:37:05Z</time>
      </trkpt>
      <trkpt lat="43.65571" lon="2.40986">
        <ele>643.6</ele>
        <time>2015-05-14T10:37:06Z</time>
      </trkpt>
      <trkpt lat="43.65572" lon="2.40993">
        <ele>642.6</ele>
        <time>2015-05-14T10:37:07Z</time>
      </trkpt>
      <trkpt lat="43.65571" lon="2.40996">
        <ele>642.2</ele>
        <time>2015-05-14T10:37:08Z</time>
      </trkpt>
      <trkpt lat="43.6557" lon="2.40999">
        <ele>642.1</ele>
        <time>2015-05-14T10:37:09Z</time>
      </trkpt>
      <trkpt lat="43.65566" lon="2.41002">
        <ele>642.5</ele>
        <time>2015-05-14T10:37:10Z</time>
      </trkpt>
      <trkpt lat="43.65539" lon="2.41066">
        <ele>640.4</ele>
        <time>2015-05-14T10:37:20Z</time>
      </trkpt>
      <trkpt lat="43.65517" lon="2.4108">
        <ele>640.3</ele>
        <time>2015-05-14T10:37:27Z</time>
      </trkpt>
      <trkpt lat="43.65485" lon="2.41136">
        <ele>632.4</ele>
        <time>2015-05-14T10:37:39Z</time>
      </trkpt>
      <trkpt lat="43.65453" lon="2.41175">
        <ele>622.8</ele>
        <time>2015-05-14T10:37:48Z</time>
      </trkpt>
      <trkpt lat="43.65427" lon="2.41193">
        <ele>618.9</ele>
        <time>2015-05-14T10:37:54Z</time>
      </trkpt>
      <trkpt lat="43.65419" lon="2.41195">
        <ele>618.8</ele>
        <time>2015-05-14T10:37:55Z</time>
      </trkpt>
      <trkpt lat="43.65409" lon="2.41202">
        <ele>618.5</ele>
        <time>2015-05-14T10:37:56Z</time>
      </trkpt>
      <trkpt lat="43.65368" lon="2.41236">
        <ele>615.6</ele>
        <time>2015-05-14T10:38:01Z</time>
      </trkpt>
      <trkpt lat="43.65361" lon="2.4124">
        <ele>615.2</ele>
        <time>2015-05-14T10:38:02Z</time>
      </trkpt>
      <trkpt lat="43.65355" lon="2.41245">
        <ele>614.6</ele>
        <time>2015-05-14T10:38:03Z</time>
      </trkpt>
      <trkpt lat="43.65351" lon="2.41246">
        <ele>614.5</ele>
        <time>2015-05-14T10:38:04Z</time>
      </trkpt>
      <trkpt lat="43.65267" lon="2.41258">
        <ele>610.2</ele>
        <time>2015-05-14T10:38:07Z</time>
      </trkpt>
      <trkpt lat="43.65264" lon="2.41257">
        <ele>610.3</ele>
        <time>2015-05-14T10:38:08Z</time>
      </trkpt>
      <trkpt lat="43.65262" lon="2.41256">
        <ele>610.3</ele>
        <time>2015-05-14T10:38:09Z</time>
      </trkpt>
      <trkpt lat="43.6526" lon="2.41257">
        <ele>609.8</ele>
        <time>2015-05-14T10:38:10Z</time>
      </trkpt>
      <trkpt lat="43.65257" lon="2.41257">
        <ele>609.6</ele>
        <time>2015-05-14T10:38:11Z</time>
      </trkpt>
      <trkpt lat="43.65254" lon="2.41257">
        <ele>609.2</ele>
        <time>2015-05-14T10:38:12Z</time>
      </trkpt>
      <trkpt lat="43.65252" lon="2.41257">
        <ele>608.8</ele>
        <time>2015-05-14T10:38:13Z</time>
      </trkpt>
      <trkpt lat="43.65249" lon="2.41258">
        <ele>608.2</ele>
        <time>2015-05-14T10:38:14Z</time>
      </trkpt>
      <trkpt lat="43.65246" lon="2.41259">
        <ele>607.7</ele>
        <time>2015-05-14T10:38:15Z</time>
      </trkpt>
      <trkpt lat="43.65233" lon="2.41256">
        <ele>607.2</ele>
        <time>2015-05-14T10:38:19Z</time>
      </trkpt>
      <trkpt lat="43.65198" lon="2.41261">
        <ele>604.9</ele>
        <time>2015-05-14T10:38:31Z</time>
      </trkpt>
      <trkpt lat="43.65169" lon="2.41272">
        <ele>603.4</ele>
        <time>2015-05-14T10:38:38Z</time>
      </trkpt>
      <trkpt lat="43.6514" lon="2.41278">
        <ele>602</ele>
        <time>2015-05-14T10:38:43Z</time>
      </trkpt>
      <trkpt lat="43.65132" lon="2.41276">
        <ele>601.3</ele>
        <time>2015-05-14T10:38:45Z</time>
      </trkpt>
      <trkpt lat="43.65117" lon="2.41275">
        <ele>599.3</ele>
        <time>2015-05-14T10:38:56Z</time>
      </trkpt>
      <trkpt lat="43.65113" lon="2.41277">
        <ele>598.4</ele>
        <time>2015-05-14T10:39:20Z</time>
      </trkpt>
      <trkpt lat="43.65116" lon="2.41275">
        <ele>599.2</ele>
        <time>2015-05-14T10:39:48Z</time>
      </trkpt>
      <trkpt lat="43.65117" lon="2.41278">
        <ele>598.8</ele>
        <time>2015-05-14T10:40:20Z</time>
      </trkpt>
      <trkpt lat="43.65114" lon="2.41285">
        <ele>597.1</ele>
        <time>2015-05-14T10:40:45Z</time>
      </trkpt>
      <trkpt lat="43.65124" lon="2.41268">
        <ele>601.4</ele>
        <time>2015-05-14T10:41:15Z</time>
      </trkpt>
      <trkpt lat="43.65125" lon="2.41268">
        <ele>601.4</ele>
        <time>2015-05-14T10:41:44Z</time>
      </trkpt>
      <trkpt lat="43.65122" lon="2.41271">
        <ele>600.7</ele>
        <time>2015-05-14T10:42:10Z</time>
      </trkpt>
      <trkpt lat="43.65114" lon="2.41278">
        <ele>598.3</ele>
        <time>2015-05-14T10:42:29Z</time>
      </trkpt>
      <trkpt lat="43.65111" lon="2.41275">
        <ele>598.4</ele>
        <time>2015-05-14T10:42:41Z</time>
      </trkpt>
      <trkpt lat="43.65113" lon="2.41268">
        <ele>599.8</ele>
        <time>2015-05-14T10:42:44Z</time>
      </trkpt>
      <trkpt lat="43.65117" lon="2.4125">
        <ele>603.2</ele>
        <time>2015-05-14T10:42:52Z</time>
      </trkpt>
      <trkpt lat="43.65117" lon="2.41246">
        <ele>603.5</ele>
        <time>2015-05-14T10:42:53Z</time>
      </trkpt>
      <trkpt lat="43.6512" lon="2.41226">
        <ele>607</ele>
        <time>2015-05-14T10:43:05Z</time>
      </trkpt>
      <trkpt lat="43.6512" lon="2.41224">
        <ele>607.4</ele>
        <time>2015-05-14T10:43:06Z</time>
      </trkpt>
      <trkpt lat="43.65119" lon="2.41212">
        <ele>609.4</ele>
        <time>2015-05-14T10:43:15Z</time>
      </trkpt>
      <trkpt lat="43.65116" lon="2.4121">
        <ele>608.7</ele>
        <time>2015-05-14T10:43:16Z</time>
      </trkpt>
      <trkpt lat="43.65091" lon="2.41206">
        <ele>604</ele>
        <time>2015-05-14T10:43:23Z</time>
      </trkpt>
      <trkpt lat="43.65082" lon="2.41207">
        <ele>602.2</ele>
        <time>2015-05-14T10:43:26Z</time>
      </trkpt>
      <trkpt lat="43.65039" lon="2.412">
        <ele>606.4</ele>
        <time>2015-05-14T10:43:36Z</time>
      </trkpt>
      <trkpt lat="43.65027" lon="2.41193">
        <ele>609.2</ele>
        <time>2015-05-14T10:43:45Z</time>
      </trkpt>
      <trkpt lat="43.65011" lon="2.41181">
        <ele>613.9</ele>
        <time>2015-05-14T10:43:54Z</time>
      </trkpt>
      <trkpt lat="43.65005" lon="2.41178">
        <ele>615.6</ele>
        <time>2015-05-14T10:43:58Z</time>
      </trkpt>
      <trkpt lat="43.64984" lon="2.41173">
        <ele>618.7</ele>
        <time>2015-05-14T10:44:12Z</time>
      </trkpt>
      <trkpt lat="43.64974" lon="2.41171">
        <ele>620</ele>
        <time>2015-05-14T10:44:27Z</time>
      </trkpt>
      <trkpt lat="43.64966" lon="2.41164">
        <ele>620.6</ele>
        <time>2015-05-14T10:44:43Z</time>
      </trkpt>
      <trkpt lat="43.64966" lon="2.41165">
        <ele>620.5</ele>
        <time>2015-05-14T10:45:08Z</time>
      </trkpt>
      <trkpt lat="43.64966" lon="2.41162">
        <ele>620.9</ele>
        <time>2015-05-14T10:45:11Z</time>
      </trkpt>
      <trkpt lat="43.64967" lon="2.41142">
        <ele>623.3</ele>
        <time>2015-05-14T10:45:24Z</time>
      </trkpt>
      <trkpt lat="43.6497" lon="2.41127">
        <ele>624.3</ele>
        <time>2015-05-14T10:45:33Z</time>
      </trkpt>
      <trkpt lat="43.64972" lon="2.41107">
        <ele>625.3</ele>
        <time>2015-05-14T10:45:46Z</time>
      </trkpt>
      <trkpt lat="43.64975" lon="2.41096">
        <ele>626</ele>
        <time>2015-05-14T10:45:51Z</time>
      </trkpt>
      <trkpt lat="43.64976" lon="2.41083">
        <ele>626.9</ele>
        <time>2015-05-14T10:45:57Z</time>
      </trkpt>
      <trkpt lat="43.64977" lon="2.41075">
        <ele>627.2</ele>
        <time>2015-05-14T10:46:01Z</time>
      </trkpt>
      <trkpt lat="43.6498" lon="2.41062">
        <ele>627.7</ele>
        <time>2015-05-14T10:46:08Z</time>
      </trkpt>
      <trkpt lat="43.64983" lon="2.41049">
        <ele>628.5</ele>
        <time>2015-05-14T10:46:15Z</time>
      </trkpt>
      <trkpt lat="43.64986" lon="2.41037">
        <ele>629.4</ele>
        <time>2015-05-14T10:46:21Z</time>
      </trkpt>
      <trkpt lat="43.6499" lon="2.41022">
        <ele>630.3</ele>
        <time>2015-05-14T10:46:29Z</time>
      </trkpt>
      <trkpt lat="43.64998" lon="2.40998">
        <ele>631.9</ele>
        <time>2015-05-14T10:46:44Z</time>
      </trkpt>
      <trkpt lat="43.65007" lon="2.40974">
        <ele>633.1</ele>
        <time>2015-05-14T10:46:59Z</time>
      </trkpt>
      <trkpt lat="43.65013" lon="2.40956">
        <ele>634.8</ele>
        <time>2015-05-14T10:47:11Z</time>
      </trkpt>
      <trkpt lat="43.65023" lon="2.40935">
        <ele>638.6</ele>
        <time>2015-05-14T10:47:25Z</time>
      </trkpt>
      <trkpt lat="43.65027" lon="2.40923">
        <ele>641.1</ele>
        <time>2015-05-14T10:47:36Z</time>
      </trkpt>
      <trkpt lat="43.65027" lon="2.4091">
        <ele>642.7</ele>
        <time>2015-05-14T10:47:52Z</time>
      </trkpt>
      <trkpt lat="43.65027" lon="2.40892">
        <ele>644.5</ele>
        <time>2015-05-14T10:48:07Z</time>
      </trkpt>
      <trkpt lat="43.65023" lon="2.40888">
        <ele>644.3</ele>
        <time>2015-05-14T10:48:25Z</time>
      </trkpt>
      <trkpt lat="43.65019" lon="2.40875">
        <ele>645.8</ele>
        <time>2015-05-14T10:48:35Z</time>
      </trkpt>
      <trkpt lat="43.65015" lon="2.40854">
        <ele>648.5</ele>
        <time>2015-05-14T10:48:49Z</time>
      </trkpt>
      <trkpt lat="43.6501" lon="2.40841">
        <ele>650.1</ele>
        <time>2015-05-14T10:49:01Z</time>
      </trkpt>
      <trkpt lat="43.65006" lon="2.40827">
        <ele>652</ele>
        <time>2015-05-14T10:49:13Z</time>
      </trkpt>
      <trkpt lat="43.65004" lon="2.40822">
        <ele>652.4</ele>
        <time>2015-05-14T10:49:16Z</time>
      </trkpt>
      <trkpt lat="43.64994" lon="2.40807">
        <ele>653.4</ele>
        <time>2015-05-14T10:49:27Z</time>
      </trkpt>
      <trkpt lat="43.64987" lon="2.40793">
        <ele>655.6</ele>
        <time>2015-05-14T10:49:39Z</time>
      </trkpt>
      <trkpt lat="43.6498" lon="2.40781">
        <ele>656.8</ele>
        <time>2015-05-14T10:49:52Z</time>
      </trkpt>
      <trkpt lat="43.64958" lon="2.40759">
        <ele>656.5</ele>
        <time>2015-05-14T10:50:23Z</time>
      </trkpt>
      <trkpt lat="43.64948" lon="2.40758">
        <ele>653.7</ele>
        <time>2015-05-14T10:50:55Z</time>
      </trkpt>
      <trkpt lat="43.64934" lon="2.40759">
        <ele>652.2</ele>
        <time>2015-05-14T10:51:08Z</time>
      </trkpt>
      <trkpt lat="43.64928" lon="2.40758">
        <ele>652</ele>
        <time>2015-05-14T10:51:21Z</time>
      </trkpt>
      <trkpt lat="43.64928" lon="2.40759">
        <ele>651.9</ele>
        <time>2015-05-14T10:51:22Z</time>
      </trkpt>
      <trkpt lat="43.64923" lon="2.40761">
        <ele>651.5</ele>
        <time>2015-05-14T10:52:00Z</time>
      </trkpt>
      <trkpt lat="43.64924" lon="2.40753">
        <ele>652.3</ele>
        <time>2015-05-14T10:52:40Z</time>
      </trkpt>
      <trkpt lat="43.64926" lon="2.40754">
        <ele>652.3</ele>
        <time>2015-05-14T10:53:04Z</time>
      </trkpt>
      <trkpt lat="43.64919" lon="2.40761">
        <ele>651.3</ele>
        <time>2015-05-14T10:53:09Z</time>
      </trkpt>
      <trkpt lat="43.64907" lon="2.4078">
        <ele>650.9</ele>
        <time>2015-05-14T10:53:15Z</time>
      </trkpt>
      <trkpt lat="43.64885" lon="2.40798">
        <ele>651.5</ele>
        <time>2015-05-14T10:53:25Z</time>
      </trkpt>
      <trkpt lat="43.64855" lon="2.40694">
        <ele>664.7</ele>
        <time>2015-05-14T11:47:10Z</time>
      </trkpt>
      <trkpt lat="43.64855" lon="2.40689">
        <ele>665</ele>
        <time>2015-05-14T11:47:50Z</time>
      </trkpt>
      <trkpt lat="43.64849" lon="2.40677">
        <ele>666.4</ele>
        <time>2015-05-14T11:48:24Z</time>
      </trkpt>
      <trkpt lat="43.64852" lon="2.40686">
        <ele>665.5</ele>
        <time>2015-05-14T11:49:07Z</time>
      </trkpt>
      <trkpt lat="43.64851" lon="2.40684">
        <ele>665.7</ele>
        <time>2015-05-14T11:49:54Z</time>
      </trkpt>
      <trkpt lat="43.64852" lon="2.40688">
        <ele>665.3</ele>
        <time>2015-05-14T11:50:24Z</time>
      </trkpt>
      <trkpt lat="43.64852" lon="2.40689">
        <ele>665.3</ele>
        <time>2015-05-14T11:51:04Z</time>
      </trkpt>
      <trkpt lat="43.6485" lon="2.40686">
        <ele>665.7</ele>
        <time>2015-05-14T11:51:28Z</time>
      </trkpt>
      <trkpt lat="43.64846" lon="2.40701">
        <ele>664.9</ele>
        <time>2015-05-14T11:51:43Z</time>
      </trkpt>
      <trkpt lat="43.6484" lon="2.40704">
        <ele>665.2</ele>
        <time>2015-05-14T11:51:58Z</time>
      </trkpt>
      <trkpt lat="43.64838" lon="2.40705">
        <ele>665.3</ele>
        <time>2015-05-14T11:52:00Z</time>
      </trkpt>
      <trkpt lat="43.64833" lon="2.4071">
        <ele>665.3</ele>
        <time>2015-05-14T11:52:04Z</time>
      </trkpt>
      <trkpt lat="43.64814" lon="2.40718">
        <ele>667.3</ele>
        <time>2015-05-14T11:52:17Z</time>
      </trkpt>
      <trkpt lat="43.64805" lon="2.40723">
        <ele>667.9</ele>
        <time>2015-05-14T11:52:22Z</time>
      </trkpt>
      <trkpt lat="43.64785" lon="2.4073">
        <ele>666.8</ele>
        <time>2015-05-14T11:52:34Z</time>
      </trkpt>
      <trkpt lat="43.64761" lon="2.40736">
        <ele>664</ele>
        <time>2015-05-14T11:52:45Z</time>
      </trkpt>
      <trkpt lat="43.6475" lon="2.40735">
        <ele>663.3</ele>
        <time>2015-05-14T11:52:53Z</time>
      </trkpt>
      <trkpt lat="43.64732" lon="2.40739">
        <ele>660.8</ele>
        <time>2015-05-14T11:52:58Z</time>
      </trkpt>
      <trkpt lat="43.64686" lon="2.40755">
        <ele>659.7</ele>
        <time>2015-05-14T11:53:09Z</time>
      </trkpt>
      <trkpt lat="43.6467" lon="2.40758">
        <ele>660.1</ele>
        <time>2015-05-14T11:53:12Z</time>
      </trkpt>
      <trkpt lat="43.64648" lon="2.40757">
        <ele>662</ele>
        <time>2015-05-14T11:53:17Z</time>
      </trkpt>
      <trkpt lat="43.64644" lon="2.40757">
        <ele>662.1</ele>
        <time>2015-05-14T11:53:18Z</time>
      </trkpt>
      <trkpt lat="43.64615" lon="2.40757">
        <ele>664.4</ele>
        <time>2015-05-14T11:53:30Z</time>
      </trkpt>
      <trkpt lat="43.64598" lon="2.40754">
        <ele>666.4</ele>
        <time>2015-05-14T11:53:40Z</time>
      </trkpt>
      <trkpt lat="43.6459" lon="2.40763">
        <ele>665.9</ele>
        <time>2015-05-14T11:53:45Z</time>
      </trkpt>
      <trkpt lat="43.64588" lon="2.40772">
        <ele>665.1</ele>
        <time>2015-05-14T11:53:48Z</time>
      </trkpt>
      <trkpt lat="43.64581" lon="2.40787">
        <ele>664.9</ele>
        <time>2015-05-14T11:53:52Z</time>
      </trkpt>
      <trkpt lat="43.64571" lon="2.40821">
        <ele>664.8</ele>
        <time>2015-05-14T11:53:59Z</time>
      </trkpt>
      <trkpt lat="43.64562" lon="2.40838">
        <ele>666.4</ele>
        <time>2015-05-14T11:54:09Z</time>
      </trkpt>
      <trkpt lat="43.64552" lon="2.40881">
        <ele>671.1</ele>
        <time>2015-05-14T11:54:23Z</time>
      </trkpt>
      <trkpt lat="43.64541" lon="2.40898">
        <ele>674.7</ele>
        <time>2015-05-14T11:54:36Z</time>
      </trkpt>
      <trkpt lat="43.64535" lon="2.40914">
        <ele>676.6</ele>
        <time>2015-05-14T11:54:49Z</time>
      </trkpt>
      <trkpt lat="43.64524" lon="2.40935">
        <ele>678.5</ele>
        <time>2015-05-14T11:55:03Z</time>
      </trkpt>
      <trkpt lat="43.64504" lon="2.40955">
        <ele>679.8</ele>
        <time>2015-05-14T11:55:17Z</time>
      </trkpt>
      <trkpt lat="43.64486" lon="2.40969">
        <ele>680.8</ele>
        <time>2015-05-14T11:55:29Z</time>
      </trkpt>
      <trkpt lat="43.64467" lon="2.40978">
        <ele>681.7</ele>
        <time>2015-05-14T11:55:40Z</time>
      </trkpt>
      <trkpt lat="43.64437" lon="2.40981">
        <ele>683.5</ele>
        <time>2015-05-14T11:55:54Z</time>
      </trkpt>
      <trkpt lat="43.64436" lon="2.40982">
        <ele>683.5</ele>
        <time>2015-05-14T11:55:55Z</time>
      </trkpt>
      <trkpt lat="43.64419" lon="2.40993">
        <ele>682.3</ele>
        <time>2015-05-14T11:56:09Z</time>
      </trkpt>
      <trkpt lat="43.64416" lon="2.40995">
        <ele>682.1</ele>
        <time>2015-05-14T11:56:12Z</time>
      </trkpt>
      <trkpt lat="43.64395" lon="2.41007">
        <ele>680.9</ele>
        <time>2015-05-14T11:56:21Z</time>
      </trkpt>
      <trkpt lat="43.64386" lon="2.41013">
        <ele>680.2</ele>
        <time>2015-05-14T11:56:23Z</time>
      </trkpt>
      <trkpt lat="43.64373" lon="2.41016">
        <ele>679.8</ele>
        <time>2015-05-14T11:56:24Z</time>
      </trkpt>
      <trkpt lat="43.64363" lon="2.41017">
        <ele>679.7</ele>
        <time>2015-05-14T11:56:25Z</time>
      </trkpt>
      <trkpt lat="43.64328" lon="2.41006">
        <ele>680</ele>
        <time>2015-05-14T11:56:34Z</time>
      </trkpt>
      <trkpt lat="43.64315" lon="2.40999">
        <ele>680.2</ele>
        <time>2015-05-14T11:56:38Z</time>
      </trkpt>
      <trkpt lat="43.64311" lon="2.40998">
        <ele>680.2</ele>
        <time>2015-05-14T11:56:39Z</time>
      </trkpt>
      <trkpt lat="43.64308" lon="2.40998">
        <ele>679.9</ele>
        <time>2015-05-14T11:56:40Z</time>
      </trkpt>
      <trkpt lat="43.643" lon="2.40997">
        <ele>679.7</ele>
        <time>2015-05-14T11:56:42Z</time>
      </trkpt>
      <trkpt lat="43.64262" lon="2.4099">
        <ele>680.9</ele>
        <time>2015-05-14T11:56:53Z</time>
      </trkpt>
      <trkpt lat="43.64243" lon="2.40986">
        <ele>682.4</ele>
        <time>2015-05-14T11:56:59Z</time>
      </trkpt>
      <trkpt lat="43.64232" lon="2.40988">
        <ele>682.4</ele>
        <time>2015-05-14T11:57:03Z</time>
      </trkpt>
      <trkpt lat="43.64192" lon="2.40997">
        <ele>683.9</ele>
        <time>2015-05-14T11:57:19Z</time>
      </trkpt>
      <trkpt lat="43.64184" lon="2.41023">
        <ele>681.3</ele>
        <time>2015-05-14T11:57:28Z</time>
      </trkpt>
      <trkpt lat="43.64184" lon="2.41061">
        <ele>677.7</ele>
        <time>2015-05-14T11:57:33Z</time>
      </trkpt>
      <trkpt lat="43.64182" lon="2.41067">
        <ele>676.9</ele>
        <time>2015-05-14T11:57:34Z</time>
      </trkpt>
      <trkpt lat="43.64177" lon="2.41073">
        <ele>676.7</ele>
        <time>2015-05-14T11:57:35Z</time>
      </trkpt>
      <trkpt lat="43.64173" lon="2.41077">
        <ele>676.8</ele>
        <time>2015-05-14T11:57:36Z</time>
      </trkpt>
      <trkpt lat="43.64169" lon="2.4108">
        <ele>677.1</ele>
        <time>2015-05-14T11:57:37Z</time>
      </trkpt>
      <trkpt lat="43.64165" lon="2.41083">
        <ele>677.3</ele>
        <time>2015-05-14T11:57:38Z</time>
      </trkpt>
      <trkpt lat="43.64147" lon="2.41095">
        <ele>676.9</ele>
        <time>2015-05-14T11:57:42Z</time>
      </trkpt>
      <trkpt lat="43.64129" lon="2.41111">
        <ele>675.7</ele>
        <time>2015-05-14T11:57:45Z</time>
      </trkpt>
      <trkpt lat="43.64123" lon="2.41115">
        <ele>675.6</ele>
        <time>2015-05-14T11:57:46Z</time>
      </trkpt>
      <trkpt lat="43.64094" lon="2.41128">
        <ele>674.9</ele>
        <time>2015-05-14T11:57:54Z</time>
      </trkpt>
      <trkpt lat="43.64078" lon="2.41144">
        <ele>673.4</ele>
        <time>2015-05-14T11:57:59Z</time>
      </trkpt>
      <trkpt lat="43.64075" lon="2.41149">
        <ele>673.1</ele>
        <time>2015-05-14T11:58:00Z</time>
      </trkpt>
      <trkpt lat="43.64073" lon="2.41152">
        <ele>673</ele>
        <time>2015-05-14T11:58:01Z</time>
      </trkpt>
      <trkpt lat="43.64071" lon="2.41155">
        <ele>673</ele>
        <time>2015-05-14T11:58:02Z</time>
      </trkpt>
      <trkpt lat="43.64069" lon="2.41158">
        <ele>673</ele>
        <time>2015-05-14T11:58:03Z</time>
      </trkpt>
      <trkpt lat="43.64048" lon="2.41173">
        <ele>673.6</ele>
        <time>2015-05-14T11:58:17Z</time>
      </trkpt>
      <trkpt lat="43.64044" lon="2.41177">
        <ele>673.7</ele>
        <time>2015-05-14T11:58:28Z</time>
      </trkpt>
      <trkpt lat="43.64045" lon="2.41176">
        <ele>673.6</ele>
        <time>2015-05-14T11:58:29Z</time>
      </trkpt>
      <trkpt lat="43.64047" lon="2.41175">
        <ele>673.6</ele>
        <time>2015-05-14T11:58:30Z</time>
      </trkpt>
      <trkpt lat="43.64048" lon="2.41174">
        <ele>673.7</ele>
        <time>2015-05-14T11:58:31Z</time>
      </trkpt>
      <trkpt lat="43.6405" lon="2.41173">
        <ele>673.7</ele>
        <time>2015-05-14T11:58:32Z</time>
      </trkpt>
      <trkpt lat="43.64052" lon="2.41171">
        <ele>673.8</ele>
        <time>2015-05-14T11:58:33Z</time>
      </trkpt>
      <trkpt lat="43.64078" lon="2.41139">
        <ele>673.6</ele>
        <time>2015-05-14T11:58:45Z</time>
      </trkpt>
      <trkpt lat="43.64082" lon="2.41131">
        <ele>674.7</ele>
        <time>2015-05-14T11:58:57Z</time>
      </trkpt>
      <trkpt lat="43.64083" lon="2.4113">
        <ele>674.9</ele>
        <time>2015-05-14T11:59:16Z</time>
      </trkpt>
      <trkpt lat="43.64082" lon="2.41133">
        <ele>674.6</ele>
        <time>2015-05-14T11:59:37Z</time>
      </trkpt>
      <trkpt lat="43.64081" lon="2.4114">
        <ele>673.8</ele>
        <time>2015-05-14T11:59:51Z</time>
      </trkpt>
      <trkpt lat="43.6408" lon="2.41141">
        <ele>673.7</ele>
        <time>2015-05-14T11:59:52Z</time>
      </trkpt>
      <trkpt lat="43.64079" lon="2.41143">
        <ele>673.5</ele>
        <time>2015-05-14T11:59:53Z</time>
      </trkpt>
      <trkpt lat="43.64068" lon="2.4116">
        <ele>673.1</ele>
        <time>2015-05-14T12:00:00Z</time>
      </trkpt>
      <trkpt lat="43.64065" lon="2.41162">
        <ele>673.2</ele>
        <time>2015-05-14T12:00:01Z</time>
      </trkpt>
      <trkpt lat="43.64063" lon="2.41164">
        <ele>673.4</ele>
        <time>2015-05-14T12:00:02Z</time>
      </trkpt>
      <trkpt lat="43.6403" lon="2.41186">
        <ele>674.1</ele>
        <time>2015-05-14T12:00:16Z</time>
      </trkpt>
      <trkpt lat="43.63991" lon="2.41213">
        <ele>673.4</ele>
        <time>2015-05-14T12:00:31Z</time>
      </trkpt>
      <trkpt lat="43.6396" lon="2.41257">
        <ele>670.5</ele>
        <time>2015-05-14T12:00:43Z</time>
      </trkpt>
      <trkpt lat="43.63957" lon="2.41262">
        <ele>670.1</ele>
        <time>2015-05-14T12:00:44Z</time>
      </trkpt>
      <trkpt lat="43.63939" lon="2.41309">
        <ele>668.5</ele>
        <time>2015-05-14T12:00:55Z</time>
      </trkpt>
      <trkpt lat="43.63938" lon="2.41311">
        <ele>668.5</ele>
        <time>2015-05-14T12:00:56Z</time>
      </trkpt>
      <trkpt lat="43.63936" lon="2.41313">
        <ele>668.5</ele>
        <time>2015-05-14T12:00:57Z</time>
      </trkpt>
      <trkpt lat="43.63935" lon="2.41315">
        <ele>668.4</ele>
        <time>2015-05-14T12:00:58Z</time>
      </trkpt>
      <trkpt lat="43.63933" lon="2.41316">
        <ele>668.3</ele>
        <time>2015-05-14T12:00:59Z</time>
      </trkpt>
      <trkpt lat="43.63931" lon="2.41315">
        <ele>668.1</ele>
        <time>2015-05-14T12:01:00Z</time>
      </trkpt>
      <trkpt lat="43.6393" lon="2.41312">
        <ele>667.8</ele>
        <time>2015-05-14T12:01:01Z</time>
      </trkpt>
      <trkpt lat="43.63928" lon="2.41308">
        <ele>667.4</ele>
        <time>2015-05-14T12:01:02Z</time>
      </trkpt>
      <trkpt lat="43.63927" lon="2.41304">
        <ele>667.2</ele>
        <time>2015-05-14T12:01:03Z</time>
      </trkpt>
      <trkpt lat="43.63926" lon="2.41299">
        <ele>667.1</ele>
        <time>2015-05-14T12:01:04Z</time>
      </trkpt>
      <trkpt lat="43.63922" lon="2.41281">
        <ele>666.6</ele>
        <time>2015-05-14T12:01:13Z</time>
      </trkpt>
      <trkpt lat="43.63905" lon="2.41216">
        <ele>663.9</ele>
        <time>2015-05-14T12:01:26Z</time>
      </trkpt>
      <trkpt lat="43.63892" lon="2.41176">
        <ele>662.2</ele>
        <time>2015-05-14T12:01:32Z</time>
      </trkpt>
      <trkpt lat="43.63865" lon="2.41117">
        <ele>662</ele>
        <time>2015-05-14T12:01:41Z</time>
      </trkpt>
      <trkpt lat="43.63863" lon="2.41112">
        <ele>662</ele>
        <time>2015-05-14T12:01:42Z</time>
      </trkpt>
      <trkpt lat="43.63861" lon="2.41109">
        <ele>662</ele>
        <time>2015-05-14T12:01:43Z</time>
      </trkpt>
      <trkpt lat="43.63858" lon="2.41106">
        <ele>662</ele>
        <time>2015-05-14T12:01:45Z</time>
      </trkpt>
      <trkpt lat="43.63856" lon="2.41104">
        <ele>662</ele>
        <time>2015-05-14T12:01:57Z</time>
      </trkpt>
      <trkpt lat="43.63855" lon="2.41106">
        <ele>662</ele>
        <time>2015-05-14T12:02:23Z</time>
      </trkpt>
      <trkpt lat="43.63853" lon="2.41104">
        <ele>662</ele>
        <time>2015-05-14T12:02:36Z</time>
      </trkpt>
      <trkpt lat="43.63853" lon="2.41103">
        <ele>662</ele>
        <time>2015-05-14T12:03:08Z</time>
      </trkpt>
      <trkpt lat="43.63851" lon="2.41104">
        <ele>662</ele>
        <time>2015-05-14T12:03:25Z</time>
      </trkpt>
      <trkpt lat="43.6385" lon="2.41105">
        <ele>662</ele>
        <time>2015-05-14T12:03:26Z</time>
      </trkpt>
      <trkpt lat="43.63848" lon="2.41106">
        <ele>662</ele>
        <time>2015-05-14T12:03:27Z</time>
      </trkpt>
      <trkpt lat="43.63846" lon="2.41107">
        <ele>662</ele>
        <time>2015-05-14T12:03:28Z</time>
      </trkpt>
      <trkpt lat="43.63845" lon="2.41108">
        <ele>662</ele>
        <time>2015-05-14T12:03:29Z</time>
      </trkpt>
      <trkpt lat="43.63843" lon="2.4111">
        <ele>662</ele>
        <time>2015-05-14T12:03:30Z</time>
      </trkpt>
      <trkpt lat="43.6384" lon="2.41112">
        <ele>662</ele>
        <time>2015-05-14T12:03:31Z</time>
      </trkpt>
      <trkpt lat="43.63838" lon="2.41114">
        <ele>661.9</ele>
        <time>2015-05-14T12:03:32Z</time>
      </trkpt>
      <trkpt lat="43.63835" lon="2.41116">
        <ele>661.8</ele>
        <time>2015-05-14T12:03:33Z</time>
      </trkpt>
      <trkpt lat="43.63807" lon="2.41147">
        <ele>661</ele>
        <time>2015-05-14T12:03:46Z</time>
      </trkpt>
      <trkpt lat="43.63801" lon="2.41151">
        <ele>661</ele>
        <time>2015-05-14T12:03:50Z</time>
      </trkpt>
      <trkpt lat="43.638" lon="2.41151">
        <ele>661</ele>
        <time>2015-05-14T12:03:51Z</time>
      </trkpt>
      <trkpt lat="43.63773" lon="2.41158">
        <ele>661</ele>
        <time>2015-05-14T12:04:05Z</time>
      </trkpt>
      <trkpt lat="43.63742" lon="2.41158">
        <ele>661.2</ele>
        <time>2015-05-14T12:04:16Z</time>
      </trkpt>
      <trkpt lat="43.6369" lon="2.41157">
        <ele>661.9</ele>
        <time>2015-05-14T12:04:29Z</time>
      </trkpt>
      <trkpt lat="43.63635" lon="2.41165">
        <ele>661.8</ele>
        <time>2015-05-14T12:04:41Z</time>
      </trkpt>
      <trkpt lat="43.63545" lon="2.41176">
        <ele>662.7</ele>
        <time>2015-05-14T12:04:58Z</time>
      </trkpt>
      <trkpt lat="43.63541" lon="2.41179">
        <ele>663.1</ele>
        <time>2015-05-14T12:04:59Z</time>
      </trkpt>
      <trkpt lat="43.63537" lon="2.41181">
        <ele>663.3</ele>
        <time>2015-05-14T12:05:00Z</time>
      </trkpt>
      <trkpt lat="43.6353" lon="2.41187">
        <ele>663.8</ele>
        <time>2015-05-14T12:05:02Z</time>
      </trkpt>
      <trkpt lat="43.63521" lon="2.41198">
        <ele>663.9</ele>
        <time>2015-05-14T12:05:05Z</time>
      </trkpt>
      <trkpt lat="43.63478" lon="2.41251">
        <ele>660.4</ele>
        <time>2015-05-14T12:05:18Z</time>
      </trkpt>
      <trkpt lat="43.63459" lon="2.41266">
        <ele>659.4</ele>
        <time>2015-05-14T12:05:23Z</time>
      </trkpt>
      <trkpt lat="43.63455" lon="2.41268">
        <ele>659.4</ele>
        <time>2015-05-14T12:05:24Z</time>
      </trkpt>
      <trkpt lat="43.63451" lon="2.4127">
        <ele>659.5</ele>
        <time>2015-05-14T12:05:25Z</time>
      </trkpt>
      <trkpt lat="43.63426" lon="2.4128">
        <ele>658.1</ele>
        <time>2015-05-14T12:05:30Z</time>
      </trkpt>
      <trkpt lat="43.6342" lon="2.41279">
        <ele>657.9</ele>
        <time>2015-05-14T12:05:31Z</time>
      </trkpt>
      <trkpt lat="43.63413" lon="2.41277">
        <ele>657.6</ele>
        <time>2015-05-14T12:05:32Z</time>
      </trkpt>
      <trkpt lat="43.63405" lon="2.41274">
        <ele>656.6</ele>
        <time>2015-05-14T12:05:33Z</time>
      </trkpt>
      <trkpt lat="43.63391" lon="2.41265">
        <ele>654.4</ele>
        <time>2015-05-14T12:05:35Z</time>
      </trkpt>
      <trkpt lat="43.63343" lon="2.41241">
        <ele>647.9</ele>
        <time>2015-05-14T12:05:41Z</time>
      </trkpt>
      <trkpt lat="43.63315" lon="2.41224">
        <ele>648.6</ele>
        <time>2015-05-14T12:05:45Z</time>
      </trkpt>
      <trkpt lat="43.63308" lon="2.4122">
        <ele>649.1</ele>
        <time>2015-05-14T12:05:46Z</time>
      </trkpt>
      <trkpt lat="43.63302" lon="2.41216">
        <ele>649.6</ele>
        <time>2015-05-14T12:05:47Z</time>
      </trkpt>
      <trkpt lat="43.63291" lon="2.41213">
        <ele>650.4</ele>
        <time>2015-05-14T12:05:49Z</time>
      </trkpt>
      <trkpt lat="43.63269" lon="2.41214">
        <ele>651.2</ele>
        <time>2015-05-14T12:05:54Z</time>
      </trkpt>
      <trkpt lat="43.63225" lon="2.41222">
        <ele>652.8</ele>
        <time>2015-05-14T12:06:06Z</time>
      </trkpt>
      <trkpt lat="43.63185" lon="2.41223">
        <ele>652.3</ele>
        <time>2015-05-14T12:06:17Z</time>
      </trkpt>
      <trkpt lat="43.63133" lon="2.41217">
        <ele>649.3</ele>
        <time>2015-05-14T12:06:26Z</time>
      </trkpt>
      <trkpt lat="43.63067" lon="2.41208">
        <ele>649.2</ele>
        <time>2015-05-14T12:06:37Z</time>
      </trkpt>
      <trkpt lat="43.63023" lon="2.41201">
        <ele>648</ele>
        <time>2015-05-14T12:06:44Z</time>
      </trkpt>
      <trkpt lat="43.62956" lon="2.4118">
        <ele>647</ele>
        <time>2015-05-14T12:06:56Z</time>
      </trkpt>
      <trkpt lat="43.6294" lon="2.41174">
        <ele>647</ele>
        <time>2015-05-14T12:06:59Z</time>
      </trkpt>
      <trkpt lat="43.62936" lon="2.41172">
        <ele>647.1</ele>
        <time>2015-05-14T12:07:00Z</time>
      </trkpt>
      <trkpt lat="43.62931" lon="2.4117">
        <ele>647.1</ele>
        <time>2015-05-14T12:07:01Z</time>
      </trkpt>
      <trkpt lat="43.62927" lon="2.41169">
        <ele>647</ele>
        <time>2015-05-14T12:07:02Z</time>
      </trkpt>
      <trkpt lat="43.62923" lon="2.41167">
        <ele>647</ele>
        <time>2015-05-14T12:07:03Z</time>
      </trkpt>
      <trkpt lat="43.6292" lon="2.41165">
        <ele>647</ele>
        <time>2015-05-14T12:07:04Z</time>
      </trkpt>
      <trkpt lat="43.62892" lon="2.41151">
        <ele>646.4</ele>
        <time>2015-05-14T12:07:16Z</time>
      </trkpt>
      <trkpt lat="43.62862" lon="2.41136">
        <ele>645.9</ele>
        <time>2015-05-14T12:07:30Z</time>
      </trkpt>
      <trkpt lat="43.62861" lon="2.41132">
        <ele>645.7</ele>
        <time>2015-05-14T12:07:31Z</time>
      </trkpt>
      <trkpt lat="43.6286" lon="2.41127">
        <ele>645.6</ele>
        <time>2015-05-14T12:07:32Z</time>
      </trkpt>
      <trkpt lat="43.6286" lon="2.41122">
        <ele>645.4</ele>
        <time>2015-05-14T12:07:33Z</time>
      </trkpt>
      <trkpt lat="43.6286" lon="2.41117">
        <ele>645.2</ele>
        <time>2015-05-14T12:07:34Z</time>
      </trkpt>
      <trkpt lat="43.62861" lon="2.41113">
        <ele>645</ele>
        <time>2015-05-14T12:07:35Z</time>
      </trkpt>
      <trkpt lat="43.6286" lon="2.41109">
        <ele>644.9</ele>
        <time>2015-05-14T12:07:36Z</time>
      </trkpt>
      <trkpt lat="43.62861" lon="2.41105">
        <ele>644.8</ele>
        <time>2015-05-14T12:07:37Z</time>
      </trkpt>
      <trkpt lat="43.62861" lon="2.41101">
        <ele>644.6</ele>
        <time>2015-05-14T12:07:38Z</time>
      </trkpt>
      <trkpt lat="43.6286" lon="2.4107">
        <ele>644</ele>
        <time>2015-05-14T12:07:44Z</time>
      </trkpt>
      <trkpt lat="43.62858" lon="2.41059">
        <ele>643.9</ele>
        <time>2015-05-14T12:07:46Z</time>
      </trkpt>
      <trkpt lat="43.62856" lon="2.41054">
        <ele>643.8</ele>
        <time>2015-05-14T12:07:47Z</time>
      </trkpt>
      <trkpt lat="43.62853" lon="2.41049">
        <ele>643.8</ele>
        <time>2015-05-14T12:07:48Z</time>
      </trkpt>
      <trkpt lat="43.6285" lon="2.41047">
        <ele>643.7</ele>
        <time>2015-05-14T12:07:49Z</time>
      </trkpt>
      <trkpt lat="43.62847" lon="2.41045">
        <ele>643.7</ele>
        <time>2015-05-14T12:07:50Z</time>
      </trkpt>
      <trkpt lat="43.62844" lon="2.41044">
        <ele>643.6</ele>
        <time>2015-05-14T12:07:51Z</time>
      </trkpt>
      <trkpt lat="43.62841" lon="2.41045">
        <ele>643.5</ele>
        <time>2015-05-14T12:07:52Z</time>
      </trkpt>
      <trkpt lat="43.62783" lon="2.41057">
        <ele>643.7</ele>
        <time>2015-05-14T12:08:07Z</time>
      </trkpt>
      <trkpt lat="43.62771" lon="2.41057">
        <ele>643.9</ele>
        <time>2015-05-14T12:08:10Z</time>
      </trkpt>
      <trkpt lat="43.62746" lon="2.41055">
        <ele>643.9</ele>
        <time>2015-05-14T12:08:21Z</time>
      </trkpt>
      <trkpt lat="43.62744" lon="2.41052">
        <ele>644.1</ele>
        <time>2015-05-14T12:08:39Z</time>
      </trkpt>
      <trkpt lat="43.62738" lon="2.41047">
        <ele>644.4</ele>
        <time>2015-05-14T12:09:19Z</time>
      </trkpt>
      <trkpt lat="43.62741" lon="2.41061">
        <ele>643.1</ele>
        <time>2015-05-14T12:09:47Z</time>
      </trkpt>
      <trkpt lat="43.6274" lon="2.41065">
        <ele>642.6</ele>
        <time>2015-05-14T12:09:49Z</time>
      </trkpt>
      <trkpt lat="43.6274" lon="2.41079">
        <ele>641.1</ele>
        <time>2015-05-14T12:09:52Z</time>
      </trkpt>
      <trkpt lat="43.62739" lon="2.41087">
        <ele>640.4</ele>
        <time>2015-05-14T12:09:53Z</time>
      </trkpt>
      <trkpt lat="43.62738" lon="2.41096">
        <ele>639.9</ele>
        <time>2015-05-14T12:09:54Z</time>
      </trkpt>
      <trkpt lat="43.62735" lon="2.41105">
        <ele>639.3</ele>
        <time>2015-05-14T12:09:55Z</time>
      </trkpt>
      <trkpt lat="43.62731" lon="2.41115">
        <ele>638.5</ele>
        <time>2015-05-14T12:09:56Z</time>
      </trkpt>
      <trkpt lat="43.62726" lon="2.41125">
        <ele>637.8</ele>
        <time>2015-05-14T12:09:57Z</time>
      </trkpt>
      <trkpt lat="43.6272" lon="2.41135">
        <ele>636.8</ele>
        <time>2015-05-14T12:09:58Z</time>
      </trkpt>
      <trkpt lat="43.62714" lon="2.41144">
        <ele>636.4</ele>
        <time>2015-05-14T12:09:59Z</time>
      </trkpt>
      <trkpt lat="43.62685" lon="2.41186">
        <ele>638.4</ele>
        <time>2015-05-14T12:10:05Z</time>
      </trkpt>
      <trkpt lat="43.62681" lon="2.41185">
        <ele>638.7</ele>
        <time>2015-05-14T12:10:06Z</time>
      </trkpt>
      <trkpt lat="43.62666" lon="2.41187">
        <ele>639.9</ele>
        <time>2015-05-14T12:10:11Z</time>
      </trkpt>
      <trkpt lat="43.6263" lon="2.41203">
        <ele>642.1</ele>
        <time>2015-05-14T12:10:22Z</time>
      </trkpt>
      <trkpt lat="43.62586" lon="2.41225">
        <ele>639.8</ele>
        <time>2015-05-14T12:10:31Z</time>
      </trkpt>
      <trkpt lat="43.62581" lon="2.41229">
        <ele>639.3</ele>
        <time>2015-05-14T12:10:32Z</time>
      </trkpt>
      <trkpt lat="43.62575" lon="2.41234">
        <ele>638.7</ele>
        <time>2015-05-14T12:10:33Z</time>
      </trkpt>
      <trkpt lat="43.6257" lon="2.4124">
        <ele>638.2</ele>
        <time>2015-05-14T12:10:34Z</time>
      </trkpt>
      <trkpt lat="43.62565" lon="2.41248">
        <ele>637.8</ele>
        <time>2015-05-14T12:10:35Z</time>
      </trkpt>
      <trkpt lat="43.62561" lon="2.41255">
        <ele>637.4</ele>
        <time>2015-05-14T12:10:36Z</time>
      </trkpt>
      <trkpt lat="43.62556" lon="2.41262">
        <ele>637</ele>
        <time>2015-05-14T12:10:37Z</time>
      </trkpt>
      <trkpt lat="43.62551" lon="2.41269">
        <ele>636.4</ele>
        <time>2015-05-14T12:10:38Z</time>
      </trkpt>
      <trkpt lat="43.62529" lon="2.41301">
        <ele>633.2</ele>
        <time>2015-05-14T12:10:42Z</time>
      </trkpt>
      <trkpt lat="43.62513" lon="2.41336">
        <ele>629.3</ele>
        <time>2015-05-14T12:10:46Z</time>
      </trkpt>
      <trkpt lat="43.6251" lon="2.41347">
        <ele>628.5</ele>
        <time>2015-05-14T12:10:47Z</time>
      </trkpt>
      <trkpt lat="43.62498" lon="2.41395">
        <ele>624.8</ele>
        <time>2015-05-14T12:10:51Z</time>
      </trkpt>
      <trkpt lat="43.62482" lon="2.41447">
        <ele>621.9</ele>
        <time>2015-05-14T12:10:55Z</time>
      </trkpt>
      <trkpt lat="43.62478" lon="2.4146">
        <ele>621.7</ele>
        <time>2015-05-14T12:10:56Z</time>
      </trkpt>
      <trkpt lat="43.62474" lon="2.41471">
        <ele>621.4</ele>
        <time>2015-05-14T12:10:57Z</time>
      </trkpt>
      <trkpt lat="43.62465" lon="2.41491">
        <ele>619.7</ele>
        <time>2015-05-14T12:10:59Z</time>
      </trkpt>
      <trkpt lat="43.62456" lon="2.4151">
        <ele>618.4</ele>
        <time>2015-05-14T12:11:01Z</time>
      </trkpt>
      <trkpt lat="43.62441" lon="2.41537">
        <ele>616.5</ele>
        <time>2015-05-14T12:11:04Z</time>
      </trkpt>
      <trkpt lat="43.6243" lon="2.41564">
        <ele>615.1</ele>
        <time>2015-05-14T12:11:07Z</time>
      </trkpt>
      <trkpt lat="43.62413" lon="2.41598">
        <ele>613</ele>
        <time>2015-05-14T12:11:11Z</time>
      </trkpt>
      <trkpt lat="43.624" lon="2.4163">
        <ele>610.1</ele>
        <time>2015-05-14T12:11:15Z</time>
      </trkpt>
      <trkpt lat="43.62393" lon="2.41646">
        <ele>608.4</ele>
        <time>2015-05-14T12:11:17Z</time>
      </trkpt>
      <trkpt lat="43.62388" lon="2.41665">
        <ele>606.9</ele>
        <time>2015-05-14T12:11:19Z</time>
      </trkpt>
      <trkpt lat="43.62367" lon="2.41738">
        <ele>603.8</ele>
        <time>2015-05-14T12:11:30Z</time>
      </trkpt>
      <trkpt lat="43.62361" lon="2.41775">
        <ele>601.2</ele>
        <time>2015-05-14T12:11:35Z</time>
      </trkpt>
      <trkpt lat="43.62362" lon="2.41783">
        <ele>601.1</ele>
        <time>2015-05-14T12:11:36Z</time>
      </trkpt>
      <trkpt lat="43.62362" lon="2.41792">
        <ele>600.4</ele>
        <time>2015-05-14T12:11:37Z</time>
      </trkpt>
      <trkpt lat="43.62361" lon="2.41801">
        <ele>599.3</ele>
        <time>2015-05-14T12:11:38Z</time>
      </trkpt>
      <trkpt lat="43.62359" lon="2.4181">
        <ele>598.2</ele>
        <time>2015-05-14T12:11:39Z</time>
      </trkpt>
      <trkpt lat="43.62356" lon="2.41818">
        <ele>596.9</ele>
        <time>2015-05-14T12:11:40Z</time>
      </trkpt>
      <trkpt lat="43.62353" lon="2.41826">
        <ele>595.7</ele>
        <time>2015-05-14T12:11:41Z</time>
      </trkpt>
      <trkpt lat="43.6235" lon="2.41834">
        <ele>594.6</ele>
        <time>2015-05-14T12:11:42Z</time>
      </trkpt>
      <trkpt lat="43.62346" lon="2.41841">
        <ele>594.3</ele>
        <time>2015-05-14T12:11:43Z</time>
      </trkpt>
      <trkpt lat="43.62343" lon="2.41847">
        <ele>593.7</ele>
        <time>2015-05-14T12:11:44Z</time>
      </trkpt>
      <trkpt lat="43.62338" lon="2.41851">
        <ele>593</ele>
        <time>2015-05-14T12:11:45Z</time>
      </trkpt>
      <trkpt lat="43.62334" lon="2.41856">
        <ele>592.2</ele>
        <time>2015-05-14T12:11:46Z</time>
      </trkpt>
      <trkpt lat="43.62328" lon="2.41861">
        <ele>591.3</ele>
        <time>2015-05-14T12:11:47Z</time>
      </trkpt>
      <trkpt lat="43.62315" lon="2.41872">
        <ele>589.7</ele>
        <time>2015-05-14T12:11:49Z</time>
      </trkpt>
      <trkpt lat="43.62309" lon="2.41876">
        <ele>588.9</ele>
        <time>2015-05-14T12:11:50Z</time>
      </trkpt>
      <trkpt lat="43.62298" lon="2.41884">
        <ele>587.8</ele>
        <time>2015-05-14T12:11:52Z</time>
      </trkpt>
      <trkpt lat="43.62276" lon="2.41912">
        <ele>586.7</ele>
        <time>2015-05-14T12:11:56Z</time>
      </trkpt>
      <trkpt lat="43.6227" lon="2.41922">
        <ele>585.9</ele>
        <time>2015-05-14T12:11:58Z</time>
      </trkpt>
      <trkpt lat="43.62268" lon="2.41927">
        <ele>585.6</ele>
        <time>2015-05-14T12:12:01Z</time>
      </trkpt>
      <trkpt lat="43.62268" lon="2.41938">
        <ele>585.8</ele>
        <time>2015-05-14T12:12:30Z</time>
      </trkpt>
      <trkpt lat="43.6227" lon="2.41942">
        <ele>586.7</ele>
        <time>2015-05-14T12:12:59Z</time>
      </trkpt>
      <trkpt lat="43.6227" lon="2.41942">
        <ele>586.6</ele>
        <time>2015-05-14T12:13:26Z</time>
      </trkpt>
      <trkpt lat="43.62271" lon="2.4194">
        <ele>587</ele>
        <time>2015-05-14T12:13:40Z</time>
      </trkpt>
      <trkpt lat="43.62272" lon="2.419">
        <ele>584</ele>
        <time>2015-05-14T12:13:49Z</time>
      </trkpt>
      <trkpt lat="43.62273" lon="2.41893">
        <ele>583.3</ele>
        <time>2015-05-14T12:13:50Z</time>
      </trkpt>
      <trkpt lat="43.62273" lon="2.41886">
        <ele>582</ele>
        <time>2015-05-14T12:13:51Z</time>
      </trkpt>
      <trkpt lat="43.62273" lon="2.4188">
        <ele>580.7</ele>
        <time>2015-05-14T12:13:52Z</time>
      </trkpt>
      <trkpt lat="43.62273" lon="2.41875">
        <ele>579.6</ele>
        <time>2015-05-14T12:13:53Z</time>
      </trkpt>
      <trkpt lat="43.62271" lon="2.41859">
        <ele>574.9</ele>
        <time>2015-05-14T12:13:57Z</time>
      </trkpt>
      <trkpt lat="43.62263" lon="2.41856">
        <ele>572.3</ele>
        <time>2015-05-14T12:14:02Z</time>
      </trkpt>
      <trkpt lat="43.62259" lon="2.41859">
        <ele>572.2</ele>
        <time>2015-05-14T12:14:03Z</time>
      </trkpt>
      <trkpt lat="43.62243" lon="2.41881">
        <ele>571.4</ele>
        <time>2015-05-14T12:14:07Z</time>
      </trkpt>
      <trkpt lat="43.6224" lon="2.41886">
        <ele>570.6</ele>
        <time>2015-05-14T12:14:08Z</time>
      </trkpt>
      <trkpt lat="43.62234" lon="2.41898">
        <ele>568.7</ele>
        <time>2015-05-14T12:14:10Z</time>
      </trkpt>
      <trkpt lat="43.62232" lon="2.41903">
        <ele>567.9</ele>
        <time>2015-05-14T12:14:11Z</time>
      </trkpt>
      <trkpt lat="43.62232" lon="2.41907">
        <ele>567.9</ele>
        <time>2015-05-14T12:14:12Z</time>
      </trkpt>
      <trkpt lat="43.6223" lon="2.41916">
        <ele>567.9</ele>
        <time>2015-05-14T12:14:13Z</time>
      </trkpt>
      <trkpt lat="43.62228" lon="2.41922">
        <ele>566.6</ele>
        <time>2015-05-14T12:14:14Z</time>
      </trkpt>
      <trkpt lat="43.62226" lon="2.41928">
        <ele>565</ele>
        <time>2015-05-14T12:14:15Z</time>
      </trkpt>
      <trkpt lat="43.62218" lon="2.41942">
        <ele>559.2</ele>
        <time>2015-05-14T12:14:17Z</time>
      </trkpt>
      <trkpt lat="43.62215" lon="2.4195">
        <ele>556.9</ele>
        <time>2015-05-14T12:14:18Z</time>
      </trkpt>
      <trkpt lat="43.62202" lon="2.41966">
        <ele>548.4</ele>
        <time>2015-05-14T12:14:20Z</time>
      </trkpt>
      <trkpt lat="43.62179" lon="2.42009">
        <ele>539.5</ele>
        <time>2015-05-14T12:14:25Z</time>
      </trkpt>
      <trkpt lat="43.62171" lon="2.42024">
        <ele>537.8</ele>
        <time>2015-05-14T12:14:27Z</time>
      </trkpt>
      <trkpt lat="43.62166" lon="2.42048">
        <ele>537.1</ele>
        <time>2015-05-14T12:14:31Z</time>
      </trkpt>
      <trkpt lat="43.62164" lon="2.4206">
        <ele>536.6</ele>
        <time>2015-05-14T12:14:33Z</time>
      </trkpt>
      <trkpt lat="43.62159" lon="2.42072">
        <ele>534.3</ele>
        <time>2015-05-14T12:14:36Z</time>
      </trkpt>
      <trkpt lat="43.62151" lon="2.42088">
        <ele>530.7</ele>
        <time>2015-05-14T12:14:39Z</time>
      </trkpt>
      <trkpt lat="43.62142" lon="2.42103">
        <ele>525.9</ele>
        <time>2015-05-14T12:14:42Z</time>
      </trkpt>
      <trkpt lat="43.62138" lon="2.42114">
        <ele>523.9</ele>
        <time>2015-05-14T12:14:44Z</time>
      </trkpt>
      <trkpt lat="43.62134" lon="2.42124">
        <ele>523.6</ele>
        <time>2015-05-14T12:14:46Z</time>
      </trkpt>
      <trkpt lat="43.62119" lon="2.42157">
        <ele>523.5</ele>
        <time>2015-05-14T12:14:50Z</time>
      </trkpt>
      <trkpt lat="43.62112" lon="2.42201">
        <ele>525.5</ele>
        <time>2015-05-14T12:14:59Z</time>
      </trkpt>
      <trkpt lat="43.62109" lon="2.42231">
        <ele>527.8</ele>
        <time>2015-05-14T12:15:11Z</time>
      </trkpt>
      <trkpt lat="43.62107" lon="2.42237">
        <ele>528.5</ele>
        <time>2015-05-14T12:15:29Z</time>
      </trkpt>
      <trkpt lat="43.62099" lon="2.42232">
        <ele>531.7</ele>
        <time>2015-05-14T12:15:50Z</time>
      </trkpt>
      <trkpt lat="43.62097" lon="2.42232">
        <ele>532.3</ele>
        <time>2015-05-14T12:16:08Z</time>
      </trkpt>
      <trkpt lat="43.62092" lon="2.42224">
        <ele>534.6</ele>
        <time>2015-05-14T12:16:24Z</time>
      </trkpt>
      <trkpt lat="43.62087" lon="2.42226">
        <ele>536.5</ele>
        <time>2015-05-14T12:16:39Z</time>
      </trkpt>
      <trkpt lat="43.62086" lon="2.42235">
        <ele>536.7</ele>
        <time>2015-05-14T12:16:55Z</time>
      </trkpt>
      <trkpt lat="43.62082" lon="2.42243">
        <ele>537.6</ele>
        <time>2015-05-14T12:17:14Z</time>
      </trkpt>
      <trkpt lat="43.62079" lon="2.42251">
        <ele>538.7</ele>
        <time>2015-05-14T12:17:35Z</time>
      </trkpt>
      <trkpt lat="43.62075" lon="2.42242">
        <ele>541</ele>
        <time>2015-05-14T12:17:57Z</time>
      </trkpt>
      <trkpt lat="43.62069" lon="2.42232">
        <ele>544.4</ele>
        <time>2015-05-14T12:18:12Z</time>
      </trkpt>
      <trkpt lat="43.62057" lon="2.42246">
        <ele>548.7</ele>
        <time>2015-05-14T12:18:25Z</time>
      </trkpt>
      <trkpt lat="43.62049" lon="2.42252">
        <ele>551.4</ele>
        <time>2015-05-14T12:18:40Z</time>
      </trkpt>
      <trkpt lat="43.62041" lon="2.4227">
        <ele>552.2</ele>
        <time>2015-05-14T12:18:55Z</time>
      </trkpt>
      <trkpt lat="43.62036" lon="2.42282">
        <ele>552.7</ele>
        <time>2015-05-14T12:19:04Z</time>
      </trkpt>
      <trkpt lat="43.62032" lon="2.42283">
        <ele>553.8</ele>
        <time>2015-05-14T12:19:17Z</time>
      </trkpt>
      <trkpt lat="43.62027" lon="2.42277">
        <ele>557.5</ele>
        <time>2015-05-14T12:19:32Z</time>
      </trkpt>
      <trkpt lat="43.62023" lon="2.4227">
        <ele>559.7</ele>
        <time>2015-05-14T12:19:42Z</time>
      </trkpt>
      <trkpt lat="43.62026" lon="2.42252">
        <ele>560.5</ele>
        <time>2015-05-14T12:19:53Z</time>
      </trkpt>
      <trkpt lat="43.62023" lon="2.42239">
        <ele>562</ele>
        <time>2015-05-14T12:20:04Z</time>
      </trkpt>
      <trkpt lat="43.62019" lon="2.42225">
        <ele>564.2</ele>
        <time>2015-05-14T12:20:18Z</time>
      </trkpt>
      <trkpt lat="43.62015" lon="2.42223">
        <ele>565.7</ele>
        <time>2015-05-14T12:20:34Z</time>
      </trkpt>
      <trkpt lat="43.62016" lon="2.42232">
        <ele>565</ele>
        <time>2015-05-14T12:20:50Z</time>
      </trkpt>
      <trkpt lat="43.62006" lon="2.42246">
        <ele>567.9</ele>
        <time>2015-05-14T12:21:05Z</time>
      </trkpt>
      <trkpt lat="43.62005" lon="2.42256">
        <ele>568</ele>
        <time>2015-05-14T12:21:19Z</time>
      </trkpt>
      <trkpt lat="43.62004" lon="2.42255">
        <ele>568.3</ele>
        <time>2015-05-14T12:21:36Z</time>
      </trkpt>
      <trkpt lat="43.62" lon="2.42269">
        <ele>569.4</ele>
        <time>2015-05-14T12:21:49Z</time>
      </trkpt>
      <trkpt lat="43.61988" lon="2.42283">
        <ele>572</ele>
        <time>2015-05-14T12:22:05Z</time>
      </trkpt>
      <trkpt lat="43.61976" lon="2.42293">
        <ele>575.6</ele>
        <time>2015-05-14T12:22:20Z</time>
      </trkpt>
      <trkpt lat="43.61964" lon="2.42304">
        <ele>578.2</ele>
        <time>2015-05-14T12:22:36Z</time>
      </trkpt>
      <trkpt lat="43.61958" lon="2.42309">
        <ele>579.2</ele>
        <time>2015-05-14T12:22:54Z</time>
      </trkpt>
      <trkpt lat="43.6195" lon="2.42318">
        <ele>580.2</ele>
        <time>2015-05-14T12:23:08Z</time>
      </trkpt>
      <trkpt lat="43.6194" lon="2.42324">
        <ele>581.8</ele>
        <time>2015-05-14T12:23:22Z</time>
      </trkpt>
      <trkpt lat="43.61927" lon="2.42332">
        <ele>584.4</ele>
        <time>2015-05-14T12:23:37Z</time>
      </trkpt>
      <trkpt lat="43.6191" lon="2.42343">
        <ele>586.5</ele>
        <time>2015-05-14T12:23:51Z</time>
      </trkpt>
      <trkpt lat="43.61899" lon="2.4235">
        <ele>587.8</ele>
        <time>2015-05-14T12:24:06Z</time>
      </trkpt>
      <trkpt lat="43.61886" lon="2.42356">
        <ele>590</ele>
        <time>2015-05-14T12:24:19Z</time>
      </trkpt>
      <trkpt lat="43.61878" lon="2.42364">
        <ele>590.5</ele>
        <time>2015-05-14T12:24:34Z</time>
      </trkpt>
      <trkpt lat="43.61876" lon="2.42365">
        <ele>590.6</ele>
        <time>2015-05-14T12:24:36Z</time>
      </trkpt>
      <trkpt lat="43.61859" lon="2.42385">
        <ele>592</ele>
        <time>2015-05-14T12:24:50Z</time>
      </trkpt>
      <trkpt lat="43.61857" lon="2.42387">
        <ele>592.1</ele>
        <time>2015-05-14T12:24:52Z</time>
      </trkpt>
      <trkpt lat="43.61847" lon="2.42396">
        <ele>591.9</ele>
        <time>2015-05-14T12:24:59Z</time>
      </trkpt>
      <trkpt lat="43.6183" lon="2.42415">
        <ele>592.3</ele>
        <time>2015-05-14T12:25:13Z</time>
      </trkpt>
      <trkpt lat="43.61812" lon="2.42434">
        <ele>593.6</ele>
        <time>2015-05-14T12:25:26Z</time>
      </trkpt>
      <trkpt lat="43.61791" lon="2.42448">
        <ele>596.2</ele>
        <time>2015-05-14T12:25:40Z</time>
      </trkpt>
      <trkpt lat="43.61763" lon="2.42466">
        <ele>599.6</ele>
        <time>2015-05-14T12:25:53Z</time>
      </trkpt>
      <trkpt lat="43.61736" lon="2.42473">
        <ele>600.7</ele>
        <time>2015-05-14T12:26:05Z</time>
      </trkpt>
      <trkpt lat="43.61702" lon="2.42476">
        <ele>602</ele>
        <time>2015-05-14T12:26:17Z</time>
      </trkpt>
      <trkpt lat="43.61665" lon="2.42462">
        <ele>603.4</ele>
        <time>2015-05-14T12:26:31Z</time>
      </trkpt>
      <trkpt lat="43.61633" lon="2.42445">
        <ele>603.8</ele>
        <time>2015-05-14T12:26:44Z</time>
      </trkpt>
      <trkpt lat="43.61598" lon="2.42431">
        <ele>600.4</ele>
        <time>2015-05-14T12:26:56Z</time>
      </trkpt>
      <trkpt lat="43.61585" lon="2.42431">
        <ele>599.2</ele>
        <time>2015-05-14T12:26:59Z</time>
      </trkpt>
      <trkpt lat="43.61543" lon="2.42452">
        <ele>593.6</ele>
        <time>2015-05-14T12:27:09Z</time>
      </trkpt>
      <trkpt lat="43.6154" lon="2.42454">
        <ele>592.6</ele>
        <time>2015-05-14T12:27:11Z</time>
      </trkpt>
      <trkpt lat="43.61538" lon="2.42453">
        <ele>592.2</ele>
        <time>2015-05-14T12:27:12Z</time>
      </trkpt>
      <trkpt lat="43.61537" lon="2.42452">
        <ele>591.8</ele>
        <time>2015-05-14T12:27:13Z</time>
      </trkpt>
      <trkpt lat="43.61535" lon="2.42449">
        <ele>591.6</ele>
        <time>2015-05-14T12:27:14Z</time>
      </trkpt>
      <trkpt lat="43.61533" lon="2.42445">
        <ele>591.3</ele>
        <time>2015-05-14T12:27:15Z</time>
      </trkpt>
      <trkpt lat="43.61531" lon="2.42441">
        <ele>590.8</ele>
        <time>2015-05-14T12:27:16Z</time>
      </trkpt>
      <trkpt lat="43.61512" lon="2.42405">
        <ele>588.3</ele>
        <time>2015-05-14T12:27:24Z</time>
      </trkpt>
      <trkpt lat="43.61506" lon="2.42398">
        <ele>587.5</ele>
        <time>2015-05-14T12:27:26Z</time>
      </trkpt>
      <trkpt lat="43.61503" lon="2.42394">
        <ele>587.2</ele>
        <time>2015-05-14T12:27:27Z</time>
      </trkpt>
      <trkpt lat="43.615" lon="2.42389">
        <ele>586.9</ele>
        <time>2015-05-14T12:27:28Z</time>
      </trkpt>
      <trkpt lat="43.61497" lon="2.42383">
        <ele>586.3</ele>
        <time>2015-05-14T12:27:29Z</time>
      </trkpt>
      <trkpt lat="43.61495" lon="2.42377">
        <ele>585.8</ele>
        <time>2015-05-14T12:27:30Z</time>
      </trkpt>
      <trkpt lat="43.61493" lon="2.42372">
        <ele>585.5</ele>
        <time>2015-05-14T12:27:31Z</time>
      </trkpt>
      <trkpt lat="43.61492" lon="2.42367">
        <ele>585.2</ele>
        <time>2015-05-14T12:27:32Z</time>
      </trkpt>
      <trkpt lat="43.6149" lon="2.42362">
        <ele>584.9</ele>
        <time>2015-05-14T12:27:33Z</time>
      </trkpt>
      <trkpt lat="43.61488" lon="2.42359">
        <ele>584.7</ele>
        <time>2015-05-14T12:27:34Z</time>
      </trkpt>
      <trkpt lat="43.61487" lon="2.42356">
        <ele>584.5</ele>
        <time>2015-05-14T12:27:35Z</time>
      </trkpt>
      <trkpt lat="43.61485" lon="2.42355">
        <ele>584.2</ele>
        <time>2015-05-14T12:27:36Z</time>
      </trkpt>
      <trkpt lat="43.61482" lon="2.42353">
        <ele>584</ele>
        <time>2015-05-14T12:27:37Z</time>
      </trkpt>
      <trkpt lat="43.61477" lon="2.42349">
        <ele>583.5</ele>
        <time>2015-05-14T12:27:38Z</time>
      </trkpt>
      <trkpt lat="43.61472" lon="2.42343">
        <ele>583</ele>
        <time>2015-05-14T12:27:39Z</time>
      </trkpt>
      <trkpt lat="43.61458" lon="2.42325">
        <ele>580.1</ele>
        <time>2015-05-14T12:27:42Z</time>
      </trkpt>
      <trkpt lat="43.61454" lon="2.42321">
        <ele>579.5</ele>
        <time>2015-05-14T12:27:43Z</time>
      </trkpt>
      <trkpt lat="43.61446" lon="2.42315">
        <ele>578</ele>
        <time>2015-05-14T12:27:49Z</time>
      </trkpt>
      <trkpt lat="43.61445" lon="2.42315">
        <ele>577.8</ele>
        <time>2015-05-14T12:27:50Z</time>
      </trkpt>
      <trkpt lat="43.61444" lon="2.42314">
        <ele>577.4</ele>
        <time>2015-05-14T12:27:51Z</time>
      </trkpt>
      <trkpt lat="43.61442" lon="2.42313">
        <ele>576.9</ele>
        <time>2015-05-14T12:27:52Z</time>
      </trkpt>
      <trkpt lat="43.6144" lon="2.42313">
        <ele>576.3</ele>
        <time>2015-05-14T12:27:53Z</time>
      </trkpt>
      <trkpt lat="43.61434" lon="2.4231">
        <ele>574.4</ele>
        <time>2015-05-14T12:27:56Z</time>
      </trkpt>
      <trkpt lat="43.6143" lon="2.42307">
        <ele>573.3</ele>
        <time>2015-05-14T12:28:07Z</time>
      </trkpt>
      <trkpt lat="43.61429" lon="2.42307">
        <ele>573</ele>
        <time>2015-05-14T12:28:09Z</time>
      </trkpt>
      <trkpt lat="43.61421" lon="2.42304">
        <ele>570.9</ele>
        <time>2015-05-14T12:28:12Z</time>
      </trkpt>
      <trkpt lat="43.61418" lon="2.42303">
        <ele>569.8</ele>
        <time>2015-05-14T12:28:13Z</time>
      </trkpt>
      <trkpt lat="43.61413" lon="2.42303">
        <ele>568.3</ele>
        <time>2015-05-14T12:28:14Z</time>
      </trkpt>
      <trkpt lat="43.61407" lon="2.42303">
        <ele>566.5</ele>
        <time>2015-05-14T12:28:15Z</time>
      </trkpt>
      <trkpt lat="43.61402" lon="2.42304">
        <ele>564.7</ele>
        <time>2015-05-14T12:28:16Z</time>
      </trkpt>
      <trkpt lat="43.61391" lon="2.42302">
        <ele>561.7</ele>
        <time>2015-05-14T12:28:18Z</time>
      </trkpt>
      <trkpt lat="43.61386" lon="2.42301">
        <ele>560.7</ele>
        <time>2015-05-14T12:28:19Z</time>
      </trkpt>
      <trkpt lat="43.6138" lon="2.42301">
        <ele>559.5</ele>
        <time>2015-05-14T12:28:20Z</time>
      </trkpt>
      <trkpt lat="43.61369" lon="2.42299">
        <ele>557.5</ele>
        <time>2015-05-14T12:28:22Z</time>
      </trkpt>
      <trkpt lat="43.61364" lon="2.42299">
        <ele>556.5</ele>
        <time>2015-05-14T12:28:23Z</time>
      </trkpt>
      <trkpt lat="43.61344" lon="2.42296">
        <ele>552.5</ele>
        <time>2015-05-14T12:28:26Z</time>
      </trkpt>
      <trkpt lat="43.61339" lon="2.42295">
        <ele>551.5</ele>
        <time>2015-05-14T12:28:27Z</time>
      </trkpt>
      <trkpt lat="43.61329" lon="2.42292">
        <ele>549.7</ele>
        <time>2015-05-14T12:28:31Z</time>
      </trkpt>
      <trkpt lat="43.61329" lon="2.42293">
        <ele>549.7</ele>
        <time>2015-05-14T12:28:32Z</time>
      </trkpt>
      <trkpt lat="43.61325" lon="2.42295">
        <ele>548.9</ele>
        <time>2015-05-14T12:28:35Z</time>
      </trkpt>
      <trkpt lat="43.61322" lon="2.42296">
        <ele>548.6</ele>
        <time>2015-05-14T12:28:36Z</time>
      </trkpt>
      <trkpt lat="43.61319" lon="2.42296">
        <ele>548.1</ele>
        <time>2015-05-14T12:28:37Z</time>
      </trkpt>
      <trkpt lat="43.61316" lon="2.42297">
        <ele>547.7</ele>
        <time>2015-05-14T12:28:38Z</time>
      </trkpt>
      <trkpt lat="43.61313" lon="2.42296">
        <ele>547.3</ele>
        <time>2015-05-14T12:28:39Z</time>
      </trkpt>
      <trkpt lat="43.61302" lon="2.42285">
        <ele>545</ele>
        <time>2015-05-14T12:28:42Z</time>
      </trkpt>
      <trkpt lat="43.61299" lon="2.42282">
        <ele>544.2</ele>
        <time>2015-05-14T12:28:43Z</time>
      </trkpt>
      <trkpt lat="43.61266" lon="2.42275">
        <ele>539</ele>
        <time>2015-05-14T12:28:51Z</time>
      </trkpt>
      <trkpt lat="43.61249" lon="2.42269">
        <ele>536.9</ele>
        <time>2015-05-14T12:28:54Z</time>
      </trkpt>
      <trkpt lat="43.61232" lon="2.42263">
        <ele>532.5</ele>
        <time>2015-05-14T12:28:56Z</time>
      </trkpt>
      <trkpt lat="43.61217" lon="2.42255">
        <ele>527.7</ele>
        <time>2015-05-14T12:28:58Z</time>
      </trkpt>
      <trkpt lat="43.61205" lon="2.4226">
        <ele>525.7</ele>
        <time>2015-05-14T12:28:59Z</time>
      </trkpt>
      <trkpt lat="43.61193" lon="2.42267">
        <ele>524.3</ele>
        <time>2015-05-14T12:29:00Z</time>
      </trkpt>
      <trkpt lat="43.61164" lon="2.42288">
        <ele>521.9</ele>
        <time>2015-05-14T12:29:04Z</time>
      </trkpt>
      <trkpt lat="43.61152" lon="2.42295">
        <ele>521.5</ele>
        <time>2015-05-14T12:29:06Z</time>
      </trkpt>
      <trkpt lat="43.61145" lon="2.42299">
        <ele>520.8</ele>
        <time>2015-05-14T12:29:07Z</time>
      </trkpt>
      <trkpt lat="43.61138" lon="2.42302">
        <ele>520.1</ele>
        <time>2015-05-14T12:29:08Z</time>
      </trkpt>
      <trkpt lat="43.6113" lon="2.42304">
        <ele>519.8</ele>
        <time>2015-05-14T12:29:09Z</time>
      </trkpt>
      <trkpt lat="43.61123" lon="2.42305">
        <ele>519.2</ele>
        <time>2015-05-14T12:29:10Z</time>
      </trkpt>
      <trkpt lat="43.61115" lon="2.42306">
        <ele>518.5</ele>
        <time>2015-05-14T12:29:11Z</time>
      </trkpt>
      <trkpt lat="43.61091" lon="2.42306">
        <ele>516.6</ele>
        <time>2015-05-14T12:29:14Z</time>
      </trkpt>
      <trkpt lat="43.61083" lon="2.42303">
        <ele>515.4</ele>
        <time>2015-05-14T12:29:15Z</time>
      </trkpt>
      <trkpt lat="43.61075" lon="2.42299">
        <ele>514.1</ele>
        <time>2015-05-14T12:29:16Z</time>
      </trkpt>
      <trkpt lat="43.61068" lon="2.42295">
        <ele>512.7</ele>
        <time>2015-05-14T12:29:17Z</time>
      </trkpt>
      <trkpt lat="43.6104" lon="2.42281">
        <ele>508.5</ele>
        <time>2015-05-14T12:29:21Z</time>
      </trkpt>
      <trkpt lat="43.61017" lon="2.42271">
        <ele>506.7</ele>
        <time>2015-05-14T12:29:24Z</time>
      </trkpt>
      <trkpt lat="43.61008" lon="2.4227">
        <ele>507</ele>
        <time>2015-05-14T12:29:25Z</time>
      </trkpt>
      <trkpt lat="43.61002" lon="2.42274">
        <ele>508</ele>
        <time>2015-05-14T12:29:26Z</time>
      </trkpt>
      <trkpt lat="43.60997" lon="2.42278">
        <ele>508.7</ele>
        <time>2015-05-14T12:29:27Z</time>
      </trkpt>
      <trkpt lat="43.60993" lon="2.42281">
        <ele>508.6</ele>
        <time>2015-05-14T12:29:28Z</time>
      </trkpt>
      <trkpt lat="43.60989" lon="2.42285">
        <ele>508.7</ele>
        <time>2015-05-14T12:29:29Z</time>
      </trkpt>
      <trkpt lat="43.60979" lon="2.42302">
        <ele>509</ele>
        <time>2015-05-14T12:29:36Z</time>
      </trkpt>
      <trkpt lat="43.6098" lon="2.42304">
        <ele>509.3</ele>
        <time>2015-05-14T12:29:37Z</time>
      </trkpt>
      <trkpt lat="43.60982" lon="2.42307">
        <ele>510</ele>
        <time>2015-05-14T12:29:39Z</time>
      </trkpt>
      <trkpt lat="43.60992" lon="2.42291">
        <ele>509.7</ele>
        <time>2015-05-14T12:29:46Z</time>
      </trkpt>
      <trkpt lat="43.60991" lon="2.42288">
        <ele>509.2</ele>
        <time>2015-05-14T12:29:47Z</time>
      </trkpt>
      <trkpt lat="43.60989" lon="2.42284">
        <ele>508.5</ele>
        <time>2015-05-14T12:29:48Z</time>
      </trkpt>
      <trkpt lat="43.60987" lon="2.4228">
        <ele>507.8</ele>
        <time>2015-05-14T12:29:49Z</time>
      </trkpt>
      <trkpt lat="43.60985" lon="2.42276">
        <ele>507.1</ele>
        <time>2015-05-14T12:29:50Z</time>
      </trkpt>
      <trkpt lat="43.60983" lon="2.42273">
        <ele>506.5</ele>
        <time>2015-05-14T12:29:51Z</time>
      </trkpt>
      <trkpt lat="43.60982" lon="2.42271">
        <ele>506</ele>
        <time>2015-05-14T12:29:52Z</time>
      </trkpt>
      <trkpt lat="43.60981" lon="2.42268">
        <ele>505.6</ele>
        <time>2015-05-14T12:29:53Z</time>
      </trkpt>
      <trkpt lat="43.60981" lon="2.42267">
        <ele>505.4</ele>
        <time>2015-05-14T12:29:54Z</time>
      </trkpt>
      <trkpt lat="43.6098" lon="2.42265">
        <ele>505</ele>
        <time>2015-05-14T12:29:55Z</time>
      </trkpt>
      <trkpt lat="43.6097" lon="2.42248">
        <ele>502.6</ele>
        <time>2015-05-14T12:30:02Z</time>
      </trkpt>
      <trkpt lat="43.60968" lon="2.4225">
        <ele>502.6</ele>
        <time>2015-05-14T12:30:13Z</time>
      </trkpt>
      <trkpt lat="43.60968" lon="2.42255">
        <ele>503</ele>
        <time>2015-05-14T12:30:57Z</time>
      </trkpt>
      <trkpt lat="43.6097" lon="2.42254">
        <ele>503.1</ele>
        <time>2015-05-14T12:31:35Z</time>
      </trkpt>
      <trkpt lat="43.60969" lon="2.42256">
        <ele>503.2</ele>
        <time>2015-05-14T12:32:06Z</time>
      </trkpt>
      <trkpt lat="43.60966" lon="2.42261">
        <ele>503.2</ele>
        <time>2015-05-14T12:32:36Z</time>
      </trkpt>
      <trkpt lat="43.60966" lon="2.42262">
        <ele>503.4</ele>
        <time>2015-05-14T12:33:05Z</time>
      </trkpt>
      <trkpt lat="43.60965" lon="2.42264">
        <ele>503.4</ele>
        <time>2015-05-14T12:33:30Z</time>
      </trkpt>
      <trkpt lat="43.60967" lon="2.4226">
        <ele>503.4</ele>
        <time>2015-05-14T12:34:02Z</time>
      </trkpt>
      <trkpt lat="43.60968" lon="2.4226">
        <ele>503.4</ele>
        <time>2015-05-14T12:34:27Z</time>
      </trkpt>
      <trkpt lat="43.60974" lon="2.42252">
        <ele>503.3</ele>
        <time>2015-05-14T12:35:01Z</time>
      </trkpt>
      <trkpt lat="43.60975" lon="2.42254">
        <ele>503.5</ele>
        <time>2015-05-14T12:35:27Z</time>
      </trkpt>
      <trkpt lat="43.60972" lon="2.42256">
        <ele>503.6</ele>
        <time>2015-05-14T12:35:59Z</time>
      </trkpt>
      <trkpt lat="43.6097" lon="2.42256">
        <ele>503.5</ele>
        <time>2015-05-14T12:36:21Z</time>
      </trkpt>
      <trkpt lat="43.60972" lon="2.42254">
        <ele>503.4</ele>
        <time>2015-05-14T12:36:44Z</time>
      </trkpt>
      <trkpt lat="43.60971" lon="2.42255">
        <ele>503.4</ele>
        <time>2015-05-14T12:37:11Z</time>
      </trkpt>
      <trkpt lat="43.60973" lon="2.42255">
        <ele>503.5</ele>
        <time>2015-05-14T12:37:45Z</time>
      </trkpt>
      <trkpt lat="43.60973" lon="2.42255">
        <ele>503.6</ele>
        <time>2015-05-14T12:38:15Z</time>
      </trkpt>
      <trkpt lat="43.60974" lon="2.42255">
        <ele>503.5</ele>
        <time>2015-05-14T12:38:47Z</time>
      </trkpt>
      <trkpt lat="43.60972" lon="2.42254">
        <ele>503.4</ele>
        <time>2015-05-14T12:39:16Z</time>
      </trkpt>
      <trkpt lat="43.60969" lon="2.42255">
        <ele>503.1</ele>
        <time>2015-05-14T12:39:38Z</time>
      </trkpt>
      <trkpt lat="43.60968" lon="2.42254">
        <ele>502.9</ele>
        <time>2015-05-14T12:39:57Z</time>
      </trkpt>
      <trkpt lat="43.60968" lon="2.42254">
        <ele>503</ele>
        <time>2015-05-14T12:40:19Z</time>
      </trkpt>
      <trkpt lat="43.60968" lon="2.42256">
        <ele>503.1</ele>
        <time>2015-05-14T12:40:33Z</time>
      </trkpt>
      <trkpt lat="43.6097" lon="2.42254">
        <ele>503.2</ele>
        <time>2015-05-14T12:40:56Z</time>
      </trkpt>
      <trkpt lat="43.60973" lon="2.42253">
        <ele>503.3</ele>
        <time>2015-05-14T12:41:17Z</time>
      </trkpt>
      <trkpt lat="43.60972" lon="2.42252">
        <ele>503.1</ele>
        <time>2015-05-14T12:41:42Z</time>
      </trkpt>
      <trkpt lat="43.60971" lon="2.42252">
        <ele>503</ele>
        <time>2015-05-14T12:41:59Z</time>
      </trkpt>
      <trkpt lat="43.6097" lon="2.42254">
        <ele>503.1</ele>
        <time>2015-05-14T12:42:20Z</time>
      </trkpt>
      <trkpt lat="43.60972" lon="2.42251">
        <ele>503.2</ele>
        <time>2015-05-14T12:42:34Z</time>
      </trkpt>
    </trkseg>
  </trk>
</gpx>